Provisional Data: Young Woman's Creek near North Bend, PA


Please select a monitoring station.
Please select start date.
Please select start date.

Toggle Unit: C/F Toggle Unit: C/F
Sample Time Temperature (C) Temperature (F) Specific Conductivity (mS/cm) pH   Turbidity (NTU+) DO (mg/L)
3/7/2021 12:00:00 AM 1.86 35.348 0.033 6.95 2.79 13.67
3/7/2021 12:15:00 AM 1.83 35.294 0.033 6.96 2.78 13.69
3/7/2021 12:30:00 AM 1.8 35.24 0.033 6.96 2.76 13.71
3/7/2021 12:45:00 AM 1.78 35.204 0.033 6.92 2.79 13.72
3/7/2021 1:00:00 AM 1.74 35.132 0.033 6.97 2.81 13.73
3/7/2021 1:15:00 AM 1.71 35.078 0.033 6.95 2.69 13.74
3/7/2021 1:30:00 AM 1.68 35.024 0.033 6.96 2.79 13.76
3/7/2021 1:45:00 AM 1.63 34.934 0.033 6.95 2.65 13.78
3/7/2021 2:00:00 AM 1.59 34.862 0.033 6.98 2.73 13.79
3/7/2021 2:15:00 AM 1.54 34.772 0.033 6.96 2.7 13.81
3/7/2021 2:30:00 AM 1.5 34.7 0.033 6.96 2.82 13.82
3/7/2021 2:45:00 AM 1.45 34.61 0.033 6.98 2.73 13.84
3/7/2021 3:00:00 AM 1.41 34.538 0.033 6.95 2.83 13.86
3/7/2021 3:15:00 AM 1.36 34.448 0.033 6.96 2.66 13.87
3/7/2021 3:30:00 AM 1.32 34.376 0.033 6.95 2.63 13.89
3/7/2021 3:45:00 AM 1.26 34.268 0.033 6.94 2.65 13.9
3/7/2021 4:00:00 AM 1.21 34.178 0.033 6.95 2.67 13.92
3/7/2021 4:15:00 AM 1.16 34.088 0.033 6.94 2.71 13.96
3/7/2021 4:30:00 AM 1.1 33.98 0.033 6.96 2.69 13.98
3/7/2021 4:45:00 AM 1.05 33.89 0.033 6.97 2.72 14.02
3/7/2021 5:00:00 AM 0.99 33.782 0.033 6.99 2.77 14.04
3/7/2021 5:15:00 AM 0.93 33.674 0.033 6.96 2.78 14.07
3/7/2021 5:30:00 AM 0.87 33.566 0.033 6.95 2.67 14.09
3/7/2021 5:45:00 AM 0.81 33.458 0.033 6.95 2.73 14.11
3/7/2021 6:00:00 AM 0.75 33.35 0.033 6.95 2.74 14.15
3/7/2021 6:15:00 AM 0.69 33.242 0.033 6.98 2.68 14.16
3/7/2021 6:30:00 AM 0.64 33.152 0.033 6.97 2.71 14.19
3/7/2021 6:45:00 AM 0.58 33.044 0.033 6.95 2.68 14.22
3/7/2021 7:00:00 AM 0.53 32.954 0.033 6.99 2.84 14.27
3/7/2021 7:15:00 AM 0.48 32.864 0.033 6.97 2.83 14.29
3/7/2021 7:30:00 AM 0.44 32.792 0.033 6.96 2.7 14.36
3/7/2021 7:45:00 AM 0.4 32.72 0.033 7 2.6 14.39
3/7/2021 8:00:00 AM 0.35 32.63 0.033 6.99 2.71 14.42
3/7/2021 8:15:00 AM 0.31 32.558 0.033 6.99 2.67 14.44
3/7/2021 8:30:00 AM 0.27 32.486 0.033 7 2.71 14.48
3/7/2021 8:45:00 AM 0.24 32.432 0.033 7 2.71 14.5
3/7/2021 9:00:00 AM 0.22 32.396 0.033 6.98 2.75 14.53
3/7/2021 9:15:00 AM 0.21 32.378 0.033 7 2.72 14.54
3/7/2021 9:30:00 AM 0.22 32.396 0.033 7.03 2.87 14.56
3/7/2021 9:45:00 AM 0.25 32.45 0.033 7.01 2.63 14.56
3/7/2021 10:00:00 AM 0.31 32.558 0.033 6.99 2.6 14.57
3/7/2021 10:15:00 AM 0.39 32.702 0.033 7.01 2.67 14.55
3/7/2021 10:30:00 AM 0.51 32.918 0.033 7.03 2.69 14.52
3/7/2021 10:45:00 AM 0.68 33.224 0.033 7.04 2.59 14.46
3/7/2021 11:00:00 AM 0.86 33.548 0.033 7.01 2.72 14.41
3/7/2021 11:15:00 AM 1.05 33.89 0.033 7 2.68 14.36
3/7/2021 11:30:00 AM 1.21 34.178 0.033 7.04 2.73 14.29
3/7/2021 11:45:00 AM 1.39 34.502 0.033 7.03 2.87 14.25
3/7/2021 12:00:00 PM 1.58 34.844 0.033 7.03 2.74 14.19
3/7/2021 12:15:00 PM 1.76 35.168 0.033 7.02 2.58 14.14
3/7/2021 12:30:00 PM 1.92 35.456 0.033 7.02 2.64 14.08
3/7/2021 12:45:00 PM 2.08 35.744 0.033 7.03 2.8 14.02
3/7/2021 1:00:00 PM 2.25 36.05 0.033 7.03 2.67 13.95
3/7/2021 1:15:00 PM 2.4 36.32 0.033 7.01 2.74 13.89
3/7/2021 1:30:00 PM 2.52 36.536 0.033 6.98 2.61 13.81
3/7/2021 1:45:00 PM 2.64 36.752 0.033 7.01 2.61 13.75
3/7/2021 2:00:00 PM 2.73 36.914 0.032 7.02 2.65 13.7
3/7/2021 2:15:00 PM 2.84 37.112 0.032 7.04 2.59 13.66
3/7/2021 2:30:00 PM 2.93 37.274 0.032 7.01 2.64 13.6
3/7/2021 2:45:00 PM 3.02 37.436 0.032 7.02 2.56 13.56
3/7/2021 3:00:00 PM 3.1 37.58 0.032 7.04 2.68 13.5
3/7/2021 3:15:00 PM 3.16 37.688 0.032 7.02 2.63 13.46
3/7/2021 3:30:00 PM 3.21 37.778 0.032 7.02 2.57 13.42
3/7/2021 3:45:00 PM 3.23 37.814 0.032 7 2.59 13.39
3/7/2021 4:00:00 PM 3.26 37.868 0.032 7.01 2.62 13.35
3/7/2021 4:15:00 PM 3.27 37.886 0.032 7.01 2.63 13.33
3/7/2021 4:30:00 PM 3.26 37.868 0.032 7 2.58 13.31
3/7/2021 4:45:00 PM 3.24 37.832 0.032 6.98 2.65 13.29
3/7/2021 5:00:00 PM 3.23 37.814 0.032 6.98 2.65 13.27
3/7/2021 5:15:00 PM 3.22 37.796 0.032 6.98 2.77 13.27
3/7/2021 5:30:00 PM 3.2 37.76 0.032 6.96 2.59 13.28
3/7/2021 5:45:00 PM 3.15 37.67 0.032 6.96 2.67 13.28
3/7/2021 6:00:00 PM 3.11 37.598 0.032 6.95 2.6 13.29
3/7/2021 6:15:00 PM 3.07 37.526 0.032 6.97 2.63 13.29
3/7/2021 6:30:00 PM 3.04 37.472 0.033 6.94 2.56 13.28
3/7/2021 6:45:00 PM 2.99 37.382 0.032 6.94 2.59 13.29
3/7/2021 7:00:00 PM 2.93 37.274 0.032 6.93 2.65 13.32
3/7/2021 7:15:00 PM 2.87 37.166 0.032 6.91 2.66 13.34
3/7/2021 7:30:00 PM 2.8 37.04 0.032 6.95 2.7 13.36
3/7/2021 7:45:00 PM 2.72 36.896 0.033 6.93 2.57 13.39
3/7/2021 8:00:00 PM 2.64 36.752 0.033 6.97 2.63 13.43
3/7/2021 8:15:00 PM 2.55 36.59 0.033 6.94 2.64 13.45
3/7/2021 8:30:00 PM 2.46 36.428 0.033 6.94 2.68 13.49
3/7/2021 8:45:00 PM 2.38 36.284 0.033 6.97 2.62 13.54
3/7/2021 9:00:00 PM 2.3 36.14 0.033 6.95 2.67 13.57
3/7/2021 9:15:00 PM 2.22 35.996 0.033 6.93 2.7 13.61
3/7/2021 9:30:00 PM 2.14 35.852 0.033 6.93 2.71 13.64
3/7/2021 9:45:00 PM 2.06 35.708 0.033 6.93 2.53 13.67
3/7/2021 10:00:00 PM 1.97 35.546 0.033 6.95 2.65 13.69
3/7/2021 10:15:00 PM 1.89 35.402 0.033 6.92 2.62 13.72
3/7/2021 10:30:00 PM 1.82 35.276 0.033 6.96 2.73 13.76
3/7/2021 10:45:00 PM 1.74 35.132 0.033 6.95 2.56 13.8
3/7/2021 11:00:00 PM 1.66 34.988 0.033 6.96 2.65 13.84
3/7/2021 11:15:00 PM 1.59 34.862 0.033 6.96 2.55 13.86
3/7/2021 11:30:00 PM 1.52 34.736 0.033 6.97 2.68 13.89
3/7/2021 11:45:00 PM 1.46 34.628 0.033 6.97 2.62 13.92
3/8/2021 12:00:00 AM 1.39 34.502 0.033 6.97 2.74 13.93
3/8/2021 12:15:00 AM 1.32 34.376 0.033 6.97 2.66 13.96
3/8/2021 12:30:00 AM 1.25 34.25 0.033 6.93 2.62 13.99
3/8/2021 12:45:00 AM 1.19 34.142 0.033 6.94 2.59 14.01
3/8/2021 1:00:00 AM 1.13 34.034 0.033 6.96 2.65 14.04
3/8/2021 1:15:00 AM 1.07 33.926 0.033 6.98 2.57 14.08
3/8/2021 1:30:00 AM 1.01 33.818 0.033 6.95 2.6 14.11
3/8/2021 1:45:00 AM 0.95 33.71 0.033 6.96 2.74 14.13
3/8/2021 2:00:00 AM 0.89 33.602 0.033 6.97 2.74 14.15
3/8/2021 2:15:00 AM 0.83 33.494 0.033 6.95 2.66 14.17
3/8/2021 2:30:00 AM 0.77 33.386 0.033 6.96 2.56 14.2
3/8/2021 2:45:00 AM 0.71 33.278 0.033 6.95 2.67 14.22
3/8/2021 3:00:00 AM 0.65 33.17 0.033 6.96 2.62 14.25
3/8/2021 3:15:00 AM 0.59 33.062 0.033 6.96 2.64 14.27
3/8/2021 3:30:00 AM 0.54 32.972 0.033 6.96 2.64 14.3
3/8/2021 3:45:00 AM 0.48 32.864 0.033 6.96 2.62 14.33
3/8/2021 4:00:00 AM 0.43 32.774 0.033 6.96 2.61 14.35
3/8/2021 4:15:00 AM 0.37 32.666 0.033 6.96 2.69 14.38
3/8/2021 4:30:00 AM 0.32 32.576 0.033 6.95 2.7 14.4
3/8/2021 4:45:00 AM 0.26 32.468 0.033 6.95 2.69 14.43
3/8/2021 5:00:00 AM 0.21 32.378 0.033 6.95 2.7 14.45
3/8/2021 5:15:00 AM 0.16 32.288 0.033 6.97 2.61 14.48
3/8/2021 5:30:00 AM 0.11 32.198 0.033 6.96 2.64 14.49
3/8/2021 5:45:00 AM 0.06 32.108 0.033 6.97 2.67 14.52
3/8/2021 6:00:00 AM 0.01 32.018 0.033 6.97 2.72 14.54
3/8/2021 6:15:00 AM -0.04 31.928 0.034 6.96 2.69 14.56
3/8/2021 6:30:00 AM -0.09 31.838 0.034 6.97 2.8 14.59
3/8/2021 6:45:00 AM -0.12 31.784 0.033 6.98 2.78 14.62
3/8/2021 7:00:00 AM -0.09 31.838 0.033 7 3 14.66
3/8/2021 7:15:00 AM -0.09 31.838 0.033 7 3.06 14.68
3/8/2021 7:30:00 AM -0.09 31.838 0.033 6.99 2.91 14.7
3/8/2021 7:45:00 AM -0.09 31.838 0.033 7 2.85 14.73
3/8/2021 8:00:00 AM -0.09 31.838 0.034 7.01 2.7 14.75
3/8/2021 8:15:00 AM -0.09 31.838 0.034 7.01 2.75 14.77
3/8/2021 8:30:00 AM -0.09 31.838 0.034 7.02 2.76 14.79
3/8/2021 8:45:00 AM -0.08 31.856 0.034 7.01 2.85 14.78
3/8/2021 9:00:00 AM -0.08 31.856 0.034 7.03 2.82 14.79
3/8/2021 9:15:00 AM -0.08 31.856 0.034 7.03 2.67 14.81
3/8/2021 9:30:00 AM -0.07 31.874 0.034 7.03 2.66 14.79
3/8/2021 9:45:00 AM -0.07 31.874 0.034 7.02 2.67 14.78
3/8/2021 10:00:00 AM -0.06 31.892 0.034 7.02 2.54 14.78
3/8/2021 10:15:00 AM -0.05 31.91 0.033 7.02 3.05 14.76
3/8/2021 10:30:00 AM -0.04 31.928 0.033 7.04 2.98 14.75
3/8/2021 10:45:00 AM -0.01 31.982 0.033 7.04 2.66 14.73
3/8/2021 11:00:00 AM 0.07 32.126 0.033 7.04 2.81 14.69
3/8/2021 11:15:00 AM 0.27 32.486 0.033 7.02 2.92 14.65
3/8/2021 11:30:00 AM 0.5 32.9 0.033 7.05 2.81 14.61
3/8/2021 11:45:00 AM 0.68 33.224 0.033 7.03 2.68 14.55
3/8/2021 12:00:00 PM 0.89 33.602 0.033 7.04 2.65 14.48
3/8/2021 12:15:00 PM 1.04 33.872 0.033 7.03 2.61 14.42
3/8/2021 12:30:00 PM 1.15 34.07 0.033 7.04 2.71 14.36
3/8/2021 12:45:00 PM 1.28 34.304 0.033 7.04 2.79 14.31
3/8/2021 1:00:00 PM 1.36 34.448 0.033 7.05 2.64 14.25
3/8/2021 1:15:00 PM 1.45 34.61 0.033 7.04 2.63 14.22
3/8/2021 1:30:00 PM 1.5 34.7 0.033 7.04 2.66 14.2
3/8/2021 1:45:00 PM 1.56 34.808 0.033 7.06 2.72 14.18
3/8/2021 2:00:00 PM 1.66 34.988 0.033 7.03 2.63 14.15
3/8/2021 2:15:00 PM 1.81 35.258 0.033 7.05 2.7 14.11
3/8/2021 2:30:00 PM 1.96 35.528 0.032 7.06 2.63 14.04
3/8/2021 2:45:00 PM 2.07 35.726 0.032 7.04 2.65 13.98
3/8/2021 3:00:00 PM 2.19 35.942 0.032 7.02 2.72 13.91
3/8/2021 3:15:00 PM 2.32 36.176 0.032 7.03 2.68 13.85
3/8/2021 3:30:00 PM 2.45 36.41 0.033 7.04 2.59 13.79
3/8/2021 3:45:00 PM 2.56 36.608 0.032 7.03 2.57 13.72
3/8/2021 4:00:00 PM 2.66 36.788 0.032 7.05 2.59 13.67
3/8/2021 4:15:00 PM 2.72 36.896 0.032 7.04 2.7 13.64
3/8/2021 4:30:00 PM 2.75 36.95 0.032 7.04 2.62 13.61
3/8/2021 4:45:00 PM 2.79 37.022 0.032 7.04 2.59 13.59
3/8/2021 5:00:00 PM 2.82 37.076 0.032 7.02 2.61 13.55
3/8/2021 5:15:00 PM 2.84 37.112 0.032 7.02 2.54 13.52
3/8/2021 5:30:00 PM 2.84 37.112 0.032 7 2.57 13.5
3/8/2021 5:45:00 PM 2.83 37.094 0.032 6.99 2.66 13.47
3/8/2021 6:00:00 PM 2.81 37.058 0.032 7 2.8 13.46
3/8/2021 6:15:00 PM 2.8 37.04 0.032 6.97 2.7 13.43
3/8/2021 6:30:00 PM 2.79 37.022 0.032 6.98 2.74 13.41
3/8/2021 6:45:00 PM 2.77 36.986 0.032 6.98 2.77 13.4
3/8/2021 7:00:00 PM 2.75 36.95 0.032 6.97 2.71 13.4
3/8/2021 7:15:00 PM 2.73 36.914 0.032 6.97 2.66 13.4
3/8/2021 7:30:00 PM 2.69 36.842 0.032 6.98 2.7 13.4
3/8/2021 7:45:00 PM 2.66 36.788 0.032 6.96 2.63 13.41
3/8/2021 8:00:00 PM 2.62 36.716 0.033 6.97 2.69 13.44
3/8/2021 8:15:00 PM 2.58 36.644 0.033 6.97 2.69 13.44
3/8/2021 8:30:00 PM 2.54 36.572 0.033 6.96 2.64 13.45
3/8/2021 8:45:00 PM 2.5 36.5 0.033 6.96 2.72 13.47
3/8/2021 9:00:00 PM 2.46 36.428 0.033 6.96 2.68 13.5
3/8/2021 9:15:00 PM 2.41 36.338 0.033 6.97 2.57 13.51
3/8/2021 9:30:00 PM 2.37 36.266 0.033 6.98 2.66 13.53
3/8/2021 9:45:00 PM 2.32 36.176 0.033 6.97 2.76 13.55
3/8/2021 10:00:00 PM 2.28 36.104 0.033 6.97 2.68 13.57
3/8/2021 10:15:00 PM 2.23 36.014 0.033 6.96 2.71 13.58
3/8/2021 10:30:00 PM 2.19 35.942 0.033 6.94 2.63 13.59
3/8/2021 10:45:00 PM 2.16 35.888 0.033 6.96 2.56 13.61
3/8/2021 11:00:00 PM 2.13 35.834 0.033 6.97 2.63 13.63
3/8/2021 11:15:00 PM 2.11 35.798 0.033 6.96 2.71 13.64
3/8/2021 11:30:00 PM 2.08 35.744 0.033 6.95 2.56 13.66
3/8/2021 11:45:00 PM 2.06 35.708 0.033 6.98 2.59 13.66
3/9/2021 12:00:00 AM 2.03 35.654 0.033 6.96 2.64 13.66
3/9/2021 12:15:00 AM 2 35.6 0.033 6.96 2.59 13.68
3/9/2021 12:30:00 AM 1.97 35.546 0.033 6.96 2.73 13.69
3/9/2021 12:45:00 AM 1.94 35.492 0.033 6.97 2.69 13.68
3/9/2021 1:00:00 AM 1.91 35.438 0.033 6.97 2.61 13.69
3/9/2021 1:15:00 AM 1.88 35.384 0.033 6.98 2.61 13.7
3/9/2021 1:30:00 AM 1.87 35.366 0.033 6.97 2.64 13.73
3/9/2021 1:45:00 AM 1.86 35.348 0.033 6.98 2.76 13.72
3/9/2021 2:00:00 AM 1.84 35.312 0.033 6.97 2.6 13.73
3/9/2021 2:15:00 AM 1.83 35.294 0.033 6.95 2.72 13.74
3/9/2021 2:30:00 AM 1.8 35.24 0.033 6.96 2.71 13.74
3/9/2021 2:45:00 AM 1.78 35.204 0.033 6.96 2.69 13.75
3/9/2021 3:00:00 AM 1.76 35.168 0.033 6.96 2.54 13.76
3/9/2021 3:15:00 AM 1.74 35.132 0.033 6.96 2.75 13.76
3/9/2021 3:30:00 AM 1.72 35.096 0.033 6.97 2.59 13.78
3/9/2021 3:45:00 AM 1.7 35.06 0.033 6.96 2.54 13.77
3/9/2021 4:00:00 AM 1.68 35.024 0.033 6.97 2.6 13.8
3/9/2021 4:15:00 AM 1.65 34.97 0.033 6.96 2.61 13.81
3/9/2021 4:30:00 AM 1.63 34.934 0.033 6.97 2.62 13.8
3/9/2021 4:45:00 AM 1.61 34.898 0.033 6.97 2.55 13.82
3/9/2021 5:00:00 AM 1.58 34.844 0.033 6.98 2.61 13.83
3/9/2021 5:15:00 AM 1.56 34.808 0.033 6.98 2.67 13.83
3/9/2021 5:30:00 AM 1.54 34.772 0.033 6.97 2.56 13.84
3/9/2021 5:45:00 AM 1.52 34.736 0.033 6.96 2.67 13.85
3/9/2021 6:00:00 AM 1.5 34.7 0.033 6.96 2.62 13.86
3/9/2021 6:15:00 AM 1.47 34.646 0.033 6.96 2.59 13.88
3/9/2021 6:30:00 AM 1.45 34.61 0.033 6.96 2.57 13.89
3/9/2021 6:45:00 AM 1.43 34.574 0.033 6.97 2.64 13.9
3/9/2021 7:00:00 AM 1.42 34.556 0.033 6.98 2.63 13.94
3/9/2021 7:15:00 AM 1.4 34.52 0.033 6.97 2.67 13.96
3/9/2021 7:30:00 AM 1.39 34.502 0.033 6.98 2.58 13.98
3/9/2021 7:45:00 AM 1.38 34.484 0.033 7 2.56 14.02
3/9/2021 8:00:00 AM 1.37 34.466 0.033 7.01 2.61 14.04
3/9/2021 8:15:00 AM 1.37 34.466 0.033 7.01 2.64 14.06
3/9/2021 8:30:00 AM 1.37 34.466 0.033 7.01 2.62 14.08
3/9/2021 8:45:00 AM 1.38 34.484 0.033 7.02 2.65 14.08
3/9/2021 9:00:00 AM 1.38 34.484 0.033 7.02 2.55 14.1
3/9/2021 9:15:00 AM 1.41 34.538 0.033 7.03 2.58 14.09
3/9/2021 9:30:00 AM 1.45 34.61 0.033 7.03 2.67 14.09
3/9/2021 9:45:00 AM 1.52 34.736 0.033 7.03 2.54 14.09
3/9/2021 10:00:00 AM 1.62 34.916 0.033 7.03 2.53 14.08
3/9/2021 10:15:00 AM 1.74 35.132 0.033 7.05 2.59 14.06
3/9/2021 10:30:00 AM 1.9 35.42 0.033 7.05 3.62 14.02
3/9/2021 10:45:00 AM 2.09 35.762 0.033 7.05 2.66 13.97
3/9/2021 11:00:00 AM 2.31 36.158 0.033 7.05 2.58 13.91
3/9/2021 11:15:00 AM 2.52 36.536 0.033 7.06 2.63 13.83
3/9/2021 11:30:00 AM 2.72 36.896 0.033 7.06 2.52 13.77
3/9/2021 11:45:00 AM 2.97 37.346 0.033 7.07 2.53 13.71
3/9/2021 12:00:00 PM 3.23 37.814 0.033 7.07 2.45 13.62
3/9/2021 12:15:00 PM 3.48 38.264 0.033 7.06 2.56 13.56
3/9/2021 12:30:00 PM 3.72 38.696 0.033 7.05 2.48 13.47
3/9/2021 12:45:00 PM 3.92 39.056 0.033 7.05 2.45 13.4
3/9/2021 1:00:00 PM 4.1 39.38 0.033 7.06 2.53 13.33
3/9/2021 1:15:00 PM 4.27 39.686 0.032 7.04 2.71 13.27
3/9/2021 1:30:00 PM 4.43 39.974 0.032 7.06 2.54 13.2
3/9/2021 1:45:00 PM 4.56 40.208 0.032 7.04 2.65 13.12
3/9/2021 2:00:00 PM 4.74 40.532 0.032 7.05 2.58 13.05
3/9/2021 2:15:00 PM 4.84 40.712 0.032 7.06 2.56 12.99
3/9/2021 2:30:00 PM 4.96 40.928 0.032 7.06 2.65 12.94
3/9/2021 2:45:00 PM 5.06 41.108 0.032 7.06 2.78 12.88
3/9/2021 3:00:00 PM 5.15 41.27 0.032 7.06 2.62 12.83
3/9/2021 3:15:00 PM 5.23 41.414 0.032 7.04 2.56 12.79
3/9/2021 3:30:00 PM 5.3 41.54 0.032 7.06 2.6 12.75
3/9/2021 3:45:00 PM 5.35 41.63 0.032 7.05 2.58 12.72
3/9/2021 4:00:00 PM 5.38 41.684 0.032 7.05 2.7 12.67
3/9/2021 4:15:00 PM 5.4 41.72 0.032 7.01 2.65 12.63
3/9/2021 4:30:00 PM 5.39 41.702 0.032 7.03 2.63 12.61
3/9/2021 4:45:00 PM 5.38 41.684 0.032 7.02 2.56 12.59
3/9/2021 5:00:00 PM 5.36 41.648 0.032 7.01 2.64 12.57
3/9/2021 5:15:00 PM 5.34 41.612 0.032 6.99 2.97 12.57
3/9/2021 5:30:00 PM 5.31 41.558 0.032 6.98 2.69 12.56
3/9/2021 5:45:00 PM 5.27 41.486 0.032 6.96 2.76 12.55
3/9/2021 6:00:00 PM 5.23 41.414 0.032 6.96 2.69 12.54
3/9/2021 6:15:00 PM 5.19 41.342 0.032 6.95 2.64 12.54
3/9/2021 6:30:00 PM 5.15 41.27 0.032 6.96 2.68 12.53
3/9/2021 6:45:00 PM 5.11 41.198 0.032 6.94 2.77 12.54
3/9/2021 7:00:00 PM 5.05 41.09 0.033 6.93 2.63 12.55
3/9/2021 7:15:00 PM 4.98 40.964 0.032 6.95 2.82 12.59
3/9/2021 7:30:00 PM 4.91 40.838 0.032 6.93 2.67 12.6
3/9/2021 7:45:00 PM 4.82 40.676 0.032 6.95 2.8 12.64
3/9/2021 8:00:00 PM 4.74 40.532 0.033 6.96 2.79 12.66
3/9/2021 8:15:00 PM 4.64 40.352 0.032 6.95 2.78 12.71
3/9/2021 8:30:00 PM 4.54 40.172 0.033 6.93 2.74 12.73
3/9/2021 8:45:00 PM 4.44 39.992 0.033 6.94 2.88 12.77
3/9/2021 9:00:00 PM 4.34 39.812 0.033 6.92 2.84 12.81
3/9/2021 9:15:00 PM 4.25 39.65 0.033 6.96 2.83 12.85
3/9/2021 9:30:00 PM 4.15 39.47 0.033 6.91 2.77 12.88
3/9/2021 9:45:00 PM 4.05 39.29 0.033 6.92 2.84 12.92
3/9/2021 10:00:00 PM 3.96 39.128 0.033 6.92 2.92 12.95
3/9/2021 10:15:00 PM 3.87 38.966 0.033 6.96 2.75 12.98
3/9/2021 10:30:00 PM 3.78 38.804 0.033 6.97 2.83 13.02
3/9/2021 10:45:00 PM 3.69 38.642 0.033 6.96 2.79 13.06
3/9/2021 11:00:00 PM 3.62 38.516 0.033 6.96 2.73 13.1
3/9/2021 11:15:00 PM 3.54 38.372 0.033 6.97 2.78 13.13
3/9/2021 11:30:00 PM 3.47 38.246 0.033 6.97 2.76 13.15
3/9/2021 11:45:00 PM 3.39 38.102 0.033 6.95 2.74 13.17
3/10/2021 12:00:00 AM 3.33 37.994 0.033 6.94 2.71 13.2
3/10/2021 12:15:00 AM 3.26 37.868 0.033 6.97 2.79 13.22
3/10/2021 12:30:00 AM 3.2 37.76 0.033 6.92 2.8 13.24
3/10/2021 12:45:00 AM 3.14 37.652 0.033 6.96 2.8 13.28
3/10/2021 1:00:00 AM 3.08 37.544 0.033 6.92 2.8 13.3
3/10/2021 1:15:00 AM 3.03 37.454 0.033 6.95 2.81 13.32
3/10/2021 1:30:00 AM 2.97 37.346 0.033 6.94 2.76 13.35
3/10/2021 1:45:00 AM 2.92 37.256 0.033 6.95 2.8 13.37
3/10/2021 2:00:00 AM 2.87 37.166 0.033 6.97 2.8 13.38
3/10/2021 2:15:00 AM 2.83 37.094 0.033 6.96 2.78 13.4
3/10/2021 2:30:00 AM 2.78 37.004 0.033 6.96 2.84 13.42
3/10/2021 2:45:00 AM 2.74 36.932 0.033 6.96 2.75 13.44
3/10/2021 3:00:00 AM 2.69 36.842 0.033 6.94 2.77 13.45
3/10/2021 3:15:00 AM 2.65 36.77 0.033 6.96 2.87 13.47
3/10/2021 3:30:00 AM 2.61 36.698 0.033 6.96 2.61 13.47
3/10/2021 3:45:00 AM 2.57 36.626 0.033 6.93 2.98 13.49
3/10/2021 4:00:00 AM 2.53 36.554 0.033 6.94 2.82 13.5
3/10/2021 4:15:00 AM 2.49 36.482 0.033 6.94 2.73 13.53
3/10/2021 4:30:00 AM 2.46 36.428 0.033 6.94 2.72 13.54
3/10/2021 4:45:00 AM 2.42 36.356 0.033 6.96 2.76 13.56
3/10/2021 5:00:00 AM 2.39 36.302 0.033 6.96 2.62 13.57
3/10/2021 5:15:00 AM 2.36 36.248 0.033 6.97 2.68 13.59
3/10/2021 5:30:00 AM 2.32 36.176 0.033 6.96 2.73 13.6
3/10/2021 5:45:00 AM 2.29 36.122 0.033 6.95 2.77 13.61
3/10/2021 6:00:00 AM 2.26 36.068 0.033 6.96 2.71 13.63
3/10/2021 6:15:00 AM 2.23 36.014 0.033 6.95 2.69 13.64
3/10/2021 6:30:00 AM 2.2 35.96 0.033 6.93 2.75 13.65
3/10/2021 6:45:00 AM 2.17 35.906 0.033 6.97 2.7 13.67
3/10/2021 7:00:00 AM 2.15 35.87 0.033 6.98 2.73 13.7
3/10/2021 7:15:00 AM 2.12 35.816 0.033 6.96 2.72 13.71
3/10/2021 7:30:00 AM 2.1 35.78 0.033 6.99 2.65 13.74
3/10/2021 7:45:00 AM 2.09 35.762 0.033 6.99 2.69 13.77
3/10/2021 8:00:00 AM 2.07 35.726 0.033 6.99 2.75 13.8
3/10/2021 8:15:00 AM 2.06 35.708 0.033 6.98 2.71 13.8
3/10/2021 8:30:00 AM 2.05 35.69 0.033 6.99 2.69 13.82
3/10/2021 8:45:00 AM 2.05 35.69 0.033 6.96 2.67 13.83
3/10/2021 9:00:00 AM 2.05 35.69 0.033 7 2.67 13.85
3/10/2021 9:15:00 AM 2.07 35.726 0.033 6.99 2.64 13.85
3/10/2021 9:30:00 AM 2.11 35.798 0.033 7.02 2.67 13.87
3/10/2021 9:45:00 AM 2.18 35.924 0.033 7 2.74 13.85
3/10/2021 10:00:00 AM 2.27 36.086 0.033 7.02 2.69 13.85
3/10/2021 10:15:00 AM 2.4 36.32 0.033 7.02 2.72 13.81
3/10/2021 10:30:00 AM 2.58 36.644 0.033 7.01 2.82 13.76
3/10/2021 10:45:00 AM 2.78 37.004 0.033 7.01 2.69 13.71
3/10/2021 11:00:00 AM 2.98 37.364 0.033 7.02 2.6 13.66
3/10/2021 11:15:00 AM 3.21 37.778 0.033 7.03 2.6 13.59
3/10/2021 11:30:00 AM 3.44 38.192 0.033 7.03 2.59 13.53
3/10/2021 11:45:00 AM 3.67 38.606 0.033 7.04 2.61 13.46
3/10/2021 12:00:00 PM 3.91 39.038 0.033 7.02 2.65 13.38
3/10/2021 12:15:00 PM 4.13 39.434 0.033 7.03 2.71 13.31
3/10/2021 12:30:00 PM 4.35 39.83 0.033 7.04 2.68 13.25
3/10/2021 12:45:00 PM 4.57 40.226 0.033 7.02 2.66 13.16
3/10/2021 1:00:00 PM 4.77 40.586 0.033 7.04 2.72 13.1
3/10/2021 1:15:00 PM 4.96 40.928 0.032 7.03 2.65 13.02
3/10/2021 1:30:00 PM 5.14 41.252 0.032 7.05 2.69 12.94
3/10/2021 1:45:00 PM 5.3 41.54 0.032 7.03 2.76 12.87
3/10/2021 2:00:00 PM 5.46 41.828 0.032 7.04 2.7 12.8
3/10/2021 2:15:00 PM 5.59 42.062 0.032 7.05 2.76 12.74
3/10/2021 2:30:00 PM 5.72 42.296 0.032 7 2.67 12.66
3/10/2021 2:45:00 PM 5.85 42.53 0.032 6.98 2.75 12.6
3/10/2021 3:00:00 PM 5.97 42.746 0.032 7.02 2.8 12.56
3/10/2021 3:15:00 PM 6.06 42.908 0.032 7.04 2.85 12.51
3/10/2021 3:30:00 PM 6.15 43.07 0.032 7.03 2.88 12.46
3/10/2021 3:45:00 PM 6.21 43.178 0.032 7 2.88 12.42
3/10/2021 4:00:00 PM 6.25 43.25 0.032 7.01 2.81 12.38
3/10/2021 4:15:00 PM 6.28 43.304 0.032 7.04 2.82 12.34
3/10/2021 4:30:00 PM 6.29 43.322 0.032 6.99 2.91 12.32
3/10/2021 4:45:00 PM 6.3 43.34 0.032 6.97 3.01 12.31
3/10/2021 5:00:00 PM 6.3 43.34 0.032 6.98 2.9 12.3
3/10/2021 5:15:00 PM 6.3 43.34 0.032 7 2.94 12.28
3/10/2021 5:30:00 PM 6.27 43.286 0.032 6.95 3.13 12.26
3/10/2021 5:45:00 PM 6.25 43.25 0.032 6.96 3.16 12.24
3/10/2021 6:00:00 PM 6.21 43.178 0.032 6.93 3.2 12.22
3/10/2021 6:15:00 PM 6.16 43.088 0.032 6.94 3.18 12.22
3/10/2021 6:30:00 PM 6.09 42.962 0.032 6.91 3.12 12.22
3/10/2021 6:45:00 PM 6.01 42.818 0.032 6.91 3.37 12.23
3/10/2021 7:00:00 PM 5.92 42.656 0.032 6.92 3.42 12.25
3/10/2021 7:15:00 PM 5.82 42.476 0.032 6.91 3.23 12.27
3/10/2021 7:30:00 PM 5.72 42.296 0.032 6.89 3.41 12.3
3/10/2021 7:45:00 PM 5.61 42.098 0.032 6.91 3.38 12.35
3/10/2021 8:00:00 PM 5.51 41.918 0.032 6.88 3.46 12.39
3/10/2021 8:15:00 PM 5.4 41.72 0.032 6.89 3.5 12.42
3/10/2021 8:30:00 PM 5.29 41.522 0.032 6.88 3.6 12.46
3/10/2021 8:45:00 PM 5.18 41.324 0.032 6.9 3.63 12.49
3/10/2021 9:00:00 PM 5.08 41.144 0.032 6.9 3.8 12.52
3/10/2021 9:15:00 PM 4.98 40.964 0.033 6.91 3.76 12.56
3/10/2021 9:30:00 PM 4.89 40.802 0.032 6.9 4.1 12.6
3/10/2021 9:45:00 PM 4.8 40.64 0.032 6.9 4.11 12.63
3/10/2021 10:00:00 PM 4.72 40.496 0.032 6.91 3.97 12.65
3/10/2021 10:15:00 PM 4.64 40.352 0.033 6.91 4.03 12.68
3/10/2021 10:30:00 PM 4.57 40.226 0.032 6.91 4.12 12.7
3/10/2021 10:45:00 PM 4.49 40.082 0.032 6.9 3.84 12.73
3/10/2021 11:00:00 PM 4.42 39.956 0.033 6.92 4.02 12.76
3/10/2021 11:15:00 PM 4.36 39.848 0.032 6.91 4.02 12.79
3/10/2021 11:30:00 PM 4.3 39.74 0.033 6.89 4.02 12.81
3/10/2021 11:45:00 PM 4.24 39.632 0.033 6.9 3.98 12.83
3/11/2021 12:00:00 AM 4.2 39.56 0.032 6.92 4.09 12.85
3/11/2021 12:15:00 AM 4.15 39.47 0.033 6.89 4.23 12.86
3/11/2021 12:30:00 AM 4.1 39.38 0.033 6.92 4.11 12.87
3/11/2021 12:45:00 AM 4.06 39.308 0.033 6.89 4.02 12.89
3/11/2021 1:00:00 AM 4.02 39.236 0.033 6.89 4.35 12.89
3/11/2021 1:15:00 AM 3.99 39.182 0.033 6.9 3.97 12.91
3/11/2021 1:30:00 AM 3.96 39.128 0.033 6.88 4.02 12.92
3/11/2021 1:45:00 AM 3.93 39.074 0.033 6.89 4.04 12.93
3/11/2021 2:00:00 AM 3.91 39.038 0.033 6.9 4.07 12.94
3/11/2021 2:15:00 AM 3.89 39.002 0.033 6.9 4 12.95
3/11/2021 2:30:00 AM 3.87 38.966 0.033 6.89 4.03 12.94
3/11/2021 2:45:00 AM 3.86 38.948 0.033 6.87 3.91 12.95
3/11/2021 3:00:00 AM 3.85 38.93 0.033 6.87 3.93 12.96
3/11/2021 3:15:00 AM 3.84 38.912 0.033 6.88 3.92 12.96
3/11/2021 3:30:00 AM 3.83 38.894 0.033 6.88 3.92 12.96
3/11/2021 3:45:00 AM 3.82 38.876 0.033 6.89 3.97 12.97
3/11/2021 4:00:00 AM 3.81 38.858 0.033 6.89 4.05 12.97
3/11/2021 4:15:00 AM 3.8 38.84 0.033 6.89 4.12 12.96
3/11/2021 4:30:00 AM 3.79 38.822 0.033 6.86 4.03 12.97
3/11/2021 4:45:00 AM 3.79 38.822 0.033 6.87 4.08 12.98
3/11/2021 5:00:00 AM 3.78 38.804 0.033 6.89 3.85 12.97
3/11/2021 5:15:00 AM 3.78 38.804 0.033 6.88 3.97 12.97
3/11/2021 5:30:00 AM 3.78 38.804 0.033 6.87 3.94 12.98
3/11/2021 5:45:00 AM 3.77 38.786 0.033 6.9 4.02 12.97
3/11/2021 6:00:00 AM 3.76 38.768 0.033 6.89 3.92 12.98
3/11/2021 6:15:00 AM 3.75 38.75 0.033 6.88 3.86 12.99
3/11/2021 6:30:00 AM 3.74 38.732 0.033 6.9 3.92 12.99
3/11/2021 6:45:00 AM 3.73 38.714 0.033 6.92 3.83 13
3/11/2021 7:00:00 AM 3.72 38.696 0.033 6.92 3.84 13.02
3/11/2021 7:15:00 AM 3.71 38.678 0.033 6.9 3.77 13.03
3/11/2021 7:30:00 AM 3.7 38.66 0.033 6.91 3.78 13.04
3/11/2021 7:45:00 AM 3.7 38.66 0.033 6.92 3.66 13.07
3/11/2021 8:00:00 AM 3.7 38.66 0.033 6.91 3.7 13.09
3/11/2021 8:15:00 AM 3.71 38.678 0.033 6.92 3.8 13.11
3/11/2021 8:30:00 AM 3.75 38.75 0.033 6.89 3.71 13.12
3/11/2021 8:45:00 AM 3.78 38.804 0.033 6.94 3.54 13.12
3/11/2021 9:00:00 AM 3.8 38.84 0.033 6.91 3.69 13.11
3/11/2021 9:15:00 AM 3.86 38.948 0.033 6.93 3.71 13.11
3/11/2021 9:30:00 AM 3.95 39.11 0.032 6.96 3.77 13.1
3/11/2021 9:45:00 AM 3.99 39.182 0.032 6.93 3.82 13.07
3/11/2021 10:00:00 AM 4.04 39.272 0.032 6.95 4.07 13.05
3/11/2021 10:15:00 AM 4.11 39.398 0.032 6.93 3.66 13.03
3/11/2021 10:30:00 AM 4.17 39.506 0.032 6.96 3.81 13.02
3/11/2021 10:45:00 AM 4.23 39.614 0.032 6.99 3.73 13.01
3/11/2021 11:00:00 AM 4.29 39.722 0.032 7.01 3.94 13.01
3/11/2021 11:15:00 AM 4.37 39.866 0.032 6.92 3.7 12.97
3/11/2021 11:30:00 AM 4.47 40.046 0.032 6.96 3.72 12.95
3/11/2021 11:45:00 AM 4.57 40.226 0.032 6.99 3.63 12.91
3/11/2021 12:00:00 PM 4.72 40.496 0.032 6.97 3.83 12.89
3/11/2021 12:15:00 PM 4.81 40.658 0.032 6.94 3.63 12.85
3/11/2021 12:30:00 PM 4.96 40.928 0.032 6.96 3.72 12.82
3/11/2021 12:45:00 PM 5.08 41.144 0.032 6.96 3.67 12.77
3/11/2021 1:00:00 PM 5.26 41.468 0.032 6.98 3.78 12.73
3/11/2021 1:15:00 PM 5.33 41.594 0.032 6.95 3.81 12.69
3/11/2021 1:30:00 PM 5.38 41.684 0.032 6.98 3.93 12.65
3/11/2021 1:45:00 PM 5.49 41.882 0.032 6.97 3.9 12.63
3/11/2021 2:00:00 PM 5.56 42.008 0.032 6.95 3.97 12.58
3/11/2021 2:15:00 PM 5.61 42.098 0.032 6.98 4.04 12.54
3/11/2021 2:30:00 PM 5.65 42.17 0.032 6.96 4.07 12.51
3/11/2021 2:45:00 PM 5.7 42.26 0.032 6.96 4.08 12.46
3/11/2021 3:00:00 PM 5.74 42.332 0.032 6.94 4.22 12.43
3/11/2021 3:15:00 PM 5.77 42.386 0.031 6.98 4.54 12.41
3/11/2021 3:30:00 PM 5.78 42.404 0.031 6.96 4.45 12.38
3/11/2021 3:45:00 PM 5.82 42.476 0.031 6.96 4.57 12.39
3/11/2021 4:00:00 PM 5.83 42.494 0.031 6.96 5.45 12.39
3/11/2021 4:15:00 PM 5.85 42.53 0.031 6.98 5.28 12.38
3/11/2021 4:30:00 PM 5.86 42.548 0.031 7 5.75 12.37
3/11/2021 4:45:00 PM 5.86 42.548 0.031 6.98 6.13 12.36
3/11/2021 5:00:00 PM 5.85 42.53 0.031 6.97 6.25 12.34
3/11/2021 5:15:00 PM 5.83 42.494 0.031 6.91 6.41 12.33
3/11/2021 5:30:00 PM 5.8 42.44 0.031 6.93 6.73 12.32
3/11/2021 5:45:00 PM 5.77 42.386 0.031 6.9 7.16 12.31
3/11/2021 6:00:00 PM 5.74 42.332 0.031 6.92 7.91 12.32
3/11/2021 6:15:00 PM 5.71 42.278 0.031 6.89 7.73 12.31
3/11/2021 6:30:00 PM 5.68 42.224 0.031 6.87 8.26 12.32
3/11/2021 6:45:00 PM 5.64 42.152 0.031 6.87 7.26 12.33
3/11/2021 7:00:00 PM 5.6 42.08 0.031 6.84 8.95 12.34
3/11/2021 7:15:00 PM 5.56 42.008 0.031 6.86 8.6 12.35
3/11/2021 7:30:00 PM 5.51 41.918 0.031 6.85 8.8 12.36
3/11/2021 7:45:00 PM 5.47 41.846 0.031 6.87 9.45 12.39
3/11/2021 8:00:00 PM 5.44 41.792 0.031 6.87 9.72 12.39
3/11/2021 8:15:00 PM 5.43 41.774 0.031 6.9 8.33 12.4
3/11/2021 8:30:00 PM 5.4 41.72 0.031 6.91 9.81 12.4
3/11/2021 8:45:00 PM 5.4 41.72 0.031 6.83 9.37 12.41
3/11/2021 9:00:00 PM 5.39 41.702 0.031 6.87 9.82 12.42
3/11/2021 9:15:00 PM 5.36 41.648 0.031 6.85 10.65 12.43
3/11/2021 9:30:00 PM 5.33 41.594 0.031 6.89 10.21 12.43
3/11/2021 9:45:00 PM 5.31 41.558 0.031 6.88 10.28 12.43
3/11/2021 10:00:00 PM 5.3 41.54 0.031 6.88 11.14 12.44
3/11/2021 10:15:00 PM 5.29 41.522 0.031 6.83 9.57 12.43
3/11/2021 10:30:00 PM 5.28 41.504 0.031 6.87 10.95 12.44
3/11/2021 10:45:00 PM 5.27 41.486 0.031 6.81 10.4 12.44
3/11/2021 11:00:00 PM 5.26 41.468 0.031 6.81 10.17 12.44
3/11/2021 11:15:00 PM 5.25 41.45 0.031 6.85 10.68 12.44
3/11/2021 11:30:00 PM 5.25 41.45 0.031 6.81 11.47 12.45
3/11/2021 11:45:00 PM 5.23 41.414 0.031 6.83 11.11 12.45
3/12/2021 12:00:00 AM 5.22 41.396 0.031 6.8 11.7 12.45
3/12/2021 12:15:00 AM 5.2 41.36 0.031 6.83 12.07 12.46
3/12/2021 12:30:00 AM 5.18 41.324 0.031 6.83 10.72 12.47
3/12/2021 12:45:00 AM 5.16 41.288 0.031 6.83 11.92 12.47
3/12/2021 1:00:00 AM 5.15 41.27 0.031 6.81 11.38 12.48
3/12/2021 1:15:00 AM 5.13 41.234 0.031 6.81 11.72 12.48
3/12/2021 1:30:00 AM 5.12 41.216 0.031 6.78 12.41 12.49
3/12/2021 1:45:00 AM 5.1 41.18 0.031 6.79 12.02 12.5
3/12/2021 2:00:00 AM 5.09 41.162 0.031 6.82 12.34 12.5
3/12/2021 2:15:00 AM 5.07 41.126 0.031 6.78 12.47 12.5
3/12/2021 2:30:00 AM 5.06 41.108 0.031 6.79 12.97 12.51
3/12/2021 2:45:00 AM 5.05 41.09 0.031 6.76 12.31 12.52
3/12/2021 3:00:00 AM 5.03 41.054 0.031 6.77 12.68 12.53
3/12/2021 3:15:00 AM 5.01 41.018 0.031 6.79 12.42 12.54
3/12/2021 3:30:00 AM 4.99 40.982 0.031 6.79 12.89 12.54
3/12/2021 3:45:00 AM 4.97 40.946 0.031 6.76 12.34 12.55
3/12/2021 4:00:00 AM 4.94 40.892 0.03 6.79 12.09 12.56
3/12/2021 4:15:00 AM 4.92 40.856 0.03 6.79 12.38 12.57
3/12/2021 4:30:00 AM 4.91 40.838 0.031 6.77 11.63 12.58
3/12/2021 4:45:00 AM 4.9 40.82 0.03 6.75 12.28 12.59
3/12/2021 5:00:00 AM 4.87 40.766 0.03 6.78 12.21 12.6
3/12/2021 5:15:00 AM 4.85 40.73 0.03 6.75 11.81 12.61
3/12/2021 5:30:00 AM 4.82 40.676 0.03 6.74 12.22 12.61
3/12/2021 5:45:00 AM 4.79 40.622 0.03 6.79 12.21 12.63
3/12/2021 6:00:00 AM 4.76 40.568 0.03 6.74 12.68 12.64
3/12/2021 6:15:00 AM 4.74 40.532 0.03 6.8 12.66 12.66
3/12/2021 6:30:00 AM 4.71 40.478 0.03 6.77 12.25 12.66
3/12/2021 6:45:00 AM 4.68 40.424 0.03 6.77 11.81 12.68
3/12/2021 7:00:00 AM 4.66 40.388 0.03 6.76 11.64 12.69
3/12/2021 7:15:00 AM 4.63 40.334 0.03 6.74 11.67 12.7
3/12/2021 7:30:00 AM 4.61 40.298 0.03 6.79 10.65 12.72
3/12/2021 7:45:00 AM 4.58 40.244 0.03 6.81 11.64 12.73
3/12/2021 8:00:00 AM 4.56 40.208 0.03 6.8 11.48 12.74
3/12/2021 8:15:00 AM 4.54 40.172 0.03 6.79 11.21 12.76
3/12/2021 8:30:00 AM 4.53 40.154 0.03 6.77 10.99 12.77
3/12/2021 8:45:00 AM 4.51 40.118 0.03 6.81 10.54 12.77
3/12/2021 9:00:00 AM 4.52 40.136 0.03 6.79 10.68 12.78
3/12/2021 9:15:00 AM 4.55 40.19 0.03 6.8 10.81 12.79
3/12/2021 9:30:00 AM 4.6 40.28 0.03 6.79 10.43 12.79
3/12/2021 9:45:00 AM 4.66 40.388 0.03 6.81 9.92 12.78
3/12/2021 10:00:00 AM 4.75 40.55 0.03 6.79 10.45 12.77
3/12/2021 10:15:00 AM 4.84 40.712 0.03 6.81 10.19 12.76
3/12/2021 10:30:00 AM 4.94 40.892 0.03 6.84 11.31 12.74
3/12/2021 10:45:00 AM 5.06 41.108 0.03 6.86 9.61 12.7
3/12/2021 11:00:00 AM 5.2 41.36 0.029 6.79 9.57 12.66
3/12/2021 11:15:00 AM 5.34 41.612 0.029 6.82 9.43 12.63
3/12/2021 11:30:00 AM 5.49 41.882 0.029 6.81 9.03 12.6
3/12/2021 11:45:00 AM 5.64 42.152 0.029 6.77 9.07 12.54
3/12/2021 12:00:00 PM 5.8 42.44 0.029 6.83 8.9 12.49
3/12/2021 12:15:00 PM 5.96 42.728 0.029 6.84 9.01 12.44
3/12/2021 12:30:00 PM 6.11 42.998 0.029 6.84 8.87 12.41
3/12/2021 12:45:00 PM 6.27 43.286 0.029 6.8 9.1 12.35
3/12/2021 1:00:00 PM 6.41 43.538 0.029 6.81 9.16 12.3
3/12/2021 1:15:00 PM 6.55 43.79 0.029 6.8 8.66 12.25
3/12/2021 1:30:00 PM 6.67 44.006 0.029 6.83 8.99 12.21
3/12/2021 1:45:00 PM 6.8 44.24 0.029 6.79 9.28 12.16
3/12/2021 2:00:00 PM 6.9 44.42 0.029 6.85 9.26 12.13
3/12/2021 2:15:00 PM 7 44.6 0.029 6.83 8.73 12.08
3/12/2021 2:30:00 PM 7.08 44.744 0.029 6.83 9.19 12.04
3/12/2021 2:45:00 PM 7.15 44.87 0.029 6.8 9.42 12.01
3/12/2021 3:00:00 PM 7.2 44.96 0.029 6.79 9.23 11.99
3/12/2021 3:15:00 PM 7.23 45.014 0.029 6.79 9.55 11.97
3/12/2021 3:30:00 PM 7.24 45.032 0.029 6.81 9.59 11.95
3/12/2021 3:45:00 PM 7.23 45.014 0.029 6.75 9.68 11.94
3/12/2021 4:00:00 PM 7.2 44.96 0.029 6.8 10.47 11.94
3/12/2021 4:15:00 PM 7.14 44.852 0.029 6.79 10.54 11.94
3/12/2021 4:30:00 PM 7.07 44.726 0.029 6.77 11.17 11.94
3/12/2021 4:45:00 PM 6.99 44.582 0.029 6.74 11.27 11.95
3/12/2021 5:00:00 PM 6.9 44.42 0.029 6.74 11.31 11.98
3/12/2021 5:15:00 PM 6.8 44.24 0.029 6.73 11.54 12
3/12/2021 5:30:00 PM 6.7 44.06 0.029 6.76 11.92 12.03
3/12/2021 5:45:00 PM 6.59 43.862 0.029 6.7 12.18 12.05
3/12/2021 6:00:00 PM 6.48 43.664 0.029 6.77 11.48 12.08
3/12/2021 6:15:00 PM 6.36 43.448 0.029 6.78 12.34 12.11
3/12/2021 6:30:00 PM 6.24 43.232 0.029 6.77 12.02 12.16
3/12/2021 6:45:00 PM 6.13 43.034 0.029 6.79 12.01 12.19
3/12/2021 7:00:00 PM 6.02 42.836 0.029 6.75 12.34 12.22
3/12/2021 7:15:00 PM 5.92 42.656 0.029 6.77 12.05 12.25
3/12/2021 7:30:00 PM 5.83 42.494 0.029 6.77 13.17 12.28
3/12/2021 7:45:00 PM 5.74 42.332 0.029 6.79 11.89 12.32
3/12/2021 8:00:00 PM 5.66 42.188 0.029 6.76 11.96 12.34
3/12/2021 8:15:00 PM 5.6 42.08 0.029 6.74 12.02 12.37
3/12/2021 8:30:00 PM 5.53 41.954 0.029 6.68 11.55 12.39
3/12/2021 8:45:00 PM 5.48 41.864 0.029 6.69 11.66 12.42
3/12/2021 9:00:00 PM 5.43 41.774 0.029 6.76 10.61 12.43
3/12/2021 9:15:00 PM 5.38 41.684 0.029 6.72 11.07 12.46
3/12/2021 9:30:00 PM 5.34 41.612 0.029 6.73 10.85 12.47
3/12/2021 9:45:00 PM 5.3 41.54 0.029 6.74 10.84 12.48
3/12/2021 10:00:00 PM 5.26 41.468 0.029 6.75 10.09 12.49
3/12/2021 10:15:00 PM 5.23 41.414 0.029 6.72 10.38 12.5
3/12/2021 10:30:00 PM 5.2 41.36 0.029 6.75 9.97 12.51
3/12/2021 10:45:00 PM 5.17 41.306 0.029 6.76 10.11 12.53
3/12/2021 11:00:00 PM 5.13 41.234 0.029 6.72 9.7 12.55
3/12/2021 11:15:00 PM 5.1 41.18 0.029 6.72 9.45 12.56
3/12/2021 11:30:00 PM 5.06 41.108 0.029 6.74 9.08 12.57
3/12/2021 11:45:00 PM 5.02 41.036 0.029 6.71 9.17 12.6
3/13/2021 12:00:00 AM 4.97 40.946 0.029 6.76 9.81 12.61
3/13/2021 12:15:00 AM 4.92 40.856 0.029 6.73 9.09 12.62
3/13/2021 12:30:00 AM 4.88 40.784 0.029 6.76 9.03 12.64
3/13/2021 12:45:00 AM 4.84 40.712 0.029 6.78 9.33 12.66
3/13/2021 1:00:00 AM 4.79 40.622 0.029 6.78 8.69 12.68
3/13/2021 1:15:00 AM 4.75 40.55 0.029 6.73 9.06 12.69
3/13/2021 1:30:00 AM 4.7 40.46 0.029 6.75 8.76 12.71
3/13/2021 1:45:00 AM 4.67 40.406 0.029 6.77 8.41 12.72
3/13/2021 2:00:00 AM 4.64 40.352 0.029 6.78 8.3 12.73
3/13/2021 2:15:00 AM 4.59 40.262 0.028 6.8 8.65 12.75
3/13/2021 2:30:00 AM 4.54 40.172 0.029 6.76 8.38 12.77
3/13/2021 2:45:00 AM 4.49 40.082 0.029 6.72 8.48 12.79
3/13/2021 3:00:00 AM 4.44 39.992 0.029 6.77 8.49 12.81
3/13/2021 3:15:00 AM 4.4 39.92 0.028 6.75 7.88 12.82
3/13/2021 3:30:00 AM 4.36 39.848 0.029 6.74 7.66 12.84
3/13/2021 3:45:00 AM 4.32 39.776 0.029 6.73 7.67 12.86
3/13/2021 4:00:00 AM 4.27 39.686 0.029 6.7 7.86 12.87
3/13/2021 4:15:00 AM 4.24 39.632 0.028 6.73 7.37 12.89
3/13/2021 4:30:00 AM 4.2 39.56 0.028 6.73 7.67 12.9
3/13/2021 4:45:00 AM 4.17 39.506 0.028 6.72 7.61 12.92
3/13/2021 5:00:00 AM 4.13 39.434 0.028 6.72 7.57 12.92
3/13/2021 5:15:00 AM 4.1 39.38 0.028 6.72 7.28 12.94
3/13/2021 5:30:00 AM 4.07 39.326 0.028 6.73 7.67 12.95
3/13/2021 5:45:00 AM 4.04 39.272 0.028 6.75 7.77 12.96
3/13/2021 6:00:00 AM 4.02 39.236 0.028 6.75 6.94 12.97
3/13/2021 6:15:00 AM 3.99 39.182 0.029 6.78 7.08 12.99
3/13/2021 6:30:00 AM 3.96 39.128 0.028 6.77 7.04 12.99
3/13/2021 6:45:00 AM 3.93 39.074 0.028 6.71 7.14 13.01
3/13/2021 7:00:00 AM 3.9 39.02 0.028 6.75 6.97 13.03
3/13/2021 7:15:00 AM 3.88 38.984 0.028 6.71 7.04 13.04
3/13/2021 7:30:00 AM 3.85 38.93 0.028 6.75 6.82 13.05
3/13/2021 7:45:00 AM 3.83 38.894 0.028 6.75 6.88 13.08
3/13/2021 8:00:00 AM 3.81 38.858 0.028 6.74 6.9 13.09
3/13/2021 8:15:00 AM 3.79 38.822 0.028 6.75 6.42 13.1
3/13/2021 8:30:00 AM 3.77 38.786 0.028 6.76 6.57 13.12
3/13/2021 8:45:00 AM 3.76 38.768 0.028 6.79 6.28 13.12
3/13/2021 9:00:00 AM 3.77 38.786 0.028 6.79 6.65 13.12
3/13/2021 9:15:00 AM 3.78 38.804 0.028 6.73 6.25 13.13
3/13/2021 9:30:00 AM 3.82 38.876 0.028 6.74 6.15 13.13
3/13/2021 9:45:00 AM 3.86 38.948 0.028 6.75 6.24 13.12
3/13/2021 10:00:00 AM 3.92 39.056 0.028 6.79 6.3 13.11
3/13/2021 10:15:00 AM 3.99 39.182 0.028 6.79 6.26 13.1
3/13/2021 10:30:00 AM 4.07 39.326 0.028 6.75 6.4 13.08
3/13/2021 10:45:00 AM 4.18 39.524 0.028 6.75 6.15 13.06
3/13/2021 11:00:00 AM 4.29 39.722 0.028 6.78 6.22 13.02
3/13/2021 11:15:00 AM 4.41 39.938 0.028 6.8 6.23 12.99
3/13/2021 11:30:00 AM 4.54 40.172 0.028 6.81 5.75 12.95
3/13/2021 11:45:00 AM 4.67 40.406 0.028 6.79 5.98 12.91
3/13/2021 12:00:00 PM 4.82 40.676 0.028 6.75 5.79 12.87
3/13/2021 12:15:00 PM 4.96 40.928 0.028 6.77 5.95 12.82
3/13/2021 12:30:00 PM 5.12 41.216 0.028 6.78 6.27 12.77
3/13/2021 12:45:00 PM 5.26 41.468 0.028 6.8 6.4 12.71
3/13/2021 1:00:00 PM 5.4 41.72 0.028 6.81 5.85 12.67
3/13/2021 1:15:00 PM 5.54 41.972 0.028 6.73 5.93 12.62
3/13/2021 1:30:00 PM 5.67 42.206 0.028 6.76 5.74 12.58
3/13/2021 1:45:00 PM 5.8 42.44 0.028 6.74 5.77 12.52
3/13/2021 2:00:00 PM 5.91 42.638 0.028 6.78 5.57 12.47
3/13/2021 2:15:00 PM 6.01 42.818 0.028 6.81 5.8 12.44
3/13/2021 2:30:00 PM 6.1 42.98 0.028 6.79 5.58 12.4
3/13/2021 2:45:00 PM 6.19 43.142 0.028 6.78 5.77 12.36
3/13/2021 3:00:00 PM 6.24 43.232 0.028 6.79 5.79 12.33
3/13/2021 3:15:00 PM 6.29 43.322 0.028 6.81 5.82 12.3
3/13/2021 3:30:00 PM 6.32 43.376 0.028 6.79 5.62 12.28
3/13/2021 3:45:00 PM 6.34 43.412 0.028 6.79 5.76 12.26
3/13/2021 4:00:00 PM 6.33 43.394 0.028 6.74 5.8 12.25
3/13/2021 4:15:00 PM 6.3 43.34 0.028 6.73 6.09 12.24
3/13/2021 4:30:00 PM 6.27 43.286 0.028 6.78 5.55 12.24
3/13/2021 4:45:00 PM 6.22 43.196 0.028 6.76 5.88 12.24
3/13/2021 5:00:00 PM 6.16 43.088 0.028 6.78 6.06 12.25
3/13/2021 5:15:00 PM 6.09 42.962 0.028 6.79 5.89 12.26
3/13/2021 5:30:00 PM 6.02 42.836 0.028 6.73 5.86 12.28
3/13/2021 5:45:00 PM 5.95 42.71 0.028 6.71 5.03 12.3
3/13/2021 6:00:00 PM 5.87 42.566 0.028 6.73 5.61 12.31
3/13/2021 6:15:00 PM 5.79 42.422 0.028 6.73 6.11 12.33
3/13/2021 6:30:00 PM 5.71 42.278 0.028 6.69 5.79 12.34
3/13/2021 6:45:00 PM 5.62 42.116 0.028 6.77 5.76 12.37
3/13/2021 7:00:00 PM 5.54 41.972 0.028 6.73 5.84 12.39
3/13/2021 7:15:00 PM 5.47 41.846 0.028 6.71 5.48 12.41
3/13/2021 7:30:00 PM 5.39 41.702 0.028 6.75 5.83 12.43
3/13/2021 7:45:00 PM 5.33 41.594 0.028 6.75 5.76 12.46
3/13/2021 8:00:00 PM 5.26 41.468 0.028 6.72 5.79 12.47
3/13/2021 8:15:00 PM 5.2 41.36 0.028 6.76 5.6 12.49
3/13/2021 8:30:00 PM 5.14 41.252 0.028 6.68 5.82 12.51
3/13/2021 8:45:00 PM 5.08 41.144 0.028 6.72 5.63 12.53
3/13/2021 9:00:00 PM 5.03 41.054 0.028 6.72 5.35 12.55
3/13/2021 9:15:00 PM 4.97 40.946 0.028 6.73 5.49 12.56
3/13/2021 9:30:00 PM 4.92 40.856 0.028 6.73 5.67 12.58
3/13/2021 9:45:00 PM 4.88 40.784 0.028 6.7 5.17 12.6
3/13/2021 10:00:00 PM 4.83 40.694 0.028 6.72 5.73 12.61
3/13/2021 10:15:00 PM 4.79 40.622 0.028 6.78 5.43 12.63
3/13/2021 10:30:00 PM 4.75 40.55 0.028 6.79 5.77 12.64
3/13/2021 10:45:00 PM 4.71 40.478 0.028 6.77 5.26 12.65
3/13/2021 11:00:00 PM 4.67 40.406 0.028 6.71 5.6 12.66
3/13/2021 11:15:00 PM 4.63 40.334 0.028 6.75 5.75 12.67
3/13/2021 11:30:00 PM 4.59 40.262 0.028 6.75 5.84 12.68
3/13/2021 11:45:00 PM 4.56 40.208 0.028 6.79 5.86 12.69
3/14/2021 12:00:00 AM 4.53 40.154 0.028 6.73 5.67 12.7
3/14/2021 12:15:00 AM 4.5 40.1 0.028 6.71 5.41 12.71
3/14/2021 12:30:00 AM 4.47 40.046 0.028 6.75 5.44 12.72
3/14/2021 12:45:00 AM 4.44 39.992 0.028 6.73 5.12 12.73
3/14/2021 1:00:00 AM 4.42 39.956 0.028 6.71 5.32 12.74
3/14/2021 1:15:00 AM 4.4 39.92 0.028 6.76 5.23 12.75
3/14/2021 1:30:00 AM 4.37 39.866 0.028 6.75 5.25 12.75
3/14/2021 1:45:00 AM 4.35 39.83 0.028 6.77 5.51 12.76
3/14/2021 3:00:00 AM 4.24 39.632 0.028 6.77 5.29 12.79
3/14/2021 3:15:00 AM 4.23 39.614 0.028 6.76 5.31 12.78
3/14/2021 3:30:00 AM 4.21 39.578 0.028 6.75 5.68 12.79
3/14/2021 3:45:00 AM 4.19 39.542 0.028 6.73 5.24 12.8
3/14/2021 4:00:00 AM 4.17 39.506 0.028 6.71 5.12 12.8
3/14/2021 4:15:00 AM 4.16 39.488 0.028 6.74 5.27 12.8
3/14/2021 4:30:00 AM 4.14 39.452 0.028 6.74 5 12.8
3/14/2021 4:45:00 AM 4.12 39.416 0.028 6.79 5.25 12.81
3/14/2021 5:00:00 AM 4.11 39.398 0.028 6.77 5.12 12.82
3/14/2021 5:15:00 AM 4.1 39.38 0.028 6.79 5 12.82
3/14/2021 5:30:00 AM 4.08 39.344 0.028 6.72 4.98 12.82
3/14/2021 5:45:00 AM 4.06 39.308 0.028 6.74 4.96 12.83
3/14/2021 6:00:00 AM 4.05 39.29 0.028 6.73 5.12 12.83
3/14/2021 6:15:00 AM 4.04 39.272 0.028 6.77 4.97 12.83
3/14/2021 6:30:00 AM 4.02 39.236 0.028 6.74 4.84 12.84
3/14/2021 6:45:00 AM 4.01 39.218 0.028 6.79 4.8 12.85
3/14/2021 7:00:00 AM 3.99 39.182 0.028 6.74 5.13 12.86
3/14/2021 7:15:00 AM 3.98 39.164 0.028 6.79 4.68 12.87
3/14/2021 7:30:00 AM 3.97 39.146 0.028 6.75 4.86 12.88
3/14/2021 7:45:00 AM 3.96 39.128 0.028 6.77 4.85 12.89
3/14/2021 8:00:00 AM 3.96 39.128 0.028 6.76 4.56 12.9
3/14/2021 8:15:00 AM 3.96 39.128 0.028 6.75 4.79 12.91
3/14/2021 8:30:00 AM 3.96 39.128 0.028 6.74 4.79 12.91
3/14/2021 8:45:00 AM 3.97 39.146 0.028 6.79 4.83 12.92
3/14/2021 9:00:00 AM 3.99 39.182 0.028 6.78 4.44 12.92
3/14/2021 10:15:00 AM 4.04 39.272 0.028 6.79 4.57 12.92
3/14/2021 10:30:00 AM 4.12 39.416 0.028 6.81 4.44 12.91
3/14/2021 10:45:00 AM 4.21 39.578 0.028 6.79 4.56 12.89
3/14/2021 11:00:00 AM 4.31 39.758 0.028 6.82 4.51 12.88
3/14/2021 11:15:00 AM 4.43 39.974 0.028 6.81 4.82 12.85
3/14/2021 11:30:00 AM 4.55 40.19 0.028 6.82 4.45 12.81
3/14/2021 11:45:00 AM 4.7 40.46 0.028 6.79 4.59 12.78
3/14/2021 12:00:00 PM 4.82 40.676 0.028 6.8 4.37 12.74
3/14/2021 12:15:00 PM 4.97 40.946 0.028 6.81 4.38 12.71
3/14/2021 12:30:00 PM 5.08 41.144 0.028 6.81 4.59 12.66
3/14/2021 12:45:00 PM 5.16 41.288 0.028 6.81 4.61 12.62
3/14/2021 1:00:00 PM 5.3 41.54 0.028 6.78 4.42 12.57
3/14/2021 1:15:00 PM 5.49 41.882 0.028 6.79 4.53 12.54
3/14/2021 1:30:00 PM 5.68 42.224 0.028 6.77 4.62 12.48
3/14/2021 1:45:00 PM 5.83 42.494 0.028 6.8 4.61 12.42
3/14/2021 2:00:00 PM 6.1 42.98 0.028 6.84 4.5 12.37
3/14/2021 2:15:00 PM 6.24 43.232 0.028 6.79 4.56 12.33
3/14/2021 2:30:00 PM 6.25 43.25 0.028 6.79 4.4 12.31
3/14/2021 2:45:00 PM 6.21 43.178 0.028 6.81 4.6 12.29
3/14/2021 3:00:00 PM 6.2 43.16 0.028 6.81 4.84 12.31
3/14/2021 3:15:00 PM 6.32 43.376 0.028 6.77 4.67 12.27
3/14/2021 3:30:00 PM 6.45 43.61 0.028 6.78 4.98 12.22
3/14/2021 3:45:00 PM 6.56 43.808 0.028 6.85 4.73 12.18
3/14/2021 4:00:00 PM 6.59 43.862 0.028 6.79 4.85 12.15
3/14/2021 4:15:00 PM 6.63 43.934 0.028 6.77 4.73 12.12
3/14/2021 4:30:00 PM 6.69 44.042 0.028 6.81 4.88 12.12
3/14/2021 4:45:00 PM 6.7 44.06 0.028 6.77 4.59 12.11
3/14/2021 5:00:00 PM 6.57 43.826 0.028 6.8 5.18 12.12
3/14/2021 5:15:00 PM 6.45 43.61 0.028 6.81 4.65 12.15
3/14/2021 5:30:00 PM 6.34 43.412 0.028 6.78 4.79 12.18
3/14/2021 5:45:00 PM 6.24 43.232 0.028 6.79 4.85 12.2
3/14/2021 6:00:00 PM 6.15 43.07 0.028 6.77 4.76 12.22
3/14/2021 6:15:00 PM 6.07 42.926 0.028 6.75 4.57 12.23
3/14/2021 6:30:00 PM 6 42.8 0.028 6.73 4.66 12.25
3/14/2021 6:45:00 PM 5.9 42.62 0.028 6.79 4.62 12.27
3/14/2021 7:00:00 PM 5.81 42.458 0.028 6.79 4.64 12.3
3/14/2021 7:15:00 PM 5.71 42.278 0.028 6.76 4.67 12.33
3/14/2021 7:30:00 PM 5.61 42.098 0.028 6.81 4.84 12.36
3/14/2021 7:45:00 PM 5.5 41.9 0.028 6.76 4.75 12.4
3/14/2021 8:00:00 PM 5.39 41.702 0.028 6.76 4.62 12.44
3/14/2021 8:15:00 PM 5.28 41.504 0.028 6.78 4.85 12.46
3/14/2021 8:30:00 PM 5.17 41.306 0.028 6.77 4.59 12.5
3/14/2021 8:45:00 PM 5.08 41.144 0.028 6.76 4.47 12.53
3/14/2021 9:00:00 PM 5 41 0.028 6.77 4.55 12.56
3/14/2021 9:15:00 PM 4.91 40.838 0.028 6.77 4.33 12.6
3/14/2021 9:30:00 PM 4.81 40.658 0.028 6.75 4.76 12.64
3/14/2021 9:45:00 PM 4.72 40.496 0.028 6.78 4.5 12.67
3/14/2021 10:00:00 PM 4.65 40.37 0.028 6.78 4.41 12.7
3/14/2021 10:15:00 PM 4.57 40.226 0.028 6.76 4.47 12.73
3/14/2021 10:30:00 PM 4.48 40.064 0.028 6.78 4.43 12.76
3/14/2021 10:45:00 PM 4.39 39.902 0.028 6.77 4.43 12.79
3/14/2021 11:00:00 PM 4.33 39.794 0.028 6.76 4.33 12.83
3/14/2021 11:15:00 PM 4.27 39.686 0.028 6.77 4.39 12.86
3/14/2021 11:30:00 PM 4.21 39.578 0.028 6.76 4.25 12.88
3/14/2021 11:45:00 PM 4.14 39.452 0.028 6.8 4.58 12.9
3/15/2021 12:00:00 AM 4.07 39.326 0.028 6.78 4.67 12.93
3/15/2021 12:15:00 AM 4.01 39.218 0.028 6.78 4.25 12.95
3/15/2021 12:30:00 AM 3.95 39.11 0.028 6.79 4.16 12.97
3/15/2021 12:45:00 AM 3.89 39.002 0.029 6.81 4.01 13
3/15/2021 1:00:00 AM 3.82 38.876 0.028 6.78 4.32 13.02
3/15/2021 1:15:00 AM 3.76 38.768 0.029 6.74 5.28 13.05
3/15/2021 1:30:00 AM 3.71 38.678 0.028 6.76 4.07 13.07
3/15/2021 1:45:00 AM 3.65 38.57 0.028 6.77 4.29 13.1
3/15/2021 2:00:00 AM 3.59 38.462 0.028 6.77 4.19 13.12
3/15/2021 2:15:00 AM 3.55 38.39 0.029 6.78 4.09 13.13
3/15/2021 2:30:00 AM 3.5 38.3 0.028 6.76 4.32 13.15
3/15/2021 2:45:00 AM 3.45 38.21 0.028 6.78 4.26 13.17
3/15/2021 3:00:00 AM 3.39 38.102 0.028 6.77 4.04 13.19
3/15/2021 3:15:00 AM 3.34 38.012 0.028 6.78 4.35 13.2
3/15/2021 3:30:00 AM 3.3 37.94 0.028 6.79 4.11 13.21
3/15/2021 3:45:00 AM 3.25 37.85 0.028 6.81 4.16 13.23
3/15/2021 4:00:00 AM 3.21 37.778 0.028 6.77 4.04 13.24
3/15/2021 4:15:00 AM 3.17 37.706 0.028 6.79 4.21 13.26
3/15/2021 4:30:00 AM 3.13 37.634 0.028 6.77 4.21 13.27
3/15/2021 4:45:00 AM 3.09 37.562 0.028 6.8 3.98 13.29
3/15/2021 5:00:00 AM 3.06 37.508 0.028 6.76 3.94 13.3
3/15/2021 5:15:00 AM 3.02 37.436 0.028 6.81 3.99 13.32
3/15/2021 5:30:00 AM 2.99 37.382 0.028 6.78 3.97 13.33
3/15/2021 5:45:00 AM 2.95 37.31 0.028 6.76 4.13 13.35
3/15/2021 6:00:00 AM 2.91 37.238 0.028 6.78 4.1 13.36
3/15/2021 6:15:00 AM 2.88 37.184 0.028 6.78 4.17 13.38
3/15/2021 6:30:00 AM 2.85 37.13 0.028 6.77 4.21 13.39
3/15/2021 6:45:00 AM 2.82 37.076 0.028 6.78 4.05 13.41
3/15/2021 7:00:00 AM 2.78 37.004 0.028 6.77 4.03 13.42
3/15/2021 7:15:00 AM 2.76 36.968 0.028 6.76 3.98 13.43
3/15/2021 7:30:00 AM 2.73 36.914 0.028 6.78 3.92 13.44
3/15/2021 7:45:00 AM 2.7 36.86 0.028 6.77 3.98 13.46
3/15/2021 8:00:00 AM 2.68 36.824 0.028 6.78 4.07 13.47
3/15/2021 8:15:00 AM 2.65 36.77 0.028 6.8 4.11 13.49
3/15/2021 8:30:00 AM 2.63 36.734 0.028 6.78 3.96 13.51
3/15/2021 8:45:00 AM 2.61 36.698 0.028 6.84 3.79 13.53
3/15/2021 9:00:00 AM 2.58 36.644 0.028 6.81 3.9 13.54
3/15/2021 9:15:00 AM 2.56 36.608 0.028 6.8 3.93 13.56
3/15/2021 9:30:00 AM 2.54 36.572 0.028 6.8 3.73 13.56
3/15/2021 9:45:00 AM 2.53 36.554 0.028 6.83 3.69 13.58
3/15/2021 10:00:00 AM 2.53 36.554 0.028 6.77 4.05 13.59
3/15/2021 10:15:00 AM 2.55 36.59 0.028 6.8 4.15 13.6
3/15/2021 10:30:00 AM 2.59 36.662 0.028 6.81 3.8 13.59
3/15/2021 10:45:00 AM 2.65 36.77 0.028 6.83 3.68 13.59
3/15/2021 11:00:00 AM 2.72 36.896 0.028 6.81 3.84 13.59
3/15/2021 11:15:00 AM 2.8 37.04 0.028 6.84 3.61 13.57
3/15/2021 11:30:00 AM 2.9 37.22 0.028 6.78 3.85 13.55
3/15/2021 11:45:00 AM 3.01 37.418 0.028 6.81 3.88 13.53
3/15/2021 12:00:00 PM 3.15 37.67 0.028 6.8 3.72 13.47
3/15/2021 12:15:00 PM 3.29 37.922 0.028 6.82 3.74 13.43
3/15/2021 12:30:00 PM 3.45 38.21 0.028 6.82 3.87 13.39
3/15/2021 12:45:00 PM 3.6 38.48 0.028 6.81 3.59 13.35
3/15/2021 1:00:00 PM 3.76 38.768 0.028 6.81 3.74 13.28
3/15/2021 1:15:00 PM 3.91 39.038 0.028 6.81 3.77 13.23
3/15/2021 1:30:00 PM 4.08 39.344 0.028 6.83 3.5 13.18
3/15/2021 1:45:00 PM 4.24 39.632 0.028 6.82 3.76 13.13
3/15/2021 2:00:00 PM 4.39 39.902 0.028 6.85 3.59 13.07
3/15/2021 2:15:00 PM 4.53 40.154 0.028 6.86 3.78 13.01
3/15/2021 2:30:00 PM 4.66 40.388 0.028 6.82 3.78 12.96
3/15/2021 2:45:00 PM 4.78 40.604 0.028 6.83 3.88 12.91
3/15/2021 3:00:00 PM 4.89 40.802 0.028 6.79 4.05 12.87
3/15/2021 3:15:00 PM 5 41 0.028 6.8 3.81 12.82
3/15/2021 3:30:00 PM 5.09 41.162 0.028 6.81 3.96 12.77
3/15/2021 3:45:00 PM 5.17 41.306 0.028 6.82 3.96 12.73
3/15/2021 4:00:00 PM 5.23 41.414 0.028 6.83 4.33 12.7
3/15/2021 4:15:00 PM 5.28 41.504 0.028 6.82 4 12.68
3/15/2021 4:30:00 PM 5.31 41.558 0.028 6.83 3.86 12.65
3/15/2021 4:45:00 PM 5.33 41.594 0.028 6.86 3.85 12.63
3/15/2021 5:00:00 PM 5.32 41.576 0.028 6.83 3.89 12.62
3/15/2021 5:15:00 PM 5.3 41.54 0.028 6.83 3.83 12.61
3/15/2021 5:30:00 PM 5.27 41.486 0.028 6.83 4.1 12.61
3/15/2021 5:45:00 PM 5.24 41.432 0.028 6.82 3.93 12.61
3/15/2021 6:00:00 PM 5.2 41.36 0.028 6.83 4.22 12.62
3/15/2021 6:15:00 PM 5.14 41.252 0.028 6.77 3.95 12.63
3/15/2021 6:30:00 PM 5.08 41.144 0.028 6.85 3.86 12.64
3/15/2021 6:45:00 PM 5.02 41.036 0.028 6.85 3.8 12.66
3/15/2021 7:00:00 PM 4.95 40.91 0.028 6.82 3.99 12.67
3/15/2021 7:15:00 PM 4.88 40.784 0.028 6.79 3.97 12.68
3/15/2021 7:30:00 PM 4.8 40.64 0.028 6.78 4.02 12.69
3/15/2021 7:45:00 PM 4.72 40.496 0.028 6.83 4.03 12.7
3/15/2021 8:00:00 PM 4.64 40.352 0.028 6.8 3.94 12.72
3/15/2021 8:15:00 PM 4.56 40.208 0.028 6.78 3.97 12.74
3/15/2021 8:30:00 PM 4.48 40.064 0.028 6.82 4.04 12.76
3/15/2021 8:45:00 PM 4.41 39.938 0.028 6.83 3.96 12.79
3/15/2021 9:00:00 PM 4.34 39.812 0.028 6.82 4.2 12.81
3/15/2021 9:15:00 PM 4.28 39.704 0.028 6.78 3.89 12.83
3/15/2021 9:30:00 PM 4.22 39.596 0.028 6.84 3.95 12.86
3/15/2021 9:45:00 PM 4.16 39.488 0.028 6.8 4 12.88
3/15/2021 10:00:00 PM 4.11 39.398 0.028 6.81 3.93 12.9
3/15/2021 10:15:00 PM 4.07 39.326 0.028 6.82 3.91 12.92
3/15/2021 10:30:00 PM 4.02 39.236 0.028 6.84 3.82 12.94
3/15/2021 10:45:00 PM 3.99 39.182 0.028 6.84 3.81 12.94
3/15/2021 11:00:00 PM 3.96 39.128 0.029 6.76 3.96 12.95
3/15/2021 11:15:00 PM 3.92 39.056 0.029 6.78 3.81 12.96
3/15/2021 11:30:00 PM 3.89 39.002 0.029 6.76 3.95 12.97
3/15/2021 11:45:00 PM 3.87 38.966 0.029 6.79 3.68 12.98
3/16/2021 12:00:00 AM 3.85 38.93 0.029 6.77 3.88 12.98
3/16/2021 12:15:00 AM 3.84 38.912 0.029 6.81 3.81 12.99
3/16/2021 12:30:00 AM 3.82 38.876 0.029 6.8 3.93 12.99
3/16/2021 12:45:00 AM 3.81 38.858 0.029 6.78 3.88 13
3/16/2021 1:00:00 AM 3.79 38.822 0.029 6.8 3.81 13
3/16/2021 1:15:00 AM 3.78 38.804 0.029 6.8 3.85 13
3/16/2021 1:30:00 AM 3.78 38.804 0.029 6.83 3.77 13.01
3/16/2021 1:45:00 AM 3.77 38.786 0.029 6.82 3.87 13.01
3/16/2021 2:00:00 AM 3.76 38.768 0.029 6.78 3.77 13.01
3/16/2021 2:15:00 AM 3.75 38.75 0.029 6.81 3.85 13.02
3/16/2021 2:30:00 AM 3.73 38.714 0.029 6.78 3.65 13.02
3/16/2021 2:45:00 AM 3.72 38.696 0.029 6.84 3.81 13.03
3/16/2021 3:00:00 AM 3.71 38.678 0.029 6.83 3.78 13.03
3/16/2021 3:15:00 AM 3.7 38.66 0.029 6.84 3.86 13.03
3/16/2021 3:30:00 AM 3.68 38.624 0.029 6.77 3.67 13.03
3/16/2021 3:45:00 AM 3.67 38.606 0.029 6.82 3.94 13.04
3/16/2021 4:00:00 AM 3.66 38.588 0.029 6.83 3.77 13.04
3/16/2021 4:15:00 AM 3.65 38.57 0.029 6.79 3.64 13.04
3/16/2021 4:30:00 AM 3.64 38.552 0.029 6.81 4.09 13.04
3/16/2021 4:45:00 AM 3.63 38.534 0.029 6.83 3.76 13.04
3/16/2021 5:00:00 AM 3.62 38.516 0.029 6.8 3.95 13.04
3/16/2021 5:15:00 AM 3.61 38.498 0.029 6.8 4.16 13.04
3/16/2021 5:30:00 AM 3.59 38.462 0.029 6.81 3.77 13.05
3/16/2021 5:45:00 AM 3.58 38.444 0.029 6.83 3.64 13.05
3/16/2021 6:00:00 AM 3.58 38.444 0.029 6.83 3.63 13.05
3/16/2021 6:15:00 AM 3.57 38.426 0.029 6.78 4.18 13.05
3/16/2021 6:30:00 AM 3.56 38.408 0.029 6.8 3.65 13.05
3/16/2021 6:45:00 AM 3.56 38.408 0.029 6.81 3.72 13.05
3/16/2021 7:00:00 AM 3.56 38.408 0.029 6.84 3.93 13.05
3/16/2021 7:15:00 AM 3.53 38.354 0.029 6.81 3.68 13.05
3/16/2021 7:30:00 AM 3.48 38.264 0.029 6.81 3.68 13.06
3/16/2021 7:45:00 AM 3.47 38.246 0.029 6.82 3.63 13.06
3/16/2021 8:00:00 AM 3.44 38.192 0.029 6.84 3.65 13.07
3/16/2021 8:15:00 AM 3.36 38.048 0.029 6.8 3.76 13.09
3/16/2021 8:30:00 AM 3.36 38.048 0.029 6.83 3.73 13.1
3/16/2021 8:45:00 AM 3.32 37.976 0.029 6.81 3.64 13.11
3/16/2021 9:00:00 AM 3.33 37.994 0.029 6.82 3.67 13.12
3/16/2021 9:15:00 AM 3.34 38.012 0.029 6.83 3.52 13.14
3/16/2021 9:30:00 AM 3.35 38.03 0.029 6.84 3.43 13.15
3/16/2021 9:45:00 AM 3.34 38.012 0.028 6.79 3.47 13.16
3/16/2021 10:00:00 AM 3.34 38.012 0.028 6.81 3.54 13.18
3/16/2021 10:15:00 AM 3.36 38.048 0.028 6.82 3.47 13.21
3/16/2021 10:30:00 AM 3.37 38.066 0.028 6.81 3.6 13.2
3/16/2021 10:45:00 AM 3.39 38.102 0.028 6.83 3.53 13.21
3/16/2021 11:00:00 AM 3.41 38.138 0.028 6.82 3.79 13.21
3/16/2021 11:15:00 AM 3.45 38.21 0.028 6.84 3.58 13.21
3/16/2021 11:30:00 AM 3.48 38.264 0.028 6.85 3.47 13.2
3/16/2021 11:45:00 AM 3.5 38.3 0.028 6.84 3.55 13.19
3/16/2021 12:00:00 PM 3.53 38.354 0.028 6.82 3.49 13.19
3/16/2021 12:15:00 PM 3.57 38.426 0.028 6.85 3.46 13.18
3/16/2021 12:30:00 PM 3.61 38.498 0.028 6.85 3.39 13.17
3/16/2021 12:45:00 PM 3.64 38.552 0.028 6.85 3.53 13.16
3/16/2021 1:00:00 PM 3.68 38.624 0.028 6.86 3.45 13.15
3/16/2021 1:15:00 PM 3.72 38.696 0.028 6.86 3.57 13.14
3/16/2021 1:30:00 PM 3.75 38.75 0.028 6.88 3.43 13.12
3/16/2021 1:45:00 PM 3.78 38.804 0.028 6.84 3.5 13.1
3/16/2021 2:00:00 PM 3.82 38.876 0.028 6.85 3.55 13.08
3/16/2021 2:15:00 PM 3.85 38.93 0.028 6.85 3.5 13.07
3/16/2021 2:30:00 PM 3.88 38.984 0.028 6.84 3.56 13.04
3/16/2021 2:45:00 PM 3.92 39.056 0.028 6.84 3.44 13.04
3/16/2021 3:00:00 PM 3.95 39.11 0.028 6.83 3.44 13.02
3/16/2021 3:15:00 PM 3.98 39.164 0.028 6.86 3.52 13.01
3/16/2021 3:30:00 PM 4.01 39.218 0.028 6.83 3.52 13
3/16/2021 3:45:00 PM 4.03 39.254 0.028 6.83 3.61 12.99
3/16/2021 4:00:00 PM 4.05 39.29 0.028 6.83 3.45 12.98
3/16/2021 4:15:00 PM 4.07 39.326 0.028 6.85 3.49 12.98
3/16/2021 4:30:00 PM 4.09 39.362 0.028 6.83 3.43 12.97
3/16/2021 4:45:00 PM 4.11 39.398 0.028 6.85 3.42 12.96
3/16/2021 5:00:00 PM 4.12 39.416 0.028 6.83 3.53 12.94
3/16/2021 5:15:00 PM 4.14 39.452 0.028 6.84 3.34 12.93
3/16/2021 5:30:00 PM 4.15 39.47 0.028 6.82 3.45 12.92
3/16/2021 5:45:00 PM 4.17 39.506 0.028 6.83 3.49 12.92
3/16/2021 6:00:00 PM 4.18 39.524 0.028 6.84 3.42 12.9
3/16/2021 6:15:00 PM 4.18 39.524 0.028 6.81 3.5 12.89
3/16/2021 6:30:00 PM 4.19 39.542 0.028 6.81 3.52 12.87
3/16/2021 6:45:00 PM 4.19 39.542 0.028 6.79 3.49 12.85
3/16/2021 7:00:00 PM 4.2 39.56 0.028 6.8 3.71 12.85
3/16/2021 7:15:00 PM 4.2 39.56 0.028 6.81 3.39 12.83
3/16/2021 7:30:00 PM 4.19 39.542 0.028 6.8 3.41 12.82
3/16/2021 7:45:00 PM 4.19 39.542 0.028 6.77 3.57 12.81
3/16/2021 8:00:00 PM 4.19 39.542 0.028 6.77 3.65 12.8
3/16/2021 8:15:00 PM 4.19 39.542 0.028 6.81 3.61 12.8
3/16/2021 8:30:00 PM 4.18 39.524 0.028 6.78 3.54 12.8
3/16/2021 8:45:00 PM 4.18 39.524 0.029 6.81 3.35 12.8
3/16/2021 9:00:00 PM 4.17 39.506 0.028 6.79 3.5 12.8
3/16/2021 9:15:00 PM 4.16 39.488 0.029 6.77 3.45 12.8
3/16/2021 9:30:00 PM 4.16 39.488 0.029 6.77 3.52 12.8
3/16/2021 9:45:00 PM 4.16 39.488 0.029 6.77 3.44 12.8
3/16/2021 10:00:00 PM 4.15 39.47 0.029 6.76 3.41 12.8
3/16/2021 10:15:00 PM 4.15 39.47 0.029 6.77 3.51 12.81
3/16/2021 10:30:00 PM 4.15 39.47 0.029 6.77 3.46 12.81
3/16/2021 10:45:00 PM 4.14 39.452 0.029 6.75 3.36 12.81
3/16/2021 11:00:00 PM 4.14 39.452 0.029 6.76 3.41 12.82
3/16/2021 11:15:00 PM 4.14 39.452 0.029 6.77 3.46 12.82
3/16/2021 11:30:00 PM 4.13 39.434 0.029 6.77 3.49 12.82
3/16/2021 11:45:00 PM 4.12 39.416 0.029 6.76 3.42 12.82
3/17/2021 12:00:00 AM 4.12 39.416 0.029 6.77 3.34 12.81
3/17/2021 12:15:00 AM 4.12 39.416 0.029 6.76 3.34 12.82
3/17/2021 12:30:00 AM 4.11 39.398 0.029 6.78 3.41 12.83
3/17/2021 12:45:00 AM 4.11 39.398 0.029 6.76 3.29 12.82
3/17/2021 1:00:00 AM 4.1 39.38 0.029 6.77 3.43 12.82
3/17/2021 1:15:00 AM 4.1 39.38 0.029 6.76 3.41 12.83
3/17/2021 1:30:00 AM 4.1 39.38 0.029 6.78 3.29 12.83
3/17/2021 1:45:00 AM 4.1 39.38 0.029 6.74 3.28 12.82
3/17/2021 2:00:00 AM 4.09 39.362 0.029 6.75 3.42 12.82
3/17/2021 2:15:00 AM 4.09 39.362 0.029 6.77 3.32 12.83
3/17/2021 2:30:00 AM 4.09 39.362 0.029 6.78 3.43 12.83
3/17/2021 2:45:00 AM 4.09 39.362 0.029 6.78 3.42 12.83
3/17/2021 3:00:00 AM 4.08 39.344 0.029 6.78 3.51 12.83
3/17/2021 3:15:00 AM 4.08 39.344 0.029 6.77 3.41 12.83
3/17/2021 3:30:00 AM 4.08 39.344 0.029 6.77 3.4 12.83
3/17/2021 3:45:00 AM 4.08 39.344 0.029 6.74 3.56 12.83
3/17/2021 4:00:00 AM 4.08 39.344 0.029 6.78 3.29 12.83
3/17/2021 4:15:00 AM 4.08 39.344 0.029 6.79 3.34 12.83
3/17/2021 4:30:00 AM 4.08 39.344 0.029 6.77 3.42 12.83
3/17/2021 4:45:00 AM 4.09 39.362 0.029 6.76 3.38 12.83
3/17/2021 5:00:00 AM 4.09 39.362 0.029 6.79 3.23 12.83
3/17/2021 5:15:00 AM 4.09 39.362 0.029 6.79 3.38 12.83
3/17/2021 5:30:00 AM 4.09 39.362 0.029 6.8 3.36 12.83
3/17/2021 5:45:00 AM 4.1 39.38 0.029 6.77 3.39 12.83
3/17/2021 6:00:00 AM 4.1 39.38 0.029 6.8 3.24 12.83
3/17/2021 6:15:00 AM 4.1 39.38 0.029 6.76 3.22 12.83
3/17/2021 6:30:00 AM 4.1 39.38 0.029 6.79 3.29 12.83
3/17/2021 6:45:00 AM 4.11 39.398 0.029 6.76 3.39 12.83
3/17/2021 7:00:00 AM 4.11 39.398 0.029 6.77 3.37 12.83
3/17/2021 7:15:00 AM 4.11 39.398 0.029 6.72 3.29 12.83
3/17/2021 7:30:00 AM 4.12 39.416 0.029 6.76 3.35 12.83
3/17/2021 7:45:00 AM 4.12 39.416 0.029 6.75 3.36 12.83
3/17/2021 8:00:00 AM 4.13 39.434 0.029 6.8 3.37 12.84
3/17/2021 8:15:00 AM 4.14 39.452 0.029 6.76 3.3 12.85
3/17/2021 8:30:00 AM 4.15 39.47 0.029 6.76 3.23 12.86
3/17/2021 8:45:00 AM 4.17 39.506 0.029 6.79 3.33 12.88
3/17/2021 9:00:00 AM 4.19 39.542 0.029 6.78 3.14 12.88
3/17/2021 9:15:00 AM 4.21 39.578 0.029 6.79 3.29 12.89
3/17/2021 9:30:00 AM 4.23 39.614 0.029 6.8 3.11 12.9
3/17/2021 9:45:00 AM 4.25 39.65 0.029 6.81 3.1 12.9
3/17/2021 10:00:00 AM 4.28 39.704 0.029 6.83 3.16 12.91
3/17/2021 10:15:00 AM 4.31 39.758 0.029 6.85 3.31 12.9
3/17/2021 10:30:00 AM 4.35 39.83 0.029 6.83 3.34 12.9
3/17/2021 10:45:00 AM 4.39 39.902 0.029 6.83 3.24 12.9
3/17/2021 11:00:00 AM 4.43 39.974 0.029 6.83 3.17 12.89
3/17/2021 11:15:00 AM 4.48 40.064 0.029 6.82 3.18 12.87
3/17/2021 11:30:00 AM 4.53 40.154 0.029 6.84 3.32 12.86
3/17/2021 11:45:00 AM 4.59 40.262 0.029 6.82 3.14 12.85
3/17/2021 12:00:00 PM 4.66 40.388 0.029 6.83 3.15 12.84
3/17/2021 12:15:00 PM 4.72 40.496 0.029 6.83 3.25 12.82
3/17/2021 12:30:00 PM 4.8 40.64 0.029 6.82 3.3 12.81
3/17/2021 12:45:00 PM 4.88 40.784 0.028 6.84 3.16 12.79
3/17/2021 1:00:00 PM 4.97 40.946 0.028 6.84 3.21 12.76
3/17/2021 1:15:00 PM 5.08 41.144 0.028 6.86 3.22 12.72
3/17/2021 1:30:00 PM 5.19 41.342 0.028 6.88 3.21 12.69
3/17/2021 1:45:00 PM 5.32 41.576 0.028 6.88 3.33 12.65
3/17/2021 2:00:00 PM 5.47 41.846 0.028 6.85 3.34 12.61
3/17/2021 2:15:00 PM 5.67 42.206 0.028 6.85 3.2 12.56
3/17/2021 2:30:00 PM 5.8 42.44 0.028 6.84 3.23 12.5
3/17/2021 2:45:00 PM 5.9 42.62 0.028 6.86 3.27 12.47
3/17/2021 3:00:00 PM 6.03 42.854 0.028 6.87 3.12 12.42
3/17/2021 3:15:00 PM 6.18 43.124 0.028 6.86 3.21 12.36
3/17/2021 3:30:00 PM 6.29 43.322 0.028 6.85 3.35 12.32
3/17/2021 3:45:00 PM 6.4 43.52 0.028 6.88 3.19 12.27
3/17/2021 4:00:00 PM 6.52 43.736 0.028 6.9 3.16 12.22
3/17/2021 4:15:00 PM 6.62 43.916 0.028 6.87 3.19 12.19
3/17/2021 4:30:00 PM 6.7 44.06 0.028 6.84 3.23 12.15
3/17/2021 4:45:00 PM 6.77 44.186 0.028 6.85 3.08 12.12
3/17/2021 5:00:00 PM 6.84 44.312 0.028 6.84 3.11 12.08
3/17/2021 5:15:00 PM 6.88 44.384 0.028 6.87 3.19 12.05
3/17/2021 5:30:00 PM 6.9 44.42 0.028 6.87 3.15 12.03
3/17/2021 5:45:00 PM 6.91 44.438 0.028 6.85 3.29 12
3/17/2021 6:00:00 PM 6.92 44.456 0.028 6.87 3.33 11.99
3/17/2021 6:15:00 PM 6.91 44.438 0.028 6.85 3.33 11.99
3/17/2021 6:30:00 PM 6.89 44.402 0.028 6.85 3.29 11.98
3/17/2021 6:45:00 PM 6.86 44.348 0.028 6.83 3.32 11.98
3/17/2021 7:00:00 PM 6.81 44.258 0.028 6.85 3.24 11.97
3/17/2021 7:15:00 PM 6.76 44.168 0.028 6.83 3.3 11.96
3/17/2021 7:30:00 PM 6.69 44.042 0.028 6.8 3.43 11.97
3/17/2021 7:45:00 PM 6.62 43.916 0.028 6.84 3.48 11.98
3/17/2021 8:00:00 PM 6.54 43.772 0.028 6.82 3.37 11.99
3/17/2021 8:15:00 PM 6.45 43.61 0.029 6.82 3.27 12.01
3/17/2021 8:30:00 PM 6.37 43.466 0.029 6.81 3.25 12.03
3/17/2021 8:45:00 PM 6.29 43.322 0.029 6.81 3.31 12.06
3/17/2021 9:00:00 PM 6.21 43.178 0.029 6.81 3.44 12.09
3/17/2021 9:15:00 PM 6.12 43.016 0.029 6.83 3.35 12.12
3/17/2021 9:30:00 PM 6.03 42.854 0.029 6.84 3.33 12.15
3/17/2021 9:45:00 PM 5.94 42.692 0.029 6.8 3.33 12.17
3/17/2021 10:00:00 PM 5.86 42.548 0.029 6.82 3.34 12.2
3/17/2021 10:15:00 PM 5.78 42.404 0.029 6.85 3.28 12.23
3/17/2021 10:30:00 PM 5.7 42.26 0.029 6.8 3.48 12.25
3/17/2021 10:45:00 PM 5.62 42.116 0.029 6.79 3.37 12.29
3/17/2021 11:00:00 PM 5.54 41.972 0.029 6.79 3.29 12.32
3/17/2021 11:15:00 PM 5.46 41.828 0.029 6.82 3.4 12.34
3/17/2021 11:30:00 PM 5.38 41.684 0.029 6.82 3.27 12.36
3/17/2021 11:45:00 PM 5.31 41.558 0.029 6.85 3.31 12.38
3/18/2021 12:00:00 AM 5.24 41.432 0.029 6.82 3.29 12.41
3/18/2021 12:15:00 AM 5.17 41.306 0.029 6.83 3.51 12.42
3/18/2021 12:30:00 AM 5.11 41.198 0.029 6.82 3.2 12.44
3/18/2021 12:45:00 AM 5.06 41.108 0.029 6.85 3.31 12.46
3/18/2021 1:00:00 AM 5.02 41.036 0.029 6.84 3.47 12.48
3/18/2021 1:15:00 AM 4.98 40.964 0.029 6.81 3.38 12.5
3/18/2021 1:30:00 AM 4.94 40.892 0.029 6.84 3.39 12.51
3/18/2021 1:45:00 AM 4.91 40.838 0.029 6.86 3.41 12.52
3/18/2021 2:00:00 AM 4.88 40.784 0.029 6.85 3.33 12.53
3/18/2021 2:15:00 AM 4.86 40.748 0.029 6.82 3.37 12.53
3/18/2021 2:30:00 AM 4.84 40.712 0.029 6.82 3.33 12.54
3/18/2021 2:45:00 AM 4.82 40.676 0.029 6.86 3.38 12.54
3/18/2021 3:00:00 AM 4.81 40.658 0.029 6.83 3.48 12.55
3/18/2021 3:15:00 AM 4.8 40.64 0.029 6.85 3.41 12.55
3/18/2021 3:30:00 AM 4.79 40.622 0.029 6.84 3.27 12.54
3/18/2021 3:45:00 AM 4.79 40.622 0.029 6.87 3.21 12.55
3/18/2021 4:00:00 AM 4.78 40.604 0.029 6.82 3.34 12.55
3/18/2021 4:15:00 AM 4.78 40.604 0.029 6.86 3.33 12.55
3/18/2021 4:30:00 AM 4.78 40.604 0.029 6.84 3.36 12.55
3/18/2021 4:45:00 AM 4.77 40.586 0.029 6.82 3.28 12.54
3/18/2021 5:00:00 AM 4.77 40.586 0.029 6.83 3.29 12.54
3/18/2021 5:15:00 AM 4.77 40.586 0.029 6.84 3.39 12.53
3/18/2021 5:30:00 AM 4.77 40.586 0.029 6.83 3.41 12.54
3/18/2021 5:45:00 AM 4.78 40.604 0.029 6.86 3.19 12.54
3/18/2021 6:00:00 AM 4.78 40.604 0.029 6.85 3.43 12.53
3/18/2021 6:15:00 AM 4.78 40.604 0.029 6.83 3.43 12.54
3/18/2021 6:30:00 AM 4.78 40.604 0.029 6.81 3.25 12.53
3/18/2021 6:45:00 AM 4.78 40.604 0.029 6.82 3.22 12.53
3/18/2021 7:00:00 AM 4.78 40.604 0.029 6.85 3.58 12.52
3/18/2021 7:15:00 AM 4.78 40.604 0.029 6.83 3.34 12.52
3/18/2021 7:30:00 AM 4.79 40.622 0.029 6.82 3.52 12.52
3/18/2021 7:45:00 AM 4.79 40.622 0.029 6.83 3.51 12.52
3/18/2021 8:00:00 AM 4.8 40.64 0.029 6.84 3.41 12.52
3/18/2021 8:15:00 AM 4.8 40.64 0.029 6.81 3.41 12.52
3/18/2021 8:30:00 AM 4.81 40.658 0.029 6.82 3.47 12.52
3/18/2021 8:45:00 AM 4.82 40.676 0.029 6.83 3.35 12.52
3/18/2021 9:00:00 AM 4.83 40.694 0.029 6.8 3.33 12.52
3/18/2021 9:15:00 AM 4.84 40.712 0.029 6.84 3.47 12.53
3/18/2021 9:30:00 AM 4.86 40.748 0.029 6.82 3.38 12.53
3/18/2021 9:45:00 AM 4.88 40.784 0.029 6.83 3.41 12.54
3/18/2021 10:00:00 AM 4.89 40.802 0.029 6.82 3.37 12.54
3/18/2021 10:15:00 AM 4.91 40.838 0.029 6.84 3.4 12.55
3/18/2021 10:30:00 AM 4.93 40.874 0.029 6.84 3.46 12.55
3/18/2021 10:45:00 AM 4.96 40.928 0.029 6.84 3.64 12.55
3/18/2021 11:00:00 AM 4.99 40.982 0.029 6.83 3.59 12.55
3/18/2021 11:15:00 AM 5.02 41.036 0.029 6.85 3.32 12.55
3/18/2021 11:30:00 AM 5.05 41.09 0.029 6.87 3.51 12.55
3/18/2021 11:45:00 AM 5.08 41.144 0.029 6.83 3.5 12.53
3/18/2021 12:00:00 PM 5.12 41.216 0.029 6.86 3.6 12.53
3/18/2021 12:15:00 PM 5.16 41.288 0.029 6.86 3.84 12.52
3/18/2021 12:30:00 PM 5.2 41.36 0.029 6.87 3.71 12.52
3/18/2021 12:45:00 PM 5.26 41.468 0.029 6.86 3.64 12.52
3/18/2021 1:00:00 PM 5.31 41.558 0.029 6.87 3.72 12.51
3/18/2021 1:15:00 PM 5.36 41.648 0.029 6.88 3.88 12.49
3/18/2021 1:30:00 PM 5.4 41.72 0.028 6.86 3.86 12.48
3/18/2021 1:45:00 PM 5.43 41.774 0.029 6.86 3.84 12.46
3/18/2021 2:00:00 PM 5.45 41.81 0.028 6.86 3.97 12.45
3/18/2021 2:15:00 PM 5.48 41.864 0.028 6.88 4.15 12.44
3/18/2021 2:30:00 PM 5.51 41.918 0.028 6.87 3.95 12.42
3/18/2021 2:45:00 PM 5.55 41.99 0.028 6.84 4.12 12.41
3/18/2021 3:00:00 PM 5.57 42.026 0.028 6.9 3.98 12.38
3/18/2021 3:15:00 PM 5.59 42.062 0.028 6.88 4.25 12.37
3/18/2021 3:30:00 PM 5.61 42.098 0.028 6.85 4.28 12.37
3/18/2021 3:45:00 PM 5.62 42.116 0.028 6.88 4.29 12.35
3/18/2021 4:00:00 PM 5.63 42.134 0.028 6.84 4.24 12.32
3/18/2021 4:15:00 PM 5.64 42.152 0.028 6.83 4.34 12.33
3/18/2021 4:30:00 PM 5.66 42.188 0.028 6.86 4.59 12.33
3/18/2021 4:45:00 PM 5.66 42.188 0.028 6.86 4.14 12.32
3/18/2021 5:00:00 PM 5.66 42.188 0.028 6.84 4.68 12.32
3/18/2021 5:15:00 PM 5.66 42.188 0.029 6.86 4.48 12.32
3/18/2021 5:30:00 PM 5.65 42.17 0.029 6.85 4.29 12.31
3/18/2021 5:45:00 PM 5.63 42.134 0.029 6.85 4.43 12.3
3/18/2021 6:00:00 PM 5.62 42.116 0.029 6.86 4.46 12.29
3/18/2021 6:15:00 PM 5.6 42.08 0.029 6.84 4.68 12.29
3/18/2021 6:30:00 PM 5.58 42.044 0.029 6.81 4.65 12.3
3/18/2021 6:45:00 PM 5.56 42.008 0.029 6.81 4.81 12.29
3/18/2021 7:00:00 PM 5.54 41.972 0.029 6.78 4.81 12.29
3/18/2021 7:15:00 PM 5.51 41.918 0.029 6.78 4.98 12.3
3/18/2021 7:30:00 PM 5.48 41.864 0.029 6.77 4.94 12.31
3/18/2021 7:45:00 PM 5.45 41.81 0.029 6.77 5.26 12.31
3/18/2021 8:00:00 PM 5.42 41.756 0.029 6.78 5.04 12.32
3/18/2021 8:15:00 PM 5.38 41.684 0.029 6.81 5.14 12.33
3/18/2021 8:30:00 PM 5.35 41.63 0.029 6.74 5.02 12.33
3/18/2021 8:45:00 PM 5.32 41.576 0.029 6.77 5.28 12.34
3/18/2021 9:00:00 PM 5.29 41.522 0.029 6.76 5 12.35
3/18/2021 9:15:00 PM 5.26 41.468 0.029 6.76 4.76 12.36
3/18/2021 9:30:00 PM 5.22 41.396 0.029 6.75 4.84 12.37
3/18/2021 9:45:00 PM 5.19 41.342 0.029 6.8 4.8 12.39
3/18/2021 10:00:00 PM 5.16 41.288 0.029 6.76 4.64 12.4
3/18/2021 10:15:00 PM 5.13 41.234 0.029 6.77 4.62 12.41
3/18/2021 10:30:00 PM 5.09 41.162 0.029 6.79 4.72 12.43
3/18/2021 10:45:00 PM 5.05 41.09 0.029 6.8 4.42 12.45
3/18/2021 11:00:00 PM 5.01 41.018 0.029 6.81 4.55 12.46
3/18/2021 11:15:00 PM 4.97 40.946 0.029 6.78 4.48 12.48
3/18/2021 11:30:00 PM 4.93 40.874 0.029 6.79 4.3 12.5
3/18/2021 11:45:00 PM 4.89 40.802 0.029 6.75 4.43 12.51
3/19/2021 12:00:00 AM 4.86 40.748 0.029 6.77 4.43 12.53
3/19/2021 12:15:00 AM 4.82 40.676 0.029 6.77 4.25 12.54
3/19/2021 12:30:00 AM 4.78 40.604 0.029 6.75 4.23 12.55
3/19/2021 12:45:00 AM 4.74 40.532 0.029 6.79 4.18 12.57
3/19/2021 1:00:00 AM 4.69 40.442 0.029 6.79 4.59 12.58
3/19/2021 1:15:00 AM 4.65 40.37 0.029 6.77 4.32 12.59
3/19/2021 1:30:00 AM 4.61 40.298 0.029 6.8 4.22 12.61
3/19/2021 1:45:00 AM 4.56 40.208 0.029 6.8 4.17 12.63
3/19/2021 2:00:00 AM 4.51 40.118 0.029 6.8 4.17 12.65
3/19/2021 2:15:00 AM 4.47 40.046 0.029 6.77 4.24 12.67
3/19/2021 2:30:00 AM 4.43 39.974 0.029 6.76 4.08 12.69
3/19/2021 2:45:00 AM 4.37 39.866 0.029 6.8 3.9 12.71
3/19/2021 3:00:00 AM 4.32 39.776 0.029 6.78 4.03 12.72
3/19/2021 3:15:00 AM 4.27 39.686 0.029 6.78 4.06 12.75
3/19/2021 3:30:00 AM 4.22 39.596 0.029 6.82 3.91 12.77
3/19/2021 3:45:00 AM 4.17 39.506 0.029 6.78 3.97 12.79
3/19/2021 4:00:00 AM 4.11 39.398 0.029 6.81 4.07 12.81
3/19/2021 4:15:00 AM 4.06 39.308 0.029 6.81 3.83 12.83
3/19/2021 4:30:00 AM 4.01 39.218 0.029 6.8 4.04 12.84
3/19/2021 4:45:00 AM 3.96 39.128 0.029 6.82 4.02 12.86
3/19/2021 5:00:00 AM 3.9 39.02 0.029 6.77 4.15 12.88
3/19/2021 5:15:00 AM 3.85 38.93 0.029 6.81 3.92 12.91
3/19/2021 5:30:00 AM 3.8 38.84 0.029 6.81 3.97 12.93
3/19/2021 5:45:00 AM 3.75 38.75 0.029 6.79 3.96 12.96
3/19/2021 6:00:00 AM 3.7 38.66 0.029 6.8 3.82 12.98
3/19/2021 6:15:00 AM 3.65 38.57 0.029 6.79 3.7 13
3/19/2021 6:30:00 AM 3.6 38.48 0.029 6.79 3.91 13.02
3/19/2021 6:45:00 AM 3.56 38.408 0.029 6.79 3.9 13.04
3/19/2021 7:00:00 AM 3.51 38.318 0.029 6.81 3.85 13.06
3/19/2021 7:15:00 AM 3.47 38.246 0.029 6.84 3.69 13.09
3/19/2021 7:30:00 AM 3.43 38.174 0.029 6.81 3.77 13.1
3/19/2021 7:45:00 AM 3.39 38.102 0.029 6.78 3.83 13.13
3/19/2021 8:00:00 AM 3.36 38.048 0.029 6.81 3.84 13.15
3/19/2021 8:15:00 AM 3.32 37.976 0.029 6.83 3.75 13.18
3/19/2021 8:30:00 AM 3.28 37.904 0.029 6.82 3.82 13.2
3/19/2021 8:45:00 AM 3.24 37.832 0.029 6.79 3.66 13.23
3/19/2021 9:00:00 AM 3.2 37.76 0.029 6.78 3.83 13.26
3/19/2021 9:15:00 AM 3.17 37.706 0.029 6.81 3.73 13.28
3/19/2021 9:30:00 AM 3.14 37.652 0.029 6.83 3.67 13.3
3/19/2021 9:45:00 AM 3.12 37.616 0.029 6.81 3.78 13.33
3/19/2021 10:00:00 AM 3.12 37.616 0.029 6.87 3.73 13.34
3/19/2021 10:15:00 AM 3.14 37.652 0.029 6.83 3.6 13.36
3/19/2021 10:30:00 AM 3.18 37.724 0.028 6.83 3.66 13.36
3/19/2021 10:45:00 AM 3.24 37.832 0.028 6.84 3.64 13.35
3/19/2021 11:00:00 AM 3.31 37.958 0.028 6.83 3.53 13.34
3/19/2021 11:15:00 AM 3.39 38.102 0.028 6.82 3.56 13.35
3/19/2021 11:30:00 AM 3.48 38.264 0.028 6.81 3.59 13.33
3/19/2021 11:45:00 AM 3.59 38.462 0.028 6.84 3.59 13.3
3/19/2021 12:00:00 PM 3.72 38.696 0.028 6.83 3.63 13.27
3/19/2021 12:15:00 PM 3.86 38.948 0.028 6.83 3.64 13.22
3/19/2021 12:30:00 PM 4.01 39.218 0.028 6.85 3.52 13.19
3/19/2021 12:45:00 PM 4.17 39.506 0.028 6.84 3.76 13.14
3/19/2021 1:00:00 PM 4.33 39.794 0.028 6.81 3.7 13.09
3/19/2021 1:15:00 PM 4.5 40.1 0.028 6.86 3.49 13.04
3/19/2021 1:30:00 PM 4.66 40.388 0.028 6.86 3.73 12.99
3/19/2021 1:45:00 PM 4.83 40.694 0.028 6.83 3.74 12.94
3/19/2021 2:00:00 PM 5 41 0.028 6.84 3.65 12.88
3/19/2021 2:15:00 PM 5.16 41.288 0.028 6.82 3.55 12.81
3/19/2021 2:30:00 PM 5.29 41.522 0.028 6.8 3.57 12.77
3/19/2021 2:45:00 PM 5.42 41.756 0.028 6.84 3.47 12.72
3/19/2021 3:00:00 PM 5.54 41.972 0.028 6.82 3.66 12.67
3/19/2021 3:15:00 PM 5.64 42.152 0.028 6.85 3.48 12.63
3/19/2021 3:30:00 PM 5.75 42.35 0.028 6.84 3.61 12.58
3/19/2021 3:45:00 PM 5.83 42.494 0.028 6.82 3.62 12.55
3/19/2021 4:00:00 PM 5.9 42.62 0.028 6.8 3.58 12.52
3/19/2021 4:15:00 PM 5.95 42.71 0.028 6.84 3.65 12.49
3/19/2021 4:30:00 PM 6 42.8 0.028 6.85 3.71 12.46
3/19/2021 4:45:00 PM 6.01 42.818 0.028 6.84 3.57 12.45
3/19/2021 5:00:00 PM 6.01 42.818 0.028 6.86 3.77 12.43
3/19/2021 5:15:00 PM 5.99 42.782 0.028 6.87 3.83 12.43
3/19/2021 5:30:00 PM 5.96 42.728 0.028 6.85 3.74 12.41
3/19/2021 5:45:00 PM 5.92 42.656 0.028 6.84 3.65 12.41
3/19/2021 6:00:00 PM 5.87 42.566 0.028 6.8 3.69 12.42
3/19/2021 6:15:00 PM 5.81 42.458 0.028 6.83 3.71 12.42
3/19/2021 6:30:00 PM 5.73 42.314 0.028 6.83 3.82 12.44
3/19/2021 6:45:00 PM 5.66 42.188 0.028 6.82 3.74 12.47
3/19/2021 7:00:00 PM 5.58 42.044 0.028 6.79 3.59 12.49
3/19/2021 7:15:00 PM 5.49 41.882 0.028 6.82 3.69 12.52
3/19/2021 7:30:00 PM 5.39 41.702 0.028 6.8 3.7 12.53
3/19/2021 7:45:00 PM 5.3 41.54 0.028 6.78 3.87 12.56
3/19/2021 8:00:00 PM 5.2 41.36 0.028 6.77 3.86 12.58
3/19/2021 8:15:00 PM 5.1 41.18 0.028 6.8 3.95 12.61
3/19/2021 8:30:00 PM 5.01 41.018 0.028 6.79 4.04 12.64
3/19/2021 8:45:00 PM 4.92 40.856 0.028 6.8 3.84 12.67
3/19/2021 9:00:00 PM 4.83 40.694 0.028 6.76 3.78 12.71
3/19/2021 9:15:00 PM 4.75 40.55 0.028 6.75 3.71 12.74
3/19/2021 9:30:00 PM 4.67 40.406 0.028 6.77 3.59 12.76
3/19/2021 9:45:00 PM 4.6 40.28 0.028 6.76 3.71 12.78
3/19/2021 10:00:00 PM 4.53 40.154 0.028 6.79 3.8 12.81
3/19/2021 10:15:00 PM 4.47 40.046 0.028 6.8 3.82 12.84
3/19/2021 10:30:00 PM 4.41 39.938 0.028 6.78 3.71 12.86
3/19/2021 10:45:00 PM 4.36 39.848 0.028 6.8 3.58 12.88
3/19/2021 11:00:00 PM 4.31 39.758 0.028 6.8 3.69 12.91
3/19/2021 11:15:00 PM 4.25 39.65 0.028 6.77 3.67 12.92
3/19/2021 11:30:00 PM 4.21 39.578 0.029 6.78 3.7 12.95
3/19/2021 11:45:00 PM 4.16 39.488 0.028 6.81 3.73 12.96
3/20/2021 12:00:00 AM 4.12 39.416 0.028 6.8 3.68 12.97
3/20/2021 12:15:00 AM 4.08 39.344 0.028 6.77 3.65 12.99
3/20/2021 12:30:00 AM 4.03 39.254 0.028 6.8 3.55 13
3/20/2021 12:45:00 AM 3.99 39.182 0.028 6.76 3.53 13.02
3/20/2021 1:00:00 AM 3.95 39.11 0.028 6.79 3.55 13.04
3/20/2021 1:15:00 AM 3.91 39.038 0.028 6.77 3.66 13.05
3/20/2021 1:30:00 AM 3.88 38.984 0.028 6.79 3.68 13.06
3/20/2021 1:45:00 AM 3.84 38.912 0.028 6.79 3.66 13.08
3/20/2021 2:00:00 AM 3.81 38.858 0.028 6.82 3.58 13.09
3/20/2021 2:15:00 AM 3.77 38.786 0.029 6.76 3.58 13.11
3/20/2021 2:30:00 AM 3.74 38.732 0.028 6.75 3.62 13.13
3/20/2021 2:45:00 AM 3.7 38.66 0.028 6.77 3.53 13.14
3/20/2021 3:00:00 AM 3.67 38.606 0.028 6.73 3.59 13.15
3/20/2021 3:15:00 AM 3.64 38.552 0.028 6.74 3.66 13.17
3/20/2021 3:30:00 AM 3.6 38.48 0.028 6.78 3.76 13.18
3/20/2021 3:45:00 AM 3.57 38.426 0.028 6.76 3.6 13.2
3/20/2021 4:00:00 AM 3.54 38.372 0.028 6.82 3.68 13.2
3/20/2021 4:15:00 AM 3.51 38.318 0.029 6.8 3.39 13.22
3/20/2021 4:30:00 AM 3.48 38.264 0.028 6.79 3.51 13.23
3/20/2021 4:45:00 AM 3.45 38.21 0.028 6.8 3.57 13.24
3/20/2021 5:00:00 AM 3.42 38.156 0.028 6.8 3.58 13.25
3/20/2021 5:15:00 AM 3.39 38.102 0.029 6.78 3.5 13.26
3/20/2021 5:30:00 AM 3.36 38.048 0.028 6.79 3.72 13.27
3/20/2021 5:45:00 AM 3.33 37.994 0.028 6.79 3.67 13.28
3/20/2021 6:00:00 AM 3.3 37.94 0.028 6.77 3.46 13.29
3/20/2021 6:15:00 AM 3.27 37.886 0.028 6.77 3.53 13.31
3/20/2021 6:30:00 AM 3.24 37.832 0.028 6.8 3.44 13.32
3/20/2021 6:45:00 AM 3.21 37.778 0.028 6.75 3.4 13.32
3/20/2021 7:00:00 AM 3.18 37.724 0.028 6.77 3.46 13.34
3/20/2021 7:15:00 AM 3.16 37.688 0.028 6.79 3.62 13.35
3/20/2021 7:30:00 AM 3.13 37.634 0.028 6.79 3.62 13.37
3/20/2021 7:45:00 AM 3.11 37.598 0.028 6.8 3.59 13.4
3/20/2021 8:00:00 AM 3.08 37.544 0.028 6.79 3.62 13.41
3/20/2021 8:15:00 AM 3.06 37.508 0.028 6.78 3.46 13.44
3/20/2021 8:30:00 AM 3.05 37.49 0.028 6.8 3.48 13.45
3/20/2021 8:45:00 AM 3.03 37.454 0.028 6.79 3.32 13.47
3/20/2021 9:00:00 AM 3.02 37.436 0.028 6.79 3.53 13.49
3/20/2021 9:15:00 AM 3.01 37.418 0.028 6.8 3.36 13.5
3/20/2021 9:30:00 AM 3.01 37.418 0.028 6.78 3.48 13.51
3/20/2021 9:45:00 AM 3.01 37.418 0.028 6.81 3.56 13.51
3/20/2021 10:00:00 AM 3.04 37.472 0.028 6.8 3.46 13.52
3/20/2021 10:15:00 AM 3.1 37.58 0.028 6.81 3.43 13.51
3/20/2021 10:30:00 AM 3.17 37.706 0.028 6.82 3.74 13.5
3/20/2021 10:45:00 AM 3.26 37.868 0.028 6.83 3.38 13.48
3/20/2021 11:00:00 AM 3.37 38.066 0.028 6.82 3.45 13.46
3/20/2021 11:15:00 AM 3.5 38.3 0.028 6.83 3.33 13.44
3/20/2021 11:30:00 AM 3.65 38.57 0.028 6.85 3.49 13.4
3/20/2021 11:45:00 AM 3.82 38.876 0.028 6.79 3.39 13.34
3/20/2021 12:00:00 PM 4 39.2 0.028 6.82 3.44 13.29
3/20/2021 12:15:00 PM 4.2 39.56 0.028 6.83 3.03 13.24
3/20/2021 12:30:00 PM 4.41 39.938 0.028 6.82 3.23 13.16
3/20/2021 12:45:00 PM 4.63 40.334 0.028 6.83 3.24 13.09
3/20/2021 1:00:00 PM 4.85 40.73 0.028 6.84 3.14 13.03
3/20/2021 1:15:00 PM 5.08 41.144 0.028 6.85 3.21 12.95
3/20/2021 1:30:00 PM 5.31 41.558 0.028 6.85 3.29 12.87
3/20/2021 1:45:00 PM 5.53 41.954 0.028 6.86 3.15 12.8
3/20/2021 2:00:00 PM 5.74 42.332 0.028 6.85 3.36 12.72
3/20/2021 2:15:00 PM 5.95 42.71 0.028 6.82 3.26 12.64
3/20/2021 2:30:00 PM 6.15 43.07 0.028 6.85 3.18 12.57
3/20/2021 2:45:00 PM 6.33 43.394 0.028 6.85 3.37 12.5
3/20/2021 3:00:00 PM 6.5 43.7 0.027 6.86 3.42 12.44
3/20/2021 3:15:00 PM 6.66 43.988 0.028 6.88 3.32 12.38
3/20/2021 3:30:00 PM 6.81 44.258 0.027 6.88 3.43 12.33
3/20/2021 3:45:00 PM 6.95 44.51 0.027 6.83 3.33 12.26
3/20/2021 4:00:00 PM 7.07 44.726 0.027 6.86 3.26 12.21
3/20/2021 4:15:00 PM 7.16 44.888 0.028 6.86 3.35 12.17
3/20/2021 4:30:00 PM 7.24 45.032 0.028 6.87 3.39 12.14
3/20/2021 4:45:00 PM 7.3 45.14 0.028 6.9 3.63 12.11
3/20/2021 5:00:00 PM 7.33 45.194 0.028 6.83 3.55 12.08
3/20/2021 5:15:00 PM 7.33 45.194 0.028 6.87 3.36 12.06
3/20/2021 5:30:00 PM 7.31 45.158 0.028 6.81 3.57 12.04
3/20/2021 5:45:00 PM 7.29 45.122 0.028 6.78 3.54 12.04
3/20/2021 6:00:00 PM 7.25 45.05 0.028 6.83 3.4 12.03
3/20/2021 6:15:00 PM 7.19 44.942 0.028 6.8 3.51 12.04
3/20/2021 6:30:00 PM 7.12 44.816 0.028 6.75 3.52 12.04
3/20/2021 6:45:00 PM 7.05 44.69 0.028 6.8 3.51 12.06
3/20/2021 7:00:00 PM 6.97 44.546 0.028 6.76 3.44 12.09
3/20/2021 7:15:00 PM 6.87 44.366 0.028 6.81 3.41 12.1
3/20/2021 7:30:00 PM 6.77 44.186 0.028 6.77 3.44 12.13
3/20/2021 7:45:00 PM 6.66 43.988 0.028 6.76 3.63 12.15
3/20/2021 8:00:00 PM 6.55 43.79 0.028 6.79 3.46 12.17
3/20/2021 8:15:00 PM 6.44 43.592 0.028 6.78 3.54 12.2
3/20/2021 8:30:00 PM 6.34 43.412 0.028 6.81 3.6 12.24
3/20/2021 8:45:00 PM 6.23 43.214 0.028 6.82 3.68 12.27
3/20/2021 9:00:00 PM 6.13 43.034 0.028 6.8 3.56 12.31
3/20/2021 9:15:00 PM 6.02 42.836 0.028 6.82 3.56 12.34
3/20/2021 9:30:00 PM 5.92 42.656 0.028 6.81 3.51 12.37
3/20/2021 9:45:00 PM 5.82 42.476 0.028 6.79 3.45 12.4
3/20/2021 10:00:00 PM 5.72 42.296 0.028 6.79 3.51 12.44
3/20/2021 10:15:00 PM 5.62 42.116 0.028 6.8 3.44 12.47
3/20/2021 10:30:00 PM 5.54 41.972 0.028 6.82 3.51 12.51
3/20/2021 10:45:00 PM 5.45 41.81 0.028 6.79 3.53 12.53
3/20/2021 11:00:00 PM 5.37 41.666 0.028 6.81 3.63 12.56
3/20/2021 11:15:00 PM 5.29 41.522 0.028 6.81 3.57 12.58
3/20/2021 11:30:00 PM 5.21 41.378 0.028 6.79 3.48 12.61
3/20/2021 11:45:00 PM 5.14 41.252 0.028 6.74 3.49 12.63
3/21/2021 12:00:00 AM 5.07 41.126 0.028 6.79 3.56 12.66
3/21/2021 12:15:00 AM 5 41 0.028 6.8 3.48 12.68
3/21/2021 12:30:00 AM 4.94 40.892 0.028 6.81 3.62 12.71
3/21/2021 12:45:00 AM 4.88 40.784 0.028 6.79 3.42 12.73
3/21/2021 1:00:00 AM 4.82 40.676 0.028 6.81 3.46 12.75
3/21/2021 1:15:00 AM 4.76 40.568 0.028 6.81 3.3 12.77
3/21/2021 1:30:00 AM 4.71 40.478 0.028 6.82 3.41 12.79
3/21/2021 1:45:00 AM 4.65 40.37 0.028 6.79 3.36 12.8
3/21/2021 2:00:00 AM 4.6 40.28 0.028 6.81 3.44 12.82
3/21/2021 2:15:00 AM 4.55 40.19 0.028 6.78 3.41 12.83
3/21/2021 2:30:00 AM 4.5 40.1 0.028 6.8 3.49 12.85
3/21/2021 2:45:00 AM 4.45 40.01 0.028 6.79 3.45 12.88
3/21/2021 3:00:00 AM 4.4 39.92 0.028 6.77 3.3 12.88
3/21/2021 3:15:00 AM 4.36 39.848 0.028 6.8 3.46 12.9
3/21/2021 3:30:00 AM 4.31 39.758 0.028 6.77 3.36 12.93
3/21/2021 3:45:00 AM 4.27 39.686 0.028 6.81 3.56 12.95
3/21/2021 4:00:00 AM 4.23 39.614 0.028 6.79 3.38 12.95
3/21/2021 4:15:00 AM 4.19 39.542 0.028 6.77 3.43 12.97
3/21/2021 4:30:00 AM 4.15 39.47 0.028 6.78 3.45 12.98
3/21/2021 4:45:00 AM 4.11 39.398 0.028 6.79 3.46 12.99
3/21/2021 5:00:00 AM 4.07 39.326 0.028 6.8 3.36 13.01
3/21/2021 5:15:00 AM 4.03 39.254 0.028 6.76 3.51 13.02
3/21/2021 5:30:00 AM 4 39.2 0.028 6.79 3.36 13.03
3/21/2021 5:45:00 AM 3.96 39.128 0.028 6.79 3.29 13.05
3/21/2021 6:00:00 AM 3.92 39.056 0.028 6.81 3.42 13.06
3/21/2021 6:15:00 AM 3.89 39.002 0.028 6.8 3.38 13.07
3/21/2021 6:30:00 AM 3.85 38.93 0.028 6.76 3.38 13.08
3/21/2021 6:45:00 AM 3.82 38.876 0.028 6.81 3.41 13.1
3/21/2021 7:00:00 AM 3.78 38.804 0.028 6.78 3.52 13.11
3/21/2021 7:15:00 AM 3.75 38.75 0.028 6.8 3.44 13.13
3/21/2021 7:30:00 AM 3.72 38.696 0.028 6.81 3.36 13.15
3/21/2021 7:45:00 AM 3.69 38.642 0.028 6.82 3.45 13.17
3/21/2021 8:00:00 AM 3.66 38.588 0.028 6.8 3.56 13.2
3/21/2021 8:15:00 AM 3.64 38.552 0.028 6.84 3.38 13.22
3/21/2021 8:30:00 AM 3.61 38.498 0.028 6.79 3.22 13.24
3/21/2021 8:45:00 AM 3.6 38.48 0.028 6.83 3.35 13.26
3/21/2021 9:00:00 AM 3.58 38.444 0.028 6.79 3.25 13.27
3/21/2021 9:15:00 AM 3.57 38.426 0.028 6.78 3.51 13.28
3/21/2021 9:30:00 AM 3.56 38.408 0.028 6.81 3.27 13.29
3/21/2021 9:45:00 AM 3.56 38.408 0.028 6.8 3.36 13.3
3/21/2021 10:00:00 AM 3.59 38.462 0.028 6.84 3.55 13.31
3/21/2021 10:15:00 AM 3.65 38.57 0.028 6.87 3.14 13.3
3/21/2021 10:30:00 AM 3.72 38.696 0.028 6.85 3.37 13.29
3/21/2021 10:45:00 AM 3.82 38.876 0.028 6.84 3.24 13.27
3/21/2021 11:00:00 AM 3.94 39.092 0.028 6.86 3.28 13.25
3/21/2021 11:15:00 AM 4.08 39.344 0.028 6.88 3.36 13.22
3/21/2021 11:30:00 AM 4.24 39.632 0.028 6.86 3.31 13.18
3/21/2021 11:45:00 AM 4.43 39.974 0.028 6.89 3.34 13.13
3/21/2021 12:00:00 PM 4.63 40.334 0.028 6.89 3.22 13.07
3/21/2021 12:15:00 PM 4.84 40.712 0.028 6.84 3.24 13.01
3/21/2021 12:30:00 PM 5.07 41.126 0.028 6.83 3.19 12.94
3/21/2021 12:45:00 PM 5.3 41.54 0.028 6.83 3.32 12.87
3/21/2021 1:00:00 PM 5.53 41.954 0.028 6.87 3.2 12.8
3/21/2021 1:15:00 PM 5.77 42.386 0.028 6.87 3.19 12.71
3/21/2021 1:30:00 PM 6.01 42.818 0.028 6.87 3.24 12.64
3/21/2021 1:45:00 PM 6.24 43.232 0.028 6.88 3.42 12.56
3/21/2021 2:00:00 PM 6.47 43.646 0.028 6.88 3.11 12.47
3/21/2021 2:15:00 PM 6.68 44.024 0.028 6.91 3.18 12.41
3/21/2021 2:30:00 PM 6.88 44.384 0.028 6.87 3.4 12.33
3/21/2021 2:45:00 PM 7.06 44.708 0.028 6.89 3.24 12.26
3/21/2021 3:00:00 PM 7.23 45.014 0.028 6.9 3.22 12.2
3/21/2021 3:15:00 PM 7.4 45.32 0.028 6.89 3.42 12.15
3/21/2021 3:30:00 PM 7.55 45.59 0.028 6.92 3.33 12.09
3/21/2021 3:45:00 PM 7.68 45.824 0.027 6.91 3.4 12.03
3/21/2021 4:00:00 PM 7.8 46.04 0.028 6.9 3.39 11.98
3/21/2021 4:15:00 PM 7.89 46.202 0.028 6.91 3.23 11.95
3/21/2021 4:30:00 PM 7.96 46.328 0.028 6.89 3.27 11.91
3/21/2021 4:45:00 PM 8.01 46.418 0.028 6.93 3.31 11.88
3/21/2021 5:00:00 PM 8.05 46.49 0.028 6.88 3.35 11.85
3/21/2021 5:15:00 PM 8.05 46.49 0.028 6.9 3.43 11.83
3/21/2021 5:30:00 PM 8.02 46.436 0.028 6.89 3.34 11.81
3/21/2021 5:45:00 PM 8 46.4 0.028 6.85 3.39 11.81
3/21/2021 6:00:00 PM 7.96 46.328 0.028 6.84 3.29 11.8
3/21/2021 6:15:00 PM 7.91 46.238 0.028 6.83 3.6 11.8
3/21/2021 6:30:00 PM 7.84 46.112 0.028 6.86 3.56 11.81
3/21/2021 6:45:00 PM 7.78 46.004 0.028 6.86 3.49 11.81
3/21/2021 7:00:00 PM 7.7 45.86 0.028 6.84 3.41 11.82
3/21/2021 7:15:00 PM 7.61 45.698 0.028 6.79 3.42 11.85
3/21/2021 7:30:00 PM 7.51 45.518 0.028 6.82 3.36 11.86
3/21/2021 7:45:00 PM 7.4 45.32 0.028 6.84 3.61 11.9
3/21/2021 8:00:00 PM 7.29 45.122 0.028 6.81 3.8 11.92
3/21/2021 8:15:00 PM 7.17 44.906 0.028 6.82 3.53 11.95
3/21/2021 8:30:00 PM 7.05 44.69 0.028 6.85 3.59 11.98
3/21/2021 8:45:00 PM 6.94 44.492 0.028 6.8 3.5 12.01
3/21/2021 9:00:00 PM 6.82 44.276 0.028 6.82 3.58 12.05
3/21/2021 9:15:00 PM 6.71 44.078 0.028 6.82 3.52 12.09
3/21/2021 9:30:00 PM 6.6 43.88 0.028 6.83 3.36 12.12
3/21/2021 9:45:00 PM 6.5 43.7 0.028 6.81 3.59 12.15
3/21/2021 10:00:00 PM 6.39 43.502 0.028 6.79 3.31 12.18
3/21/2021 10:15:00 PM 6.28 43.304 0.028 6.81 3.53 12.22
3/21/2021 10:30:00 PM 6.18 43.124 0.028 6.81 3.63 12.26
3/21/2021 10:45:00 PM 6.08 42.944 0.028 6.85 3.36 12.29
3/21/2021 11:00:00 PM 5.98 42.764 0.028 6.83 3.35 12.32
3/21/2021 11:15:00 PM 5.89 42.602 0.028 6.86 3.61 12.34
3/21/2021 11:30:00 PM 5.8 42.44 0.028 6.8 3.28 12.37
3/21/2021 11:45:00 PM 5.71 42.278 0.028 6.8 3.46 12.4
3/22/2021 12:00:00 AM 5.62 42.116 0.028 6.81 3.45 12.43
3/22/2021 12:15:00 AM 5.54 41.972 0.028 6.78 3.3 12.46
3/22/2021 12:30:00 AM 5.46 41.828 0.028 6.83 3.45 12.49
3/22/2021 12:45:00 AM 5.38 41.684 0.028 6.78 3.29 12.51
3/22/2021 1:00:00 AM 5.31 41.558 0.029 6.79 3.45 12.54
3/22/2021 1:15:00 AM 5.23 41.414 0.029 6.79 3.45 12.56
3/22/2021 1:30:00 AM 5.16 41.288 0.029 6.81 3.47 12.58
3/22/2021 1:45:00 AM 5.09 41.162 0.029 6.82 3.47 12.59
3/22/2021 2:00:00 AM 5.03 41.054 0.028 6.82 3.4 12.63
3/22/2021 2:15:00 AM 4.97 40.946 0.028 6.8 3.47 12.65
3/22/2021 2:30:00 AM 4.91 40.838 0.028 6.8 3.42 12.67
3/22/2021 2:45:00 AM 4.85 40.73 0.028 6.8 3.47 12.69
3/22/2021 3:00:00 AM 4.79 40.622 0.029 6.83 3.41 12.71
3/22/2021 3:15:00 AM 4.73 40.514 0.029 6.79 3.38 12.72
3/22/2021 3:30:00 AM 4.68 40.424 0.029 6.77 3.38 12.74
3/22/2021 3:45:00 AM 4.63 40.334 0.029 6.83 3.4 12.76
3/22/2021 4:00:00 AM 4.58 40.244 0.029 6.79 3.48 12.77
3/22/2021 4:15:00 AM 4.53 40.154 0.029 6.8 3.49 12.78
3/22/2021 4:30:00 AM 4.48 40.064 0.028 6.8 3.25 12.8
3/22/2021 4:45:00 AM 4.43 39.974 0.028 6.8 3.38 12.82
3/22/2021 5:00:00 AM 4.39 39.902 0.029 6.8 3.43 12.84
3/22/2021 5:15:00 AM 4.34 39.812 0.029 6.81 3.32 12.86
3/22/2021 5:30:00 AM 4.3 39.74 0.029 6.78 3.34 12.87
3/22/2021 5:45:00 AM 4.26 39.668 0.028 6.79 3.39 12.89
3/22/2021 6:00:00 AM 4.21 39.578 0.029 6.76 3.45 12.9
3/22/2021 6:15:00 AM 4.17 39.506 0.029 6.8 3.24 12.91
3/22/2021 6:30:00 AM 4.13 39.434 0.029 6.8 3.25 12.93
3/22/2021 6:45:00 AM 4.1 39.38 0.029 6.8 3.23 12.94
3/22/2021 7:00:00 AM 4.06 39.308 0.029 6.8 3.25 12.96
3/22/2021 7:15:00 AM 4.02 39.236 0.029 6.82 3.5 12.97
3/22/2021 7:30:00 AM 3.99 39.182 0.029 6.77 3.41 12.99
3/22/2021 7:45:00 AM 3.96 39.128 0.028 6.81 3.29 13.01
3/22/2021 8:00:00 AM 3.93 39.074 0.028 6.8 3.26 13.03
3/22/2021 8:15:00 AM 3.9 39.02 0.028 6.83 3.38 13.06
3/22/2021 8:30:00 AM 3.88 38.984 0.028 6.8 3.2 13.08
3/22/2021 8:45:00 AM 3.86 38.948 0.028 6.79 3.35 13.1
3/22/2021 9:00:00 AM 3.84 38.912 0.028 6.82 3.26 13.11
3/22/2021 9:15:00 AM 3.83 38.894 0.028 6.81 3.28 13.12
3/22/2021 9:30:00 AM 3.82 38.876 0.028 6.83 3.17 13.14
3/22/2021 9:45:00 AM 3.83 38.894 0.028 6.8 3.48 13.14
3/22/2021 10:00:00 AM 3.86 38.948 0.028 6.84 3.3 13.15
3/22/2021 10:15:00 AM 3.91 39.038 0.028 6.83 3.27 13.14
3/22/2021 10:30:00 AM 4 39.2 0.028 6.84 3.16 13.13
3/22/2021 10:45:00 AM 4.1 39.38 0.028 6.84 3.21 13.12
3/22/2021 11:00:00 AM 4.23 39.614 0.028 6.82 3.14 13.1
3/22/2021 11:15:00 AM 4.38 39.884 0.028 6.88 3.3 13.06
3/22/2021 11:30:00 AM 4.54 40.172 0.028 6.84 3.17 13.01
3/22/2021 11:45:00 AM 4.73 40.514 0.028 6.86 3.22 12.97
3/22/2021 12:00:00 PM 4.93 40.874 0.028 6.85 3.19 12.91
3/22/2021 12:15:00 PM 5.15 41.27 0.028 6.85 3.23 12.84
3/22/2021 12:30:00 PM 5.38 41.684 0.028 6.87 3.24 12.77
3/22/2021 12:45:00 PM 5.62 42.116 0.028 6.86 3.13 12.71
3/22/2021 1:00:00 PM 5.87 42.566 0.029 6.82 4.61 12.61
3/22/2021 1:15:00 PM 6.11 42.998 0.028 6.86 3.16 12.55
3/22/2021 1:30:00 PM 6.35 43.43 0.028 6.89 3.26 12.46
3/22/2021 1:45:00 PM 6.59 43.862 0.028 6.89 3.2 12.38
3/22/2021 2:00:00 PM 6.82 44.276 0.028 6.86 3.13 12.31
3/22/2021 2:15:00 PM 7.04 44.672 0.028 6.87 3.28 12.23
3/22/2021 2:30:00 PM 7.24 45.032 0.028 6.87 3.3 12.16
3/22/2021 2:45:00 PM 7.43 45.374 0.028 6.86 3.18 12.1
3/22/2021 3:00:00 PM 7.61 45.698 0.028 6.89 3.35 12.03
3/22/2021 3:15:00 PM 7.77 45.986 0.028 6.88 3.28 11.96
3/22/2021 3:30:00 PM 7.92 46.256 0.028 6.88 3.12 11.91
3/22/2021 3:45:00 PM 8.04 46.472 0.028 6.89 3.32 11.87
3/22/2021 4:00:00 PM 8.16 46.688 0.028 6.89 3.52 11.82
3/22/2021 4:15:00 PM 8.25 46.85 0.028 6.9 3.51 11.77
3/22/2021 4:30:00 PM 8.32 46.976 0.028 6.87 3.24 11.73
3/22/2021 4:45:00 PM 8.37 47.066 0.028 6.88 3.39 11.7
3/22/2021 5:00:00 PM 8.4 47.12 0.028 6.87 3.39 11.68
3/22/2021 5:15:00 PM 8.4 47.12 0.028 6.87 3.38 11.65
3/22/2021 5:30:00 PM 8.38 47.084 0.028 6.89 3.32 11.64
3/22/2021 5:45:00 PM 8.36 47.048 0.028 6.87 3.44 11.62
3/22/2021 6:00:00 PM 8.33 46.994 0.028 6.88 3.35 11.62
3/22/2021 6:15:00 PM 8.28 46.904 0.028 6.84 3.4 11.63
3/22/2021 6:30:00 PM 8.22 46.796 0.028 6.76 3.25 11.64
3/22/2021 6:45:00 PM 8.15 46.67 0.028 6.89 3.39 11.65
3/22/2021 7:00:00 PM 8.08 46.544 0.028 6.83 3.48 11.66
3/22/2021 7:15:00 PM 8 46.4 0.028 6.81 3.52 11.67
3/22/2021 7:30:00 PM 7.91 46.238 0.028 6.83 3.4 11.68
3/22/2021 7:45:00 PM 7.8 46.04 0.028 6.82 3.49 11.69
3/22/2021 8:00:00 PM 7.69 45.842 0.028 6.81 3.52 11.72
3/22/2021 8:15:00 PM 7.57 45.626 0.028 6.81 3.56 11.75
3/22/2021 8:30:00 PM 7.46 45.428 0.028 6.8 3.71 11.79
3/22/2021 8:45:00 PM 7.34 45.212 0.028 6.8 3.48 11.82
3/22/2021 9:00:00 PM 7.23 45.014 0.028 6.79 3.55 11.85
3/22/2021 9:15:00 PM 7.12 44.816 0.028 6.8 3.28 11.88
3/22/2021 9:30:00 PM 7.01 44.618 0.028 6.81 3.36 11.91
3/22/2021 9:45:00 PM 6.9 44.42 0.028 6.79 3.53 11.95
3/22/2021 10:00:00 PM 6.79 44.222 0.028 6.83 3.48 11.99
3/22/2021 10:15:00 PM 6.68 44.024 0.028 6.78 3.45 12.02
3/22/2021 10:30:00 PM 6.58 43.844 0.029 6.83 3.28 12.06
3/22/2021 10:45:00 PM 6.48 43.664 0.028 6.82 3.43 12.08
3/22/2021 11:00:00 PM 6.38 43.484 0.028 6.82 3.48 12.11
3/22/2021 11:15:00 PM 6.28 43.304 0.028 6.82 3.55 12.15
3/22/2021 11:30:00 PM 6.19 43.142 0.028 6.79 3.32 12.18
3/22/2021 11:45:00 PM 6.09 42.962 0.028 6.82 3.28 12.21
3/23/2021 12:00:00 AM 6 42.8 0.028 6.79 3.36 12.24
3/23/2021 12:15:00 AM 5.92 42.656 0.029 6.83 3.23 12.27
3/23/2021 12:30:00 AM 5.83 42.494 0.029 6.82 3.35 12.29
3/23/2021 12:45:00 AM 5.75 42.35 0.029 6.8 3.25 12.32
3/23/2021 1:00:00 AM 5.67 42.206 0.029 6.81 3.28 12.35
3/23/2021 1:15:00 AM 5.6 42.08 0.029 6.79 3.38 12.37
3/23/2021 1:30:00 AM 5.53 41.954 0.029 6.78 3.35 12.4
3/23/2021 1:45:00 AM 5.46 41.828 0.029 6.78 3.44 12.43
3/23/2021 2:00:00 AM 5.39 41.702 0.029 6.8 3.37 12.45
3/23/2021 2:15:00 AM 5.32 41.576 0.029 6.8 3.37 12.46
3/23/2021 2:30:00 AM 5.25 41.45 0.029 6.78 3.34 12.49
3/23/2021 2:45:00 AM 5.19 41.342 0.029 6.81 3.46 12.5
3/23/2021 3:00:00 AM 5.13 41.234 0.029 6.79 3.26 12.52
3/23/2021 3:15:00 AM 5.07 41.126 0.029 6.82 3.43 12.54
3/23/2021 3:30:00 AM 5.02 41.036 0.029 6.81 3.37 12.57
3/23/2021 3:45:00 AM 4.96 40.928 0.029 6.8 3.42 12.59
3/23/2021 4:00:00 AM 4.91 40.838 0.029 6.81 3.28 12.61
3/23/2021 4:15:00 AM 4.85 40.73 0.029 6.78 3.28 12.63
3/23/2021 4:30:00 AM 4.8 40.64 0.029 6.79 3.45 12.64
3/23/2021 4:45:00 AM 4.75 40.55 0.029 6.77 3.36 12.66
3/23/2021 5:00:00 AM 4.7 40.46 0.029 6.76 3.34 12.67
3/23/2021 5:15:00 AM 4.65 40.37 0.029 6.76 3.29 12.69
3/23/2021 5:30:00 AM 4.61 40.298 0.029 6.76 3.24 12.7
3/23/2021 5:45:00 AM 4.57 40.226 0.029 6.8 3.1 12.72
3/23/2021 6:00:00 AM 4.52 40.136 0.029 6.79 3.3 12.73
3/23/2021 6:15:00 AM 4.48 40.064 0.029 6.77 3.38 12.74
3/23/2021 6:30:00 AM 4.44 39.992 0.029 6.76 3.28 12.76
3/23/2021 6:45:00 AM 4.4 39.92 0.029 6.78 3.16 12.78
3/23/2021 7:00:00 AM 4.37 39.866 0.029 6.77 3.19 12.79
3/23/2021 7:15:00 AM 4.33 39.794 0.029 6.77 3.08 12.81
3/23/2021 7:30:00 AM 4.3 39.74 0.029 6.76 3.07 12.83
3/23/2021 7:45:00 AM 4.27 39.686 0.029 6.77 3.16 12.85
3/23/2021 8:00:00 AM 4.25 39.65 0.028 6.78 3.1 12.89
3/23/2021 8:15:00 AM 4.23 39.614 0.028 6.78 3.18 12.91
3/23/2021 8:30:00 AM 4.22 39.596 0.028 6.79 3.32 12.93
3/23/2021 8:45:00 AM 4.21 39.578 0.028 6.82 3.22 12.95
3/23/2021 9:00:00 AM 4.2 39.56 0.028 6.8 3.21 12.96
3/23/2021 9:15:00 AM 4.2 39.56 0.028 6.81 3.13 12.97
3/23/2021 9:30:00 AM 4.2 39.56 0.028 6.84 3.01 12.99
3/23/2021 9:45:00 AM 4.22 39.596 0.028 6.84 3.12 12.99
3/23/2021 10:00:00 AM 4.27 39.686 0.028 6.81 3.18 12.99
3/23/2021 10:15:00 AM 4.34 39.812 0.028 6.85 3.08 12.98
3/23/2021 10:30:00 AM 4.42 39.956 0.028 6.85 3.07 12.97
3/23/2021 10:45:00 AM 4.53 40.154 0.028 6.88 3.18 12.94
3/23/2021 11:00:00 AM 4.67 40.406 0.028 6.88 2.99 12.92
3/23/2021 11:15:00 AM 4.82 40.676 0.028 6.86 3.06 12.9
3/23/2021 11:30:00 AM 4.97 40.946 0.028 6.87 3.12 12.85
3/23/2021 11:45:00 AM 5.14 41.252 0.028 6.86 2.98 12.8
3/23/2021 12:00:00 PM 5.34 41.612 0.028 6.87 3.12 12.75
3/23/2021 12:15:00 PM 5.53 41.954 0.028 6.88 3.07 12.7
3/23/2021 12:30:00 PM 5.72 42.296 0.028 6.88 3.05 12.63
3/23/2021 12:45:00 PM 5.95 42.71 0.028 6.86 3.04 12.57
3/23/2021 1:00:00 PM 6.17 43.106 0.028 6.87 3.03 12.5
3/23/2021 1:15:00 PM 6.4 43.52 0.028 6.9 3.05 12.43
3/23/2021 1:30:00 PM 6.55 43.79 0.028 6.89 3.15 12.37
3/23/2021 1:45:00 PM 6.73 44.114 0.028 6.89 3.08 12.31
3/23/2021 2:00:00 PM 6.9 44.42 0.028 6.9 3.06 12.24
3/23/2021 2:15:00 PM 7.02 44.636 0.028 6.88 3.3 12.18
3/23/2021 2:30:00 PM 7.19 44.942 0.028 6.88 3.24 12.14
3/23/2021 2:45:00 PM 7.34 45.212 0.028 6.88 3.15 12.1
3/23/2021 3:00:00 PM 7.45 45.41 0.028 6.86 3.13 12.05
3/23/2021 3:15:00 PM 7.57 45.626 0.027 6.87 3.27 12
3/23/2021 3:30:00 PM 7.67 45.806 0.028 6.91 3.26 11.95
3/23/2021 3:45:00 PM 7.77 45.986 0.027 6.87 3.26 11.92
3/23/2021 4:00:00 PM 7.84 46.112 0.027 6.89 3.3 11.89
3/23/2021 4:15:00 PM 7.94 46.292 0.027 6.84 3.24 11.86
3/23/2021 4:30:00 PM 8 46.4 0.027 6.91 3.12 11.83
3/23/2021 4:45:00 PM 8.05 46.49 0.027 6.83 3.32 11.81
3/23/2021 5:00:00 PM 8.1 46.58 0.027 6.86 3.29 11.78
3/23/2021 5:15:00 PM 8.12 46.616 0.027 6.86 3.18 11.77
3/23/2021 5:30:00 PM 8.13 46.634 0.027 6.86 3.29 11.75
3/23/2021 5:45:00 PM 8.14 46.652 0.027 6.88 3.27 11.74
3/23/2021 6:00:00 PM 8.16 46.688 0.028 6.86 3.36 11.73
3/23/2021 6:15:00 PM 8.15 46.67 0.027 6.82 3.28 11.72
3/23/2021 6:30:00 PM 8.14 46.652 0.028 6.84 3.24 11.7
3/23/2021 6:45:00 PM 8.11 46.598 0.028 6.83 3.21 11.69
3/23/2021 7:00:00 PM 8.08 46.544 0.028 6.81 3.2 11.69
3/23/2021 7:15:00 PM 8.04 46.472 0.028 6.81 3.4 11.66
3/23/2021 7:30:00 PM 7.99 46.382 0.028 6.81 3.36 11.65
3/23/2021 7:45:00 PM 7.94 46.292 0.028 6.81 3.36 11.65
3/23/2021 8:00:00 PM 7.88 46.184 0.028 6.83 3.43 11.65
3/23/2021 8:15:00 PM 7.81 46.058 0.028 6.82 3.49 11.66
3/23/2021 8:30:00 PM 7.75 45.95 0.028 6.75 3.36 11.67
3/23/2021 8:45:00 PM 7.69 45.842 0.028 6.77 3.57 11.68
3/23/2021 9:00:00 PM 7.63 45.734 0.028 6.78 3.49 11.7
3/23/2021 9:15:00 PM 7.56 45.608 0.028 6.82 3.65 11.73
3/23/2021 9:30:00 PM 7.49 45.482 0.028 6.8 3.31 11.75
3/23/2021 9:45:00 PM 7.42 45.356 0.028 6.78 3.33 11.77
3/23/2021 10:00:00 PM 7.34 45.212 0.028 6.8 3.27 11.79
3/23/2021 10:15:00 PM 7.27 45.086 0.028 6.77 3.33 11.81
3/23/2021 10:30:00 PM 7.19 44.942 0.028 6.78 3.39 11.83
3/23/2021 10:45:00 PM 7.12 44.816 0.028 6.77 3.34 11.85
3/23/2021 11:00:00 PM 7.05 44.69 0.028 6.78 3.22 11.87
3/23/2021 11:15:00 PM 6.98 44.564 0.028 6.77 3.38 11.89
3/23/2021 11:30:00 PM 6.91 44.438 0.029 6.77 3.19 11.92
3/23/2021 11:45:00 PM 6.84 44.312 0.028 6.76 3.36 11.94
3/24/2021 12:00:00 AM 6.77 44.186 0.029 6.76 3.5 11.96
3/24/2021 12:15:00 AM 6.7 44.06 0.028 6.76 3.39 11.98
3/24/2021 12:30:00 AM 6.64 43.952 0.029 6.77 3.33 12
3/24/2021 12:45:00 AM 6.58 43.844 0.028 6.8 3.28 12.02
3/24/2021 1:00:00 AM 6.53 43.754 0.028 6.79 3.41 12.04
3/24/2021 1:15:00 AM 6.48 43.664 0.029 6.78 3.47 12.05
3/24/2021 1:30:00 AM 6.43 43.574 0.029 6.77 3.24 12.06
3/24/2021 1:45:00 AM 6.38 43.484 0.029 6.77 3.4 12.08
3/24/2021 2:00:00 AM 6.34 43.412 0.029 6.78 3.37 12.09
3/24/2021 2:15:00 AM 6.3 43.34 0.029 6.78 3.33 12.11
3/24/2021 2:30:00 AM 6.26 43.268 0.029 6.79 3.33 12.12
3/24/2021 2:45:00 AM 6.24 43.232 0.029 6.78 3.39 12.13
3/24/2021 3:00:00 AM 6.21 43.178 0.029 6.8 3.33 12.13
3/24/2021 3:15:00 AM 6.19 43.142 0.029 6.78 3.42 12.14
3/24/2021 3:30:00 AM 6.17 43.106 0.029 6.77 3.22 12.15
3/24/2021 3:45:00 AM 6.15 43.07 0.029 6.79 3.24 12.15
3/24/2021 4:00:00 AM 6.14 43.052 0.029 6.78 3.41 12.16
3/24/2021 4:15:00 AM 6.12 43.016 0.029 6.83 3.27 12.16
3/24/2021 4:30:00 AM 6.11 42.998 0.029 6.79 3.22 12.17
3/24/2021 4:45:00 AM 6.11 42.998 0.029 6.78 3.24 12.17
3/24/2021 5:00:00 AM 6.1 42.98 0.029 6.8 3.39 12.17
3/24/2021 5:15:00 AM 6.1 42.98 0.029 6.77 3.4 12.17
3/24/2021 5:30:00 AM 6.1 42.98 0.029 6.77 3.21 12.16
3/24/2021 5:45:00 AM 6.11 42.998 0.029 6.8 3.18 12.17
3/24/2021 6:00:00 AM 6.11 42.998 0.028 6.8 3.18 12.16
3/24/2021 6:15:00 AM 6.11 42.998 0.029 6.76 3.24 12.16
3/24/2021 6:30:00 AM 6.12 43.016 0.029 6.77 3.4 12.16
3/24/2021 6:45:00 AM 6.13 43.034 0.029 6.77 3.25 12.15
3/24/2021 7:00:00 AM 6.13 43.034 0.028 6.79 3.22 12.15
3/24/2021 7:15:00 AM 6.14 43.052 0.028 6.78 3.36 12.15
3/24/2021 7:30:00 AM 6.16 43.088 0.028 6.77 3.4 12.14
3/24/2021 7:45:00 AM 6.17 43.106 0.028 6.8 3.39 12.15
3/24/2021 8:00:00 AM 6.18 43.124 0.028 6.8 3.52 12.15
3/24/2021 8:15:00 AM 6.2 43.16 0.028 6.79 3.41 12.14
3/24/2021 8:30:00 AM 6.22 43.196 0.028 6.74 3.41 12.14
3/24/2021 8:45:00 AM 6.24 43.232 0.028 6.8 3.52 12.15
3/24/2021 9:00:00 AM 6.26 43.268 0.028 6.8 3.54 12.16
3/24/2021 9:15:00 AM 6.29 43.322 0.028 6.82 3.33 12.16
3/24/2021 9:30:00 AM 6.31 43.358 0.028 6.78 3.46 12.17
3/24/2021 9:45:00 AM 6.34 43.412 0.028 6.83 3.44 12.17
3/24/2021 10:00:00 AM 6.37 43.466 0.028 6.84 3.47 12.17
3/24/2021 10:15:00 AM 6.4 43.52 0.028 6.8 3.49 12.17
3/24/2021 10:30:00 AM 6.44 43.592 0.028 6.81 3.48 12.17
3/24/2021 10:45:00 AM 6.47 43.646 0.028 6.84 3.47 12.16
3/24/2021 11:00:00 AM 6.5 43.7 0.028 6.85 3.46 12.15
3/24/2021 11:15:00 AM 6.53 43.754 0.028 6.83 3.37 12.15
3/24/2021 11:30:00 AM 6.57 43.826 0.028 6.82 3.58 12.15
3/24/2021 11:45:00 AM 6.61 43.898 0.028 6.82 3.68 12.14
3/24/2021 12:00:00 PM 6.66 43.988 0.028 6.85 3.38 12.15
3/24/2021 12:15:00 PM 6.71 44.078 0.028 6.87 3.55 12.14
3/24/2021 12:30:00 PM 6.77 44.186 0.028 6.86 3.59 12.14
3/24/2021 12:45:00 PM 6.84 44.312 0.028 6.9 3.48 12.13
3/24/2021 1:00:00 PM 6.91 44.438 0.028 6.89 3.62 12.11
3/24/2021 1:15:00 PM 6.99 44.582 0.028 6.88 3.65 12.09
3/24/2021 1:30:00 PM 7.06 44.708 0.028 6.93 3.52 12.06
3/24/2021 1:45:00 PM 7.12 44.816 0.028 6.89 3.52 12.05
3/24/2021 2:00:00 PM 7.19 44.942 0.028 6.91 3.51 12.03
3/24/2021 2:15:00 PM 7.24 45.032 0.028 6.94 3.01 12
3/24/2021 2:30:00 PM 7.27 45.086 0.028 6.92 3.41 11.98
3/24/2021 2:45:00 PM 7.3 45.14 0.028 6.9 3.52 11.95
3/24/2021 3:00:00 PM 7.33 45.194 0.028 6.87 3.82 11.94
3/24/2021 3:15:00 PM 7.39 45.302 0.028 6.91 3.49 11.94
3/24/2021 3:30:00 PM 7.44 45.392 0.028 6.88 3.56 11.91
3/24/2021 3:45:00 PM 7.5 45.5 0.028 6.9 3.61 11.89
3/24/2021 4:00:00 PM 7.55 45.59 0.028 6.88 3.44 11.87
3/24/2021 4:15:00 PM 7.59 45.662 0.028 6.88 3.48 11.85
3/24/2021 4:30:00 PM 7.62 45.716 0.028 6.93 3.73 11.83
3/24/2021 4:45:00 PM 7.63 45.734 0.028 6.9 3.6 11.81
3/24/2021 5:00:00 PM 7.66 45.788 0.028 6.85 3.62 11.8
3/24/2021 5:15:00 PM 7.7 45.86 0.028 6.88 3.46 11.78
3/24/2021 5:30:00 PM 7.72 45.896 0.028 6.89 3.52 11.77
3/24/2021 5:45:00 PM 7.75 45.95 0.028 6.87 3.49 11.75
3/24/2021 6:00:00 PM 7.76 45.968 0.028 6.85 3.54 11.73
3/24/2021 6:15:00 PM 7.77 45.986 0.028 6.87 3.61 11.72
3/24/2021 6:30:00 PM 7.79 46.022 0.028 6.84 3.5 11.7
3/24/2021 6:45:00 PM 7.8 46.04 0.028 6.89 3.69 11.68
3/24/2021 7:00:00 PM 7.8 46.04 0.028 6.81 3.66 11.67
3/24/2021 7:15:00 PM 7.81 46.058 0.028 6.84 3.52 11.65
3/24/2021 7:30:00 PM 7.8 46.04 0.028 6.85 3.6 11.63
3/24/2021 7:45:00 PM 7.78 46.004 0.028 6.78 3.61 11.62
3/24/2021 8:00:00 PM 7.77 45.986 0.028 6.81 3.71 11.62
3/24/2021 8:15:00 PM 7.75 45.95 0.028 6.78 3.57 11.62
3/24/2021 8:30:00 PM 7.74 45.932 0.028 6.81 3.67 11.61
3/24/2021 8:45:00 PM 7.72 45.896 0.028 6.8 3.4 11.62
3/24/2021 9:00:00 PM 7.7 45.86 0.028 6.79 3.58 11.62
3/24/2021 9:15:00 PM 7.68 45.824 0.028 6.76 3.59 11.63
3/24/2021 9:30:00 PM 7.66 45.788 0.028 6.78 3.53 11.63
3/24/2021 9:45:00 PM 7.64 45.752 0.028 6.8 3.58 11.64
3/24/2021 10:00:00 PM 7.62 45.716 0.028 6.8 3.75 11.65
3/24/2021 10:15:00 PM 7.6 45.68 0.028 6.82 3.85 11.66
3/24/2021 10:30:00 PM 7.58 45.644 0.028 6.81 3.54 11.67
3/24/2021 10:45:00 PM 7.56 45.608 0.028 6.78 3.73 11.68
3/24/2021 11:00:00 PM 7.54 45.572 0.028 6.81 3.63 11.68
3/24/2021 11:15:00 PM 7.52 45.536 0.028 6.78 3.57 11.69
3/24/2021 11:30:00 PM 7.5 45.5 0.028 6.78 3.81 11.69
3/24/2021 11:45:00 PM 7.48 45.464 0.028 6.76 3.82 11.7
3/25/2021 12:00:00 AM 7.46 45.428 0.028 6.79 3.52 11.71
3/25/2021 12:15:00 AM 7.45 45.41 0.029 6.74 3.42 11.71
3/25/2021 12:30:00 AM 7.43 45.374 0.029 6.79 3.55 11.72
3/25/2021 12:45:00 AM 7.42 45.356 0.029 6.79 3.39 11.72
3/25/2021 1:00:00 AM 7.4 45.32 0.028 6.76 3.5 11.73
3/25/2021 1:15:00 AM 7.39 45.302 0.028 6.77 3.52 11.73
3/25/2021 1:30:00 AM 7.38 45.284 0.028 6.76 3.76 11.73
3/25/2021 1:45:00 AM 7.36 45.248 0.029 6.78 3.61 11.73
3/25/2021 2:00:00 AM 7.35 45.23 0.029 6.78 3.69 11.74
3/25/2021 2:15:00 AM 7.34 45.212 0.029 6.8 3.61 11.74
3/25/2021 2:30:00 AM 7.33 45.194 0.029 6.74 3.6 11.74
3/25/2021 2:45:00 AM 7.32 45.176 0.029 6.76 3.57 11.74
3/25/2021 3:00:00 AM 7.31 45.158 0.029 6.77 3.6 11.75
3/25/2021 3:15:00 AM 7.3 45.14 0.029 6.76 3.64 11.76
3/25/2021 3:30:00 AM 7.29 45.122 0.028 6.77 3.72 11.75
3/25/2021 3:45:00 AM 7.29 45.122 0.028 6.75 3.63 11.76
3/25/2021 4:00:00 AM 7.28 45.104 0.029 6.79 3.71 11.76
3/25/2021 4:15:00 AM 7.27 45.086 0.028 6.75 3.71 11.76
3/25/2021 4:30:00 AM 7.26 45.068 0.028 6.78 3.61 11.76
3/25/2021 4:45:00 AM 7.25 45.05 0.029 6.76 3.53 11.77
3/25/2021 5:00:00 AM 7.25 45.05 0.028 6.73 3.68 11.77
3/25/2021 5:15:00 AM 7.24 45.032 0.029 6.74 3.65 11.77
3/25/2021 5:30:00 AM 7.24 45.032 0.028 6.73 3.74 11.77
3/25/2021 5:45:00 AM 7.23 45.014 0.029 6.71 3.6 11.77
3/25/2021 6:00:00 AM 7.23 45.014 0.028 6.77 3.59 11.78
3/25/2021 6:15:00 AM 7.22 44.996 0.028 6.78 3.65 11.78
3/25/2021 6:30:00 AM 7.22 44.996 0.029 6.76 3.6 11.78
3/25/2021 6:45:00 AM 7.22 44.996 0.028 6.73 3.5 11.78
3/25/2021 7:00:00 AM 7.21 44.978 0.028 6.76 3.6 11.79
3/25/2021 7:15:00 AM 7.21 44.978 0.028 6.77 3.74 11.79
3/25/2021 7:30:00 AM 7.21 44.978 0.028 6.74 3.75 11.8
3/25/2021 7:45:00 AM 7.21 44.978 0.028 6.74 3.69 11.81
3/25/2021 8:00:00 AM 7.22 44.996 0.028 6.74 3.63 11.83
3/25/2021 8:15:00 AM 7.22 44.996 0.028 6.79 3.66 11.85
3/25/2021 8:30:00 AM 7.23 45.014 0.028 6.79 3.53 11.87
3/25/2021 8:45:00 AM 7.25 45.05 0.028 6.78 3.56 11.89
3/25/2021 9:00:00 AM 7.27 45.086 0.028 6.81 3.59 11.9
3/25/2021 9:15:00 AM 7.3 45.14 0.028 6.78 3.63 11.92
3/25/2021 9:30:00 AM 7.34 45.212 0.028 6.79 3.66 11.94
3/25/2021 9:45:00 AM 7.38 45.284 0.028 6.84 3.5 11.95
3/25/2021 10:00:00 AM 7.44 45.392 0.028 6.87 3.63 11.96
3/25/2021 10:15:00 AM 7.51 45.518 0.028 6.87 3.47 11.95
3/25/2021 10:30:00 AM 7.6 45.68 0.028 6.88 3.65 11.94
3/25/2021 10:45:00 AM 7.66 45.788 0.028 6.9 3.49 11.93
3/25/2021 11:00:00 AM 7.74 45.932 0.028 6.87 3.49 11.9
3/25/2021 11:15:00 AM 7.83 46.094 0.028 6.89 3.47 11.88
3/25/2021 11:30:00 AM 7.95 46.31 0.028 6.9 3.56 11.86
3/25/2021 11:45:00 AM 8.09 46.562 0.028 6.92 3.57 11.83
3/25/2021 12:00:00 PM 8.25 46.85 0.028 6.92 3.53 11.78
3/25/2021 12:15:00 PM 8.45 47.21 0.028 6.91 3.67 11.73
3/25/2021 12:30:00 PM 8.61 47.498 0.028 6.89 3.59 11.7
3/25/2021 12:45:00 PM 8.73 47.714 0.028 6.92 3.53 11.67
3/25/2021 1:00:00 PM 8.9 48.02 0.028 6.9 3.68 11.62
3/25/2021 1:15:00 PM 9.1 48.38 0.027 6.91 3.4 11.56
3/25/2021 1:30:00 PM 9.28 48.704 0.028 6.95 3.45 11.51
3/25/2021 1:45:00 PM 9.46 49.028 0.027 6.97 3.57 11.46
3/25/2021 2:00:00 PM 9.63 49.334 0.027 6.91 3.59 11.39
3/25/2021 2:15:00 PM 9.79 49.622 0.027 6.94 3.69 11.34
3/25/2021 2:30:00 PM 9.96 49.928 0.027 6.96 3.59 11.31
3/25/2021 2:45:00 PM 10.1 50.18 0.027 6.96 3.77 11.26
3/25/2021 3:00:00 PM 10.22 50.396 0.027 6.96 3.44 11.21
3/25/2021 3:15:00 PM 10.31 50.558 0.027 6.96 3.46 11.17
3/25/2021 3:30:00 PM 10.39 50.702 0.027 6.91 3.53 11.14
3/25/2021 3:45:00 PM 10.45 50.81 0.027 6.92 3.57 11.11
3/25/2021 4:00:00 PM 10.49 50.882 0.027 6.95 3.56 11.09
3/25/2021 4:15:00 PM 10.53 50.954 0.027 6.99 3.77 11.07
3/25/2021 4:30:00 PM 10.57 51.026 0.027 6.92 3.49 11.05
3/25/2021 4:45:00 PM 10.58 51.044 0.027 6.93 3.62 11.03
3/25/2021 5:00:00 PM 10.59 51.062 0.027 6.92 3.71 11.01
3/25/2021 5:15:00 PM 10.59 51.062 0.027 6.94 3.75 11
3/25/2021 5:30:00 PM 10.58 51.044 0.027 6.89 3.61 11
3/25/2021 5:45:00 PM 10.55 50.99 0.027 6.96 3.75 10.99
3/25/2021 6:00:00 PM 10.51 50.918 0.027 6.88 3.86 10.97
3/25/2021 6:15:00 PM 10.47 50.846 0.027 6.96 3.72 10.96
3/25/2021 6:30:00 PM 10.42 50.756 0.028 6.86 3.64 10.96
3/25/2021 6:45:00 PM 10.37 50.666 0.028 6.86 3.78 10.94
3/25/2021 7:00:00 PM 10.31 50.558 0.028 6.87 3.7 10.93
3/25/2021 7:15:00 PM 10.24 50.432 0.028 6.86 3.64 10.93
3/25/2021 7:30:00 PM 10.18 50.324 0.028 6.84 3.79 10.93
3/25/2021 7:45:00 PM 10.12 50.216 0.028 6.83 3.77 10.93
3/25/2021 8:00:00 PM 10.06 50.108 0.028 6.84 3.84 10.94
3/25/2021 8:15:00 PM 9.99 49.982 0.028 6.81 3.98 10.95
3/25/2021 8:30:00 PM 9.91 49.838 0.028 6.8 3.76 10.97
3/25/2021 8:45:00 PM 9.85 49.73 0.028 6.83 3.9 10.98
3/25/2021 9:00:00 PM 9.79 49.622 0.028 6.85 3.68 11
3/25/2021 9:15:00 PM 9.73 49.514 0.028 6.83 3.73 11.01
3/25/2021 9:30:00 PM 9.67 49.406 0.028 6.78 3.88 11.03
3/25/2021 9:45:00 PM 9.61 49.298 0.028 6.83 3.92 11.04
3/25/2021 10:00:00 PM 9.55 49.19 0.028 6.82 3.64 11.05
3/25/2021 10:15:00 PM 9.5 49.1 0.028 6.83 3.83 11.06
3/25/2021 10:30:00 PM 9.45 49.01 0.028 6.82 3.89 11.09
3/25/2021 10:45:00 PM 9.39 48.902 0.028 6.8 3.94 11.1
3/25/2021 11:00:00 PM 9.34 48.812 0.028 6.82 3.72 11.11
3/25/2021 11:15:00 PM 9.29 48.722 0.028 6.8 3.94 11.12
3/25/2021 11:30:00 PM 9.24 48.632 0.028 6.81 3.88 11.14
3/25/2021 11:45:00 PM 9.21 48.578 0.028 6.81 3.77 11.14
3/26/2021 12:00:00 AM 9.17 48.506 0.028 6.81 3.84 11.15
3/26/2021 12:15:00 AM 9.14 48.452 0.028 6.81 3.74 11.16
3/26/2021 12:30:00 AM 9.1 48.38 0.028 6.83 3.82 11.16
3/26/2021 12:45:00 AM 9.06 48.308 0.028 6.81 4.25 11.17
3/26/2021 1:00:00 AM 9.02 48.236 0.029 6.82 3.7 11.18
3/26/2021 1:15:00 AM 8.98 48.164 0.028 6.79 3.7 11.19
3/26/2021 1:30:00 AM 8.95 48.11 0.029 6.82 3.71 11.19
3/26/2021 1:45:00 AM 8.91 48.038 0.029 6.81 3.67 11.2
3/26/2021 2:00:00 AM 8.88 47.984 0.029 6.82 3.72 11.21
3/26/2021 2:15:00 AM 8.86 47.948 0.029 6.79 3.79 11.21
3/26/2021 2:30:00 AM 8.84 47.912 0.029 6.79 3.8 11.22
3/26/2021 2:45:00 AM 8.81 47.858 0.028 6.8 3.69 11.23
3/26/2021 3:00:00 AM 8.78 47.804 0.029 6.8 3.65 11.24
3/26/2021 3:15:00 AM 8.75 47.75 0.029 6.79 3.78 11.24
3/26/2021 3:30:00 AM 8.74 47.732 0.029 6.79 3.81 11.24
3/26/2021 3:45:00 AM 8.73 47.714 0.029 6.77 3.66 11.24
3/26/2021 4:00:00 AM 8.73 47.714 0.028 6.84 3.75 11.23
3/26/2021 4:15:00 AM 8.72 47.696 0.028 6.77 3.75 11.23
3/26/2021 4:30:00 AM 8.72 47.696 0.028 6.82 3.89 11.23
3/26/2021 4:45:00 AM 8.7 47.66 0.028 6.78 3.62 11.22
3/26/2021 5:00:00 AM 8.67 47.606 0.028 6.78 3.83 11.23
3/26/2021 5:15:00 AM 8.66 47.588 0.029 6.8 3.51 11.23
3/26/2021 5:30:00 AM 8.65 47.57 0.029 6.79 3.49 11.23
3/26/2021 5:45:00 AM 8.63 47.534 0.028 6.8 3.59 11.23
3/26/2021 6:00:00 AM 8.63 47.534 0.028 6.81 3.79 11.23
3/26/2021 6:15:00 AM 8.63 47.534 0.028 6.81 3.82 11.23
3/26/2021 6:30:00 AM 8.62 47.516 0.028 6.83 3.57 11.23
3/26/2021 6:45:00 AM 8.62 47.516 0.028 6.82 3.64 11.23
3/26/2021 7:00:00 AM 8.63 47.534 0.028 6.77 3.73 11.22
3/26/2021 7:15:00 AM 8.63 47.534 0.028 6.79 3.69 11.23
3/26/2021 7:30:00 AM 8.63 47.534 0.028 6.83 3.69 11.23
3/26/2021 7:45:00 AM 8.63 47.534 0.028 6.85 3.57 11.24
3/26/2021 8:00:00 AM 8.61 47.498 0.028 6.81 3.66 11.26
3/26/2021 8:15:00 AM 8.62 47.516 0.028 6.82 3.79 11.29
3/26/2021 8:30:00 AM 8.67 47.606 0.028 6.84 3.62 11.32
3/26/2021 8:45:00 AM 8.72 47.696 0.028 6.86 3.51 11.33
3/26/2021 9:00:00 AM 8.77 47.786 0.028 6.88 3.66 11.33
3/26/2021 9:15:00 AM 8.81 47.858 0.028 6.84 3.52 11.33
3/26/2021 9:30:00 AM 8.86 47.948 0.028 6.89 3.52 11.32
3/26/2021 9:45:00 AM 8.91 48.038 0.028 6.93 3.68 11.33
3/26/2021 10:00:00 AM 8.96 48.128 0.028 6.87 3.72 11.32
3/26/2021 10:15:00 AM 9.01 48.218 0.028 6.9 3.6 11.31
3/26/2021 10:30:00 AM 9.07 48.326 0.028 6.91 3.71 11.3
3/26/2021 10:45:00 AM 9.13 48.434 0.028 6.93 3.67 11.28
3/26/2021 11:00:00 AM 9.17 48.506 0.028 6.88 3.62 11.26
3/26/2021 11:15:00 AM 9.22 48.596 0.028 6.94 3.84 11.27
3/26/2021 11:30:00 AM 9.28 48.704 0.028 6.91 3.86 11.28
3/26/2021 11:45:00 AM 9.35 48.83 0.028 6.91 3.72 11.28
3/26/2021 12:00:00 PM 9.4 48.92 0.028 6.92 3.58 11.27
3/26/2021 12:15:00 PM 9.47 49.046 0.028 6.95 3.67 11.25
3/26/2021 12:30:00 PM 9.51 49.118 0.028 6.89 3.83 11.24
3/26/2021 12:45:00 PM 9.56 49.208 0.028 6.91 3.64 11.23
3/26/2021 1:00:00 PM 9.59 49.262 0.028 6.95 3.84 11.21
3/26/2021 1:15:00 PM 9.62 49.316 0.028 6.93 3.76 11.21
3/26/2021 1:30:00 PM 9.7 49.46 0.028 6.91 3.79 11.22
3/26/2021 1:45:00 PM 9.77 49.586 0.028 6.96 4.02 11.22
3/26/2021 2:00:00 PM 9.79 49.622 0.028 6.95 3.72 11.2
3/26/2021 2:15:00 PM 9.8 49.64 0.028 6.96 3.75 11.19
3/26/2021 2:30:00 PM 9.79 49.622 0.028 6.91 3.72 11.18
3/26/2021 2:45:00 PM 9.79 49.622 0.028 6.93 3.74 11.19
3/26/2021 3:00:00 PM 9.79 49.622 0.028 6.92 3.7 11.2
3/26/2021 3:15:00 PM 9.84 49.712 0.028 6.92 3.86 11.21
3/26/2021 3:30:00 PM 9.86 49.748 0.028 6.91 3.8 11.21
3/26/2021 3:45:00 PM 9.9 49.82 0.027 6.88 3.73 11.21
3/26/2021 4:00:00 PM 9.87 49.766 0.028 6.93 3.94 11.2
3/26/2021 4:15:00 PM 9.84 49.712 0.028 6.92 3.79 11.21
3/26/2021 4:30:00 PM 9.83 49.694 0.028 6.89 3.77 11.23
3/26/2021 4:45:00 PM 9.83 49.694 0.028 6.96 3.69 11.23
3/26/2021 5:00:00 PM 9.84 49.712 0.028 6.91 3.7 11.22
3/26/2021 5:15:00 PM 9.83 49.694 0.028 6.93 3.78 11.21
3/26/2021 5:30:00 PM 9.8 49.64 0.028 6.91 3.78 11.2
3/26/2021 5:45:00 PM 9.75 49.55 0.028 6.95 3.8 11.2
3/26/2021 6:00:00 PM 9.7 49.46 0.028 6.9 3.67 11.18
3/26/2021 6:15:00 PM 9.63 49.334 0.028 6.87 3.84 11.17
3/26/2021 6:30:00 PM 9.55 49.19 0.028 6.86 3.7 11.18
3/26/2021 6:45:00 PM 9.48 49.064 0.028 6.84 3.71 11.19
3/26/2021 7:00:00 PM 9.4 48.92 0.028 6.83 3.75 11.2
3/26/2021 7:15:00 PM 9.31 48.758 0.028 6.87 3.72 11.21
3/26/2021 7:30:00 PM 9.23 48.614 0.028 6.84 3.76 11.22
3/26/2021 7:45:00 PM 9.16 48.488 0.028 6.81 3.77 11.23
3/26/2021 8:00:00 PM 9.09 48.362 0.028 6.84 3.83 11.24
3/26/2021 8:15:00 PM 9.02 48.236 0.028 6.81 3.7 11.25
3/26/2021 8:30:00 PM 8.94 48.092 0.028 6.82 3.69 11.27
3/26/2021 8:45:00 PM 8.87 47.966 0.028 6.81 3.73 11.31
3/26/2021 9:00:00 PM 8.8 47.84 0.028 6.85 3.67 11.32
3/26/2021 9:15:00 PM 8.73 47.714 0.028 6.82 3.79 11.35
3/26/2021 9:30:00 PM 8.67 47.606 0.028 6.82 3.61 11.37
3/26/2021 9:45:00 PM 8.61 47.498 0.028 6.83 3.65 11.39
3/26/2021 10:00:00 PM 8.55 47.39 0.028 6.81 3.66 11.4
3/26/2021 10:15:00 PM 8.49 47.282 0.029 6.81 3.71 11.42
3/26/2021 10:30:00 PM 8.43 47.174 0.028 6.81 3.63 11.43
3/26/2021 10:45:00 PM 8.38 47.084 0.028 6.78 3.6 11.45
3/26/2021 11:00:00 PM 8.34 47.012 0.028 6.8 3.67 11.47
3/26/2021 11:15:00 PM 8.29 46.922 0.028 6.79 3.75 11.47
3/26/2021 11:30:00 PM 8.25 46.85 0.028 6.83 3.69 11.5
3/26/2021 11:45:00 PM 8.21 46.778 0.029 6.85 3.72 11.52
3/27/2021 12:00:00 AM 8.17 46.706 0.029 6.8 3.66 11.52
3/27/2021 12:15:00 AM 8.13 46.634 0.029 6.8 3.58 11.54
3/27/2021 12:30:00 AM 8.1 46.58 0.029 6.78 3.65 11.55
3/27/2021 12:45:00 AM 8.07 46.526 0.029 6.79 3.55 11.55
3/27/2021 1:00:00 AM 8.03 46.454 0.029 6.81 3.62 11.56
3/27/2021 1:15:00 AM 8.01 46.418 0.029 6.83 3.66 11.57
3/27/2021 1:30:00 AM 7.98 46.364 0.029 6.76 3.67 11.57
3/27/2021 1:45:00 AM 7.95 46.31 0.029 6.83 3.62 11.59
3/27/2021 2:00:00 AM 7.92 46.256 0.029 6.77 3.58 11.59
3/27/2021 2:15:00 AM 7.9 46.22 0.029 6.8 3.71 11.59
3/27/2021 2:30:00 AM 7.88 46.184 0.029 6.82 3.72 11.6
3/27/2021 2:45:00 AM 7.85 46.13 0.029 6.82 3.56 11.61
3/27/2021 3:00:00 AM 7.83 46.094 0.029 6.82 3.5 11.61
3/27/2021 3:15:00 AM 7.81 46.058 0.029 6.79 3.5 11.62
3/27/2021 3:30:00 AM 7.79 46.022 0.029 6.82 3.66 11.63
3/27/2021 3:45:00 AM 7.77 45.986 0.029 6.82 3.54 11.63
3/27/2021 4:00:00 AM 7.75 45.95 0.029 6.79 3.52 11.63
3/27/2021 4:15:00 AM 7.74 45.932 0.029 6.78 3.63 11.64
3/27/2021 4:30:00 AM 7.72 45.896 0.029 6.78 3.56 11.64
3/27/2021 4:45:00 AM 7.7 45.86 0.029 6.79 3.43 11.65
3/27/2021 5:00:00 AM 7.68 45.824 0.029 6.77 3.63 11.66
3/27/2021 5:15:00 AM 7.67 45.806 0.029 6.81 3.58 11.66
3/27/2021 5:30:00 AM 7.65 45.77 0.029 6.79 3.64 11.67
3/27/2021 5:45:00 AM 7.63 45.734 0.029 6.81 3.58 11.67
3/27/2021 6:00:00 AM 7.61 45.698 0.029 6.78 3.62 11.68
3/27/2021 6:15:00 AM 7.59 45.662 0.029 6.75 3.92 11.69
3/27/2021 6:30:00 AM 7.58 45.644 0.029 6.79 3.65 11.7
3/27/2021 6:45:00 AM 7.56 45.608 0.029 6.8 3.55 11.7
3/27/2021 7:00:00 AM 7.54 45.572 0.029 6.77 3.53 11.71
3/27/2021 7:15:00 AM 7.52 45.536 0.029 6.81 3.62 11.73
3/27/2021 7:30:00 AM 7.51 45.518 0.029 6.83 3.77 11.75
3/27/2021 7:45:00 AM 7.5 45.5 0.029 6.8 3.5 11.77
3/27/2021 8:00:00 AM 7.48 45.464 0.029 6.83 3.64 11.8
3/27/2021 8:15:00 AM 7.49 45.482 0.029 6.85 3.67 11.84
3/27/2021 8:30:00 AM 7.49 45.482 0.029 6.85 3.66 11.87
3/27/2021 8:45:00 AM 7.51 45.518 0.029 6.86 3.53 11.89
3/27/2021 9:00:00 AM 7.5 45.5 0.029 6.88 3.58 11.89
3/27/2021 9:15:00 AM 7.49 45.482 0.029 6.86 3.56 11.88
3/27/2021 9:30:00 AM 7.49 45.482 0.029 6.86 3.55 11.89
3/27/2021 9:45:00 AM 7.53 45.554 0.029 6.88 3.35 11.91
3/27/2021 10:00:00 AM 7.58 45.644 0.028 6.92 3.5 11.92
3/27/2021 10:15:00 AM 7.64 45.752 0.028 6.94 3.42 11.93
3/27/2021 10:30:00 AM 7.71 45.878 0.028 6.88 3.34 11.91
3/27/2021 10:45:00 AM 7.79 46.022 0.028 6.92 3.47 11.9
3/27/2021 11:00:00 AM 7.87 46.166 0.028 6.95 3.43 11.9
3/27/2021 11:15:00 AM 7.96 46.328 0.028 6.91 3.39 11.89
3/27/2021 11:30:00 AM 8.08 46.544 0.028 6.96 3.71 11.85
3/27/2021 11:45:00 AM 8.21 46.778 0.028 6.97 3.75 11.82
3/27/2021 12:00:00 PM 8.29 46.922 0.028 6.97 3.72 11.77
3/27/2021 12:15:00 PM 8.5 47.3 0.028 6.98 3.58 11.75
3/27/2021 12:30:00 PM 8.69 47.642 0.028 6.94 3.6 11.7
3/27/2021 12:45:00 PM 8.92 48.056 0.028 6.96 3.48 11.65
3/27/2021 1:00:00 PM 9.14 48.452 0.028 6.95 3.42 11.59
3/27/2021 1:15:00 PM 9.3 48.74 0.028 6.97 3.52 11.54
3/27/2021 1:30:00 PM 9.43 48.974 0.028 6.96 3.39 11.51
3/27/2021 1:45:00 PM 9.58 49.244 0.028 6.95 3.4 11.45
3/27/2021 2:00:00 PM 9.71 49.478 0.028 7 3.38 11.42
3/27/2021 2:15:00 PM 9.83 49.694 0.028 6.97 3.5 11.39
3/27/2021 2:30:00 PM 9.94 49.892 0.028 6.98 3.47 11.35
3/27/2021 2:45:00 PM 10.08 50.144 0.028 6.97 3.43 11.31
3/27/2021 3:00:00 PM 10.19 50.342 0.028 6.98 3.79 11.25
3/27/2021 3:15:00 PM 10.27 50.486 0.028 6.97 3.65 11.22
3/27/2021 3:30:00 PM 10.35 50.63 0.028 6.97 3.56 11.18
3/27/2021 3:45:00 PM 10.42 50.756 0.028 6.98 3.55 11.16
3/27/2021 4:00:00 PM 10.47 50.846 0.028 6.96 3.58 11.14
3/27/2021 4:15:00 PM 10.5 50.9 0.028 7.02 3.61 11.11
3/27/2021 4:30:00 PM 10.54 50.972 0.028 6.98 3.58 11.1
3/27/2021 4:45:00 PM 10.56 51.008 0.028 7 3.56 11.08
3/27/2021 5:00:00 PM 10.58 51.044 0.028 6.99 3.59 11.07
3/27/2021 5:15:00 PM 10.59 51.062 0.028 6.97 3.76 11.05
3/27/2021 5:30:00 PM 10.57 51.026 0.028 6.95 3.65 11.04
3/27/2021 5:45:00 PM 10.55 50.99 0.028 6.99 3.73 11.02
3/27/2021 6:00:00 PM 10.51 50.918 0.028 6.91 3.54 11.01
3/27/2021 6:15:00 PM 10.45 50.81 0.028 6.96 3.51 10.99
3/27/2021 6:30:00 PM 10.38 50.684 0.028 6.94 3.46 10.98
3/27/2021 6:45:00 PM 10.32 50.576 0.028 6.92 3.6 10.97
3/27/2021 7:00:00 PM 10.24 50.432 0.028 6.92 3.7 10.97
3/27/2021 7:15:00 PM 10.17 50.306 0.028 6.89 3.84 10.97
3/27/2021 7:30:00 PM 10.1 50.18 0.028 6.87 3.74 10.98
3/27/2021 7:45:00 PM 10.03 50.054 0.028 6.88 3.68 10.98
3/27/2021 8:00:00 PM 9.95 49.91 0.028 6.86 3.9 10.99
3/27/2021 8:15:00 PM 9.86 49.748 0.028 6.85 3.93 10.99
3/27/2021 8:30:00 PM 9.78 49.604 0.028 6.87 3.81 11.01
3/27/2021 8:45:00 PM 9.69 49.442 0.028 6.85 3.67 11.03
3/27/2021 9:00:00 PM 9.6 49.28 0.028 6.82 3.74 11.04
3/27/2021 9:15:00 PM 9.51 49.118 0.028 6.83 3.8 11.08
3/27/2021 9:30:00 PM 9.42 48.956 0.029 6.84 3.69 11.11
3/27/2021 9:45:00 PM 9.33 48.794 0.029 6.88 3.59 11.13
3/27/2021 10:00:00 PM 9.24 48.632 0.029 6.88 3.69 11.15
3/27/2021 10:15:00 PM 9.15 48.47 0.029 6.83 3.62 11.18
3/27/2021 10:30:00 PM 9.06 48.308 0.029 6.85 3.52 11.19
3/27/2021 10:45:00 PM 8.98 48.164 0.029 6.85 3.79 11.21
3/27/2021 11:00:00 PM 8.9 48.02 0.029 6.84 3.82 11.24
3/27/2021 11:15:00 PM 8.81 47.858 0.029 6.84 3.81 11.26
3/27/2021 11:30:00 PM 8.74 47.732 0.029 6.88 3.79 11.29
3/27/2021 11:45:00 PM 8.65 47.57 0.029 6.85 4.04 11.31
3/28/2021 12:00:00 AM 8.57 47.426 0.029 6.83 3.63 11.33
3/28/2021 12:15:00 AM 8.5 47.3 0.029 6.82 3.7 11.35
3/28/2021 12:30:00 AM 8.43 47.174 0.029 6.83 3.81 11.36
3/28/2021 12:45:00 AM 8.35 47.03 0.029 6.88 3.66 11.38
3/28/2021 1:00:00 AM 8.28 46.904 0.029 6.85 3.47 11.4
3/28/2021 1:15:00 AM 8.21 46.778 0.029 6.82 3.85 11.42
3/28/2021 1:30:00 AM 8.14 46.652 0.029 6.84 3.8 11.44
3/28/2021 1:45:00 AM 8.07 46.526 0.029 6.81 3.66 11.47
3/28/2021 2:00:00 AM 8.01 46.418 0.029 6.84 3.56 11.47
3/28/2021 2:15:00 AM 7.94 46.292 0.029 6.83 3.89 11.49
3/28/2021 2:30:00 AM 7.88 46.184 0.029 6.82 3.52 11.51
3/28/2021 2:45:00 AM 7.82 46.076 0.029 6.81 3.67 11.52
3/28/2021 3:00:00 AM 7.76 45.968 0.029 6.85 3.61 11.53
3/28/2021 3:15:00 AM 7.71 45.878 0.029 6.81 3.5 11.54
3/28/2021 3:30:00 AM 7.66 45.788 0.029 6.83 3.59 11.56
3/28/2021 3:45:00 AM 7.6 45.68 0.029 6.85 3.8 11.58
3/28/2021 4:00:00 AM 7.56 45.608 0.029 6.84 3.61 11.59
3/28/2021 4:15:00 AM 7.51 45.518 0.029 6.79 3.43 11.6
3/28/2021 4:30:00 AM 7.47 45.446 0.029 6.81 3.62 11.61
3/28/2021 4:45:00 AM 7.42 45.356 0.029 6.84 3.55 11.62
3/28/2021 5:00:00 AM 7.39 45.302 0.029 6.84 3.55 11.63
3/28/2021 5:15:00 AM 7.36 45.248 0.029 6.82 3.69 11.63
3/28/2021 5:30:00 AM 7.33 45.194 0.029 6.83 3.78 11.64
3/28/2021 5:45:00 AM 7.3 45.14 0.029 6.83 3.4 11.65
3/28/2021 6:00:00 AM 7.27 45.086 0.029 6.83 3.56 11.65
3/28/2021 6:15:00 AM 7.25 45.05 0.029 6.83 3.58 11.66
3/28/2021 6:30:00 AM 7.23 45.014 0.029 6.82 3.54 11.67
3/28/2021 6:45:00 AM 7.21 44.978 0.029 6.81 3.39 11.67
3/28/2021 7:00:00 AM 7.2 44.96 0.029 6.83 3.52 11.67
3/28/2021 7:15:00 AM 7.19 44.942 0.029 6.86 3.57 11.68
3/28/2021 7:30:00 AM 7.19 44.942 0.029 6.84 3.32 11.68
3/28/2021 7:45:00 AM 7.19 44.942 0.029 6.81 3.43 11.68
3/28/2021 8:00:00 AM 7.2 44.96 0.029 6.84 3.43 11.7
3/28/2021 8:15:00 AM 7.2 44.96 0.029 6.85 3.41 11.7
3/28/2021 8:30:00 AM 7.21 44.978 0.029 6.85 3.44 11.7
3/28/2021 8:45:00 AM 7.22 44.996 0.029 6.84 3.58 11.68
3/28/2021 9:00:00 AM 7.23 45.014 0.029 6.83 3.53 11.68
3/28/2021 9:15:00 AM 7.25 45.05 0.029 6.86 3.37 11.68
3/28/2021 9:30:00 AM 7.27 45.086 0.029 6.84 3.55 11.68
3/28/2021 9:45:00 AM 7.29 45.122 0.029 6.86 3.47 11.67
3/28/2021 10:00:00 AM 7.32 45.176 0.029 6.83 3.53 11.66
3/28/2021 10:15:00 AM 7.37 45.266 0.029 6.87 3.32 11.66
3/28/2021 10:30:00 AM 7.4 45.32 0.029 6.84 3.37 11.64
3/28/2021 10:45:00 AM 7.44 45.392 0.029 6.83 3.45 11.64
3/28/2021 11:00:00 AM 7.48 45.464 0.029 6.85 3.59 11.63
3/28/2021 11:15:00 AM 7.52 45.536 0.029 6.88 3.6 11.63
3/28/2021 11:30:00 AM 7.56 45.608 0.029 6.86 3.34 11.6
3/28/2021 11:45:00 AM 7.61 45.698 0.029 6.88 3.54 11.6
3/28/2021 12:00:00 PM 7.65 45.77 0.029 6.93 3.63 11.59
3/28/2021 12:15:00 PM 7.69 45.842 0.029 6.88 3.42 11.58
3/28/2021 12:30:00 PM 7.75 45.95 0.029 6.9 3.71 11.58
3/28/2021 12:45:00 PM 7.79 46.022 0.029 6.91 3.45 11.57
3/28/2021 1:00:00 PM 7.84 46.112 0.029 6.92 3.48 11.55
3/28/2021 1:15:00 PM 7.88 46.184 0.029 6.91 3.49 11.54
3/28/2021 1:30:00 PM 7.94 46.292 0.029 6.9 3.43 11.53
3/28/2021 1:45:00 PM 7.98 46.364 0.029 6.92 3.35 11.5
3/28/2021 2:00:00 PM 8.03 46.454 0.028 6.9 3.45 11.49
3/28/2021 2:15:00 PM 8.08 46.544 0.029 6.91 3.58 11.46
3/28/2021 2:30:00 PM 8.14 46.652 0.028 6.92 3.68 11.45
3/28/2021 2:45:00 PM 8.22 46.796 0.028 6.91 3.9 11.42
3/28/2021 3:00:00 PM 8.27 46.886 0.028 6.9 3.64 11.42
3/28/2021 3:15:00 PM 8.29 46.922 0.028 6.92 3.61 11.39
3/28/2021 3:30:00 PM 8.33 46.994 0.028 6.93 3.67 11.37
3/28/2021 3:45:00 PM 8.37 47.066 0.028 6.93 3.62 11.37
3/28/2021 4:00:00 PM 8.41 47.138 0.028 6.94 3.71 11.39
3/28/2021 4:15:00 PM 8.44 47.192 0.028 6.93 3.65 11.38
3/28/2021 4:30:00 PM 8.46 47.228 0.028 6.9 3.65 11.36
3/28/2021 4:45:00 PM 8.49 47.282 0.028 6.92 3.74 11.39
3/28/2021 5:00:00 PM 8.52 47.336 0.028 6.93 3.84 11.4
3/28/2021 5:15:00 PM 8.55 47.39 0.028 6.95 3.92 11.4
3/28/2021 5:30:00 PM 8.57 47.426 0.028 6.93 3.78 11.41
3/28/2021 5:45:00 PM 8.59 47.462 0.028 6.95 3.66 11.41
3/28/2021 6:00:00 PM 8.61 47.498 0.028 6.94 3.83 11.38
3/28/2021 6:15:00 PM 8.61 47.498 0.028 6.89 3.94 11.36
3/28/2021 6:30:00 PM 8.6 47.48 0.028 6.86 4.13 11.35
3/28/2021 6:45:00 PM 8.6 47.48 0.028 6.88 3.86 11.32
3/28/2021 7:00:00 PM 8.59 47.462 0.028 6.89 4.01 11.32
3/28/2021 7:15:00 PM 8.57 47.426 0.028 6.86 4.19 11.3
3/28/2021 7:30:00 PM 8.55 47.39 0.028 6.88 4.15 11.28
3/28/2021 7:45:00 PM 8.52 47.336 0.028 6.86 4.06 11.27
3/28/2021 8:00:00 PM 8.48 47.264 0.028 6.83 4.1 11.27
3/28/2021 8:15:00 PM 8.44 47.192 0.028 6.84 4.68 11.27
3/28/2021 8:30:00 PM 8.4 47.12 0.028 6.85 4.21 11.28
3/28/2021 8:45:00 PM 8.34 47.012 0.028 6.84 4.16 11.29
3/28/2021 9:00:00 PM 8.28 46.904 0.028 6.84 4.05 11.31
3/28/2021 9:15:00 PM 8.22 46.796 0.028 6.82 4.17 11.33
3/28/2021 9:30:00 PM 8.14 46.652 0.029 6.8 3.92 11.35
3/28/2021 9:45:00 PM 8.09 46.562 0.029 6.82 4.21 11.37
3/28/2021 10:00:00 PM 8.04 46.472 0.029 6.83 3.98 11.39
3/28/2021 10:15:00 PM 7.98 46.364 0.029 6.81 3.94 11.42
3/28/2021 10:30:00 PM 7.91 46.238 0.029 6.86 3.82 11.45
3/28/2021 10:45:00 PM 7.85 46.13 0.029 6.85 3.92 11.46
3/28/2021 11:00:00 PM 7.79 46.022 0.029 6.82 3.88 11.47
3/28/2021 11:15:00 PM 7.72 45.896 0.029 6.82 3.67 11.5
3/28/2021 11:30:00 PM 7.65 45.77 0.029 6.83 4.02 11.52
3/28/2021 11:45:00 PM 7.57 45.626 0.029 6.82 3.89 11.54
3/29/2021 12:00:00 AM 7.5 45.5 0.029 6.85 3.91 11.57
3/29/2021 12:15:00 AM 7.44 45.392 0.029 6.81 3.95 11.59
3/29/2021 12:30:00 AM 7.36 45.248 0.029 6.84 3.99 11.62
3/29/2021 12:45:00 AM 7.28 45.104 0.029 6.83 3.81 11.64
3/29/2021 1:00:00 AM 7.21 44.978 0.029 6.87 3.87 11.66
3/29/2021 1:15:00 AM 7.15 44.87 0.029 6.85 4 11.68
3/29/2021 1:30:00 AM 7.09 44.762 0.029 6.85 3.82 11.7
3/29/2021 1:45:00 AM 7.02 44.636 0.029 6.87 3.87 11.72
3/29/2021 2:00:00 AM 6.96 44.528 0.029 6.83 3.77 11.75
3/29/2021 2:15:00 AM 6.91 44.438 0.029 6.87 3.91 11.77
3/29/2021 2:30:00 AM 6.85 44.33 0.029 6.87 3.94 11.8
3/29/2021 2:45:00 AM 6.77 44.186 0.029 6.86 3.79 11.82
3/29/2021 3:00:00 AM 6.73 44.114 0.029 6.85 3.63 11.84
3/29/2021 3:15:00 AM 6.68 44.024 0.03 6.84 3.79 11.85
3/29/2021 3:30:00 AM 6.62 43.916 0.029 6.87 3.88 11.87
3/29/2021 3:45:00 AM 6.56 43.808 0.029 6.85 3.61 11.89
3/29/2021 4:00:00 AM 6.52 43.736 0.029 6.84 3.62 11.91
3/29/2021 4:15:00 AM 6.46 43.628 0.029 6.85 3.76 11.92
3/29/2021 4:30:00 AM 6.41 43.538 0.029 6.82 3.8 11.93
3/29/2021 4:45:00 AM 6.36 43.448 0.029 6.85 3.61 11.96
3/29/2021 5:00:00 AM 6.31 43.358 0.029 6.87 3.73 11.98
3/29/2021 5:15:00 AM 6.25 43.25 0.03 6.88 3.53 12.01
3/29/2021 5:30:00 AM 6.2 43.16 0.029 6.88 3.55 12.03
3/29/2021 5:45:00 AM 6.16 43.088 0.03 6.89 3.51 12.05
3/29/2021 6:00:00 AM 6.12 43.016 0.029 6.88 3.55 12.07
3/29/2021 6:15:00 AM 6.08 42.944 0.029 6.85 3.49 12.08
3/29/2021 6:30:00 AM 6.04 42.872 0.029 6.85 3.59 12.1
3/29/2021 6:45:00 AM 6 42.8 0.029 6.9 3.56 12.11
3/29/2021 7:00:00 AM 5.96 42.728 0.029 6.88 3.35 12.13
3/29/2021 7:15:00 AM 5.93 42.674 0.029 6.9 3.45 12.15
3/29/2021 7:30:00 AM 5.9 42.62 0.029 6.88 3.53 12.17
3/29/2021 7:45:00 AM 5.86 42.548 0.029 6.88 3.47 12.19
3/29/2021 8:00:00 AM 5.83 42.494 0.029 6.88 3.65 12.22
3/29/2021 8:15:00 AM 5.81 42.458 0.029 6.88 3.56 12.25
3/29/2021 8:30:00 AM 5.79 42.422 0.029 6.9 3.44 12.29
3/29/2021 8:45:00 AM 5.78 42.404 0.029 6.93 3.5 12.35
3/29/2021 9:00:00 AM 5.77 42.386 0.029 6.93 3.59 12.38
3/29/2021 9:15:00 AM 5.75 42.35 0.029 6.92 3.46 12.4
3/29/2021 9:30:00 AM 5.74 42.332 0.029 6.93 3.55 12.43
3/29/2021 9:45:00 AM 5.74 42.332 0.029 6.94 3.72 12.46
3/29/2021 10:00:00 AM 5.74 42.332 0.029 6.95 3.47 12.47
3/29/2021 10:15:00 AM 5.73 42.314 0.029 6.98 3.44 12.49
3/29/2021 10:30:00 AM 5.73 42.314 0.029 6.96 3.47 12.5
3/29/2021 10:45:00 AM 5.76 42.368 0.029 6.96 3.48 12.51
3/29/2021 11:00:00 AM 5.8 42.44 0.029 6.95 3.45 12.52
3/29/2021 11:15:00 AM 5.83 42.494 0.029 7 3.47 12.51
3/29/2021 11:30:00 AM 5.89 42.602 0.029 6.98 3.52 12.51
3/29/2021 11:45:00 AM 5.99 42.782 0.029 6.98 3.58 12.5
3/29/2021 12:00:00 PM 6.06 42.908 0.029 7.02 3.39 12.49
3/29/2021 12:15:00 PM 6.17 43.106 0.029 6.98 3.51 12.47
3/29/2021 12:30:00 PM 6.29 43.322 0.029 6.98 3.45 12.44
3/29/2021 12:45:00 PM 6.48 43.664 0.029 6.98 3.5 12.39
3/29/2021 1:00:00 PM 6.63 43.934 0.029 6.97 3.46 12.35
3/29/2021 1:15:00 PM 6.82 44.276 0.029 6.96 3.4 12.29
3/29/2021 1:30:00 PM 7 44.6 0.029 6.96 3.68 12.24
3/29/2021 1:45:00 PM 7.14 44.852 0.029 6.94 3.65 12.18
3/29/2021 2:00:00 PM 7.32 45.176 0.029 6.95 3.63 12.13
3/29/2021 2:15:00 PM 7.49 45.482 0.028 6.95 3.51 12.07
3/29/2021 2:30:00 PM 7.67 45.806 0.028 6.96 3.49 12
3/29/2021 2:45:00 PM 7.81 46.058 0.028 6.95 3.47 11.95
3/29/2021 3:00:00 PM 7.91 46.238 0.028 6.93 3.53 11.91
3/29/2021 3:15:00 PM 7.98 46.364 0.028 6.95 3.48 11.88
3/29/2021 3:30:00 PM 8.09 46.562 0.028 6.94 3.41 11.85
3/29/2021 3:45:00 PM 8.19 46.742 0.028 6.93 3.44 11.8
3/29/2021 4:00:00 PM 8.25 46.85 0.028 6.94 3.45 11.76
3/29/2021 4:15:00 PM 8.34 47.012 0.028 6.93 3.43 11.72
3/29/2021 4:30:00 PM 8.38 47.084 0.028 6.93 3.43 11.7
3/29/2021 4:45:00 PM 8.42 47.156 0.028 6.96 3.55 11.67
3/29/2021 5:00:00 PM 8.44 47.192 0.028 6.93 3.44 11.65
3/29/2021 5:15:00 PM 8.45 47.21 0.028 6.94 3.47 11.63
3/29/2021 5:30:00 PM 8.41 47.138 0.028 6.92 3.41 11.62
3/29/2021 5:45:00 PM 8.35 47.03 0.028 6.93 3.66 11.6
3/29/2021 6:00:00 PM 8.31 46.958 0.029 6.92 3.64 11.6
3/29/2021 6:15:00 PM 8.25 46.85 0.029 6.9 3.7 11.6
3/29/2021 6:30:00 PM 8.19 46.742 0.029 6.91 3.7 11.62
3/29/2021 6:45:00 PM 8.12 46.616 0.029 6.91 3.52 11.63
3/29/2021 7:00:00 PM 8.04 46.472 0.029 6.86 3.63 11.64
3/29/2021 7:15:00 PM 7.96 46.328 0.029 6.87 3.62 11.66
3/29/2021 7:30:00 PM 7.87 46.166 0.029 6.85 3.64 11.66
3/29/2021 7:45:00 PM 7.77 45.986 0.029 6.86 3.7 11.67
3/29/2021 8:00:00 PM 7.66 45.788 0.029 6.89 3.63 11.69
3/29/2021 8:15:00 PM 7.55 45.59 0.029 6.87 3.61 11.72
3/29/2021 8:30:00 PM 7.44 45.392 0.029 6.87 3.52 11.76
3/29/2021 8:45:00 PM 7.33 45.194 0.029 6.86 3.63 11.79
3/29/2021 9:00:00 PM 7.21 44.978 0.029 6.89 3.68 11.82
3/29/2021 9:15:00 PM 7.1 44.78 0.029 6.86 3.64 11.85
3/29/2021 9:30:00 PM 6.99 44.582 0.029 6.84 3.57 11.87
3/29/2021 9:45:00 PM 6.89 44.402 0.029 6.86 3.44 11.92
3/29/2021 10:00:00 PM 6.79 44.222 0.029 6.86 3.65 11.95
3/29/2021 10:15:00 PM 6.69 44.042 0.029 6.86 3.76 11.98
3/29/2021 10:30:00 PM 6.59 43.862 0.029 6.87 3.41 12.01
3/29/2021 10:45:00 PM 6.5 43.7 0.029 6.84 3.5 12.04
3/29/2021 11:00:00 PM 6.41 43.538 0.029 6.85 3.4 12.07
3/29/2021 11:15:00 PM 6.32 43.376 0.029 6.86 3.63 12.1
3/29/2021 11:30:00 PM 6.23 43.214 0.029 6.89 3.57 12.13
3/29/2021 11:45:00 PM 6.15 43.07 0.029 6.87 3.47 12.16
3/30/2021 12:00:00 AM 6.06 42.908 0.029 6.88 3.43 12.19
3/30/2021 12:15:00 AM 5.98 42.764 0.029 6.87 3.44 12.21
3/30/2021 12:30:00 AM 5.9 42.62 0.029 6.85 3.48 12.23
3/30/2021 12:45:00 AM 5.83 42.494 0.029 6.87 3.49 12.26
3/30/2021 1:00:00 AM 5.75 42.35 0.029 6.84 3.39 12.28
3/30/2021 1:15:00 AM 5.69 42.242 0.03 6.86 3.39 12.31
3/30/2021 1:30:00 AM 5.62 42.116 0.029 6.85 3.39 12.33
3/30/2021 1:45:00 AM 5.55 41.99 0.029 6.86 3.32 12.35
3/30/2021 2:00:00 AM 5.49 41.882 0.029 6.85 3.4 12.38
3/30/2021 2:15:00 AM 5.42 41.756 0.03 6.85 3.4 12.4
3/30/2021 2:30:00 AM 5.37 41.666 0.03 6.88 3.5 12.42
3/30/2021 2:45:00 AM 5.31 41.558 0.03 6.86 3.55 12.44
3/30/2021 3:00:00 AM 5.25 41.45 0.03 6.86 3.38 12.45
3/30/2021 3:15:00 AM 5.19 41.342 0.03 6.85 3.44 12.47
3/30/2021 3:30:00 AM 5.14 41.252 0.03 6.86 3.49 12.49
3/30/2021 3:45:00 AM 5.09 41.162 0.03 6.87 3.44 12.51
3/30/2021 4:00:00 AM 5.04 41.072 0.03 6.87 3.4 12.53
3/30/2021 4:15:00 AM 4.99 40.982 0.03 6.86 3.42 12.55
3/30/2021 4:30:00 AM 4.94 40.892 0.03 6.85 3.32 12.56
3/30/2021 4:45:00 AM 4.89 40.802 0.03 6.84 3.25 12.58
3/30/2021 5:00:00 AM 4.85 40.73 0.03 6.85 3.38 12.6
3/30/2021 5:15:00 AM 4.81 40.658 0.03 6.84 3.27 12.61
3/30/2021 5:30:00 AM 4.76 40.568 0.029 6.83 3.28 12.63
3/30/2021 5:45:00 AM 4.72 40.496 0.03 6.85 3.43 12.64
3/30/2021 6:00:00 AM 4.68 40.424 0.03 6.9 3.35 12.65
3/30/2021 6:15:00 AM 4.64 40.352 0.029 6.84 3.22 12.67
3/30/2021 6:30:00 AM 4.6 40.28 0.03 6.86 3.23 12.68
3/30/2021 6:45:00 AM 4.56 40.208 0.03 6.85 3.25 12.69
3/30/2021 7:00:00 AM 4.53 40.154 0.029 6.86 3.31 12.7
3/30/2021 7:15:00 AM 4.49 40.082 0.029 6.84 3.3 12.72
3/30/2021 7:30:00 AM 4.46 40.028 0.029 6.85 3.29 12.75
3/30/2021 7:45:00 AM 4.43 39.974 0.029 6.86 3.17 12.79
3/30/2021 8:00:00 AM 4.4 39.92 0.029 6.88 3.23 12.81
3/30/2021 8:15:00 AM 4.38 39.884 0.029 6.88 3.3 12.84
3/30/2021 8:30:00 AM 4.35 39.83 0.029 6.89 3.28 12.86
3/30/2021 8:45:00 AM 4.33 39.794 0.029 6.89 3.26 12.88
3/30/2021 9:00:00 AM 4.32 39.776 0.029 6.88 3.16 12.9
3/30/2021 9:15:00 AM 4.31 39.758 0.029 6.92 3.21 12.91
3/30/2021 9:30:00 AM 4.31 39.758 0.029 6.91 3.27 12.92
3/30/2021 9:45:00 AM 4.33 39.794 0.029 6.89 3.33 12.93
3/30/2021 10:00:00 AM 4.38 39.884 0.029 6.91 3.17 12.93
3/30/2021 10:15:00 AM 4.46 40.028 0.029 6.91 3.2 12.91
3/30/2021 10:30:00 AM 4.58 40.244 0.029 6.93 3.13 12.9
3/30/2021 10:45:00 AM 4.72 40.496 0.029 6.91 3.13 12.88
3/30/2021 11:00:00 AM 4.89 40.802 0.029 6.95 3.26 12.85
3/30/2021 11:15:00 AM 5.08 41.144 0.029 6.94 3.1 12.8
3/30/2021 11:30:00 AM 5.28 41.504 0.029 6.93 3.22 12.75
3/30/2021 11:45:00 AM 5.51 41.918 0.029 6.94 3.32 12.7
3/30/2021 12:00:00 PM 5.75 42.35 0.029 6.93 3.18 12.62
3/30/2021 12:15:00 PM 6 42.8 0.029 6.91 3.07 12.55
3/30/2021 12:30:00 PM 6.27 43.286 0.029 6.94 3.18 12.48
3/30/2021 12:45:00 PM 6.55 43.79 0.029 6.93 3.31 12.39
3/30/2021 1:00:00 PM 6.82 44.276 0.029 6.92 3.28 12.32
3/30/2021 1:15:00 PM 7.11 44.798 0.029 6.96 3.23 12.22
3/30/2021 1:30:00 PM 7.4 45.32 0.029 6.94 3.16 12.14
3/30/2021 1:45:00 PM 7.68 45.824 0.029 6.93 3.27 12.04
3/30/2021 2:00:00 PM 7.95 46.31 0.029 6.95 3.19 11.96
3/30/2021 2:15:00 PM 8.2 46.76 0.029 6.98 3.25 11.88
3/30/2021 2:30:00 PM 8.44 47.192 0.029 6.99 3.31 11.8
3/30/2021 2:45:00 PM 8.66 47.588 0.028 6.96 3.43 11.73
3/30/2021 3:00:00 PM 8.87 47.966 0.028 6.97 3.34 11.65
3/30/2021 3:15:00 PM 9.06 48.308 0.028 6.98 3.58 11.58
3/30/2021 3:30:00 PM 9.22 48.596 0.028 6.98 3.32 11.53
3/30/2021 3:45:00 PM 9.37 48.866 0.028 6.95 3.36 11.47
3/30/2021 4:00:00 PM 9.5 49.1 0.028 6.96 3.58 11.42
3/30/2021 4:15:00 PM 9.6 49.28 0.028 6.97 3.28 11.37
3/30/2021 4:30:00 PM 9.68 49.424 0.028 6.98 3.36 11.34
3/30/2021 4:45:00 PM 9.76 49.568 0.028 7 3.35 11.31
3/30/2021 5:00:00 PM 9.8 49.64 0.028 6.98 3.28 11.28
3/30/2021 5:15:00 PM 9.83 49.694 0.028 6.96 3.38 11.25
3/30/2021 5:30:00 PM 9.85 49.73 0.028 6.97 3.39 11.23
3/30/2021 5:45:00 PM 9.85 49.73 0.028 6.97 3.33 11.2
3/30/2021 6:00:00 PM 9.83 49.694 0.028 6.94 3.62 11.17
3/30/2021 6:15:00 PM 9.81 49.658 0.028 6.95 3.6 11.15
3/30/2021 6:30:00 PM 9.78 49.604 0.028 6.92 3.54 11.15
3/30/2021 6:45:00 PM 9.74 49.532 0.028 6.92 3.5 11.15
3/30/2021 7:00:00 PM 9.68 49.424 0.029 6.94 3.48 11.14
3/30/2021 7:15:00 PM 9.61 49.298 0.029 6.93 3.52 11.14
3/30/2021 7:30:00 PM 9.55 49.19 0.029 6.93 3.48 11.14
3/30/2021 7:45:00 PM 9.48 49.064 0.029 6.9 3.5 11.14
3/30/2021 8:00:00 PM 9.39 48.902 0.029 6.89 3.58 11.15
3/30/2021 8:15:00 PM 9.31 48.758 0.029 6.87 3.68 11.17
3/30/2021 8:30:00 PM 9.22 48.596 0.029 6.88 3.83 11.18
3/30/2021 8:45:00 PM 9.13 48.434 0.029 6.87 3.65 11.21
3/30/2021 9:00:00 PM 9.04 48.272 0.029 6.89 3.57 11.23
3/30/2021 9:15:00 PM 8.95 48.11 0.029 6.87 3.69 11.25
3/30/2021 9:30:00 PM 8.86 47.948 0.029 6.85 3.54 11.28
3/30/2021 9:45:00 PM 8.77 47.786 0.029 6.88 3.55 11.32
3/30/2021 10:00:00 PM 8.68 47.624 0.029 6.88 3.65 11.34
3/30/2021 10:15:00 PM 8.59 47.462 0.029 6.87 3.75 11.36
3/30/2021 10:30:00 PM 8.51 47.318 0.029 6.87 3.84 11.39
3/30/2021 10:45:00 PM 8.43 47.174 0.029 6.84 4.61 11.4
3/30/2021 11:00:00 PM 8.36 47.048 0.029 6.83 3.67 11.43
3/30/2021 11:15:00 PM 8.28 46.904 0.029 6.84 3.49 11.45
3/30/2021 11:30:00 PM 8.2 46.76 0.029 6.83 3.42 11.48
3/30/2021 11:45:00 PM 8.13 46.634 0.029 6.83 3.42 11.51
3/31/2021 12:00:00 AM 8.05 46.49 0.029 6.85 3.51 11.53
3/31/2021 12:15:00 AM 7.98 46.364 0.029 6.85 3.61 11.55
3/31/2021 12:30:00 AM 7.91 46.238 0.029 6.85 3.43 11.57
3/31/2021 12:45:00 AM 7.84 46.112 0.03 6.88 3.55 11.59
3/31/2021 1:00:00 AM 7.77 45.986 0.03 6.88 3.45 11.6
3/31/2021 1:15:00 AM 7.71 45.878 0.03 6.82 3.49 11.62
3/31/2021 1:30:00 AM 7.65 45.77 0.03 6.81 3.45 11.64
3/31/2021 1:45:00 AM 7.59 45.662 0.03 6.82 3.42 11.65
3/31/2021 2:00:00 AM 7.54 45.572 0.03 6.85 3.44 11.68
3/31/2021 2:15:00 AM 7.49 45.482 0.03 6.88 3.53 11.69
3/31/2021 2:30:00 AM 7.44 45.392 0.03 6.86 3.56 11.7
3/31/2021 2:45:00 AM 7.4 45.32 0.03 6.86 3.27 11.72
3/31/2021 3:00:00 AM 7.36 45.248 0.03 6.84 3.41 11.73
3/31/2021 3:15:00 AM 7.32 45.176 0.03 6.85 3.48 11.73
3/31/2021 3:30:00 AM 7.28 45.104 0.03 6.84 3.34 11.74
3/31/2021 3:45:00 AM 7.25 45.05 0.03 6.86 3.37 11.75
3/31/2021 4:00:00 AM 7.21 44.978 0.03 6.88 3.34 11.75
3/31/2021 4:15:00 AM 7.18 44.924 0.03 6.85 3.11 11.76
3/31/2021 4:30:00 AM 7.15 44.87 0.03 6.86 3.24 11.77
3/31/2021 4:45:00 AM 7.12 44.816 0.03 6.83 3.43 11.77
3/31/2021 5:00:00 AM 7.1 44.78 0.03 6.88 3.35 11.78
3/31/2021 5:15:00 AM 7.08 44.744 0.03 6.88 3.35 11.79
3/31/2021 5:30:00 AM 7.06 44.708 0.03 6.84 3.32 11.78
3/31/2021 5:45:00 AM 7.04 44.672 0.03 6.84 3.3 11.79
3/31/2021 6:00:00 AM 7.02 44.636 0.03 6.86 3.42 11.8
3/31/2021 6:15:00 AM 7.01 44.618 0.03 6.84 3.31 11.81
3/31/2021 6:30:00 AM 6.99 44.582 0.029 6.84 3.51 11.81
3/31/2021 6:45:00 AM 6.97 44.546 0.03 6.83 3.31 11.82
3/31/2021 7:00:00 AM 6.96 44.528 0.03 6.86 3.32 11.82
3/31/2021 7:15:00 AM 6.95 44.51 0.03 6.86 3.44 11.84
3/31/2021 7:30:00 AM 6.94 44.492 0.03 6.86 3.31 11.85
3/31/2021 7:45:00 AM 6.93 44.474 0.03 6.88 3.39 11.86
3/31/2021 8:00:00 AM 6.94 44.492 0.03 6.87 3.36 11.88
3/31/2021 8:15:00 AM 6.94 44.492 0.03 6.86 3.44 11.89
3/31/2021 8:30:00 AM 6.95 44.51 0.03 6.86 3.35 11.91
3/31/2021 8:45:00 AM 6.96 44.528 0.03 6.87 3.29 11.91
3/31/2021 9:00:00 AM 6.97 44.546 0.03 6.87 3.43 11.92
3/31/2021 9:15:00 AM 6.99 44.582 0.029 6.85 3.16 11.91
3/31/2021 9:30:00 AM 7 44.6 0.029 6.91 3.23 11.91
3/31/2021 9:45:00 AM 7.01 44.618 0.029 6.88 3.24 11.91
3/31/2021 10:00:00 AM 7.02 44.636 0.029 6.85 3.38 11.91
3/31/2021 10:15:00 AM 7.04 44.672 0.029 6.89 3.5 11.91
3/31/2021 10:30:00 AM 7.06 44.708 0.029 6.88 3.39 11.92
3/31/2021 10:45:00 AM 7.09 44.762 0.029 6.9 3.27 11.93
3/31/2021 11:00:00 AM 7.12 44.816 0.029 6.89 3.4 11.93
3/31/2021 11:15:00 AM 7.15 44.87 0.029 6.91 3.44 11.93
3/31/2021 11:30:00 AM 7.18 44.924 0.029 6.9 3.36 11.91
3/31/2021 11:45:00 AM 7.21 44.978 0.029 6.89 3.36 11.9
3/31/2021 12:00:00 PM 7.24 45.032 0.029 6.93 3.36 11.89
3/31/2021 12:15:00 PM 7.27 45.086 0.029 6.91 3.78 11.89
3/31/2021 12:30:00 PM 7